<?xml version="1.0" encoding="UTF-8" standalone="no" ?>
<gpx xmlns="http://www.topografix.com/GPX/1/1" xmlns:xsi="http://www.w3.org/2001/XMLSchema-instance" xsi:schemaLocation="http://www.topografix.com/GPX/1/1 http://www.topografix.com/GPX/1/1/gpx.xsd" version="1.1" creator="VisuGPX - https://www.visugpx.com">
  <metadata>
    <name> ROCABOUY 2  16KM</name>
  </metadata>
  <trk>
    <name><![CDATA[ ROCABOUY 2  16KM]]></name>
    <trkseg>
      <trkpt lat="44.79852" lon="1.61867">
        <ele>148.18</ele>
        <time>2021-05-31T08:03:55Z</time>
      </trkpt>
      <trkpt lat="44.79855" lon="1.61865">
        <ele>149.14</ele>
        <time>2021-05-31T08:04:17Z</time>
      </trkpt>
      <trkpt lat="44.79856" lon="1.61866">
        <ele>147.22</ele>
        <time>2021-05-31T08:04:19Z</time>
      </trkpt>
      <trkpt lat="44.79856" lon="1.61866">
        <ele>149.14</ele>
        <time>2021-05-31T08:04:21Z</time>
      </trkpt>
      <trkpt lat="44.79853" lon="1.61867">
        <ele>147.7</ele>
        <time>2021-05-31T08:04:34Z</time>
      </trkpt>
      <trkpt lat="44.79851" lon="1.61867">
        <ele>147.7</ele>
        <time>2021-05-31T08:04:46Z</time>
      </trkpt>
      <trkpt lat="44.79846" lon="1.61857">
        <ele>147.7</ele>
        <time>2021-05-31T08:05:02Z</time>
      </trkpt>
      <trkpt lat="44.79848" lon="1.61857">
        <ele>147.7</ele>
        <time>2021-05-31T08:05:15Z</time>
      </trkpt>
      <trkpt lat="44.79847" lon="1.61852">
        <ele>147.22</ele>
        <time>2021-05-31T08:05:21Z</time>
      </trkpt>
      <trkpt lat="44.79839" lon="1.61851">
        <ele>147.22</ele>
        <time>2021-05-31T08:05:29Z</time>
      </trkpt>
      <trkpt lat="44.79835" lon="1.61848">
        <ele>147.22</ele>
        <time>2021-05-31T08:05:37Z</time>
      </trkpt>
      <trkpt lat="44.79834" lon="1.61846">
        <ele>147.22</ele>
        <time>2021-05-31T08:05:39Z</time>
      </trkpt>
      <trkpt lat="44.79831" lon="1.61842">
        <ele>147.22</ele>
        <time>2021-05-31T08:05:42Z</time>
      </trkpt>
      <trkpt lat="44.79821" lon="1.61837">
        <ele>147.22</ele>
        <time>2021-05-31T08:05:52Z</time>
      </trkpt>
      <trkpt lat="44.79819" lon="1.61833">
        <ele>147.22</ele>
        <time>2021-05-31T08:05:55Z</time>
      </trkpt>
      <trkpt lat="44.79811" lon="1.6182">
        <ele>147.22</ele>
        <time>2021-05-31T08:06:02Z</time>
      </trkpt>
      <trkpt lat="44.79804" lon="1.6181">
        <ele>147.22</ele>
        <time>2021-05-31T08:06:12Z</time>
      </trkpt>
      <trkpt lat="44.79802" lon="1.61805">
        <ele>147.22</ele>
        <time>2021-05-31T08:06:15Z</time>
      </trkpt>
      <trkpt lat="44.79787" lon="1.61795">
        <ele>147.22</ele>
        <time>2021-05-31T08:06:25Z</time>
      </trkpt>
      <trkpt lat="44.79787" lon="1.6179">
        <ele>147.22</ele>
        <time>2021-05-31T08:06:29Z</time>
      </trkpt>
      <trkpt lat="44.79775" lon="1.61776">
        <ele>147.22</ele>
        <time>2021-05-31T08:06:38Z</time>
      </trkpt>
      <trkpt lat="44.79766" lon="1.6177">
        <ele>147.22</ele>
        <time>2021-05-31T08:06:46Z</time>
      </trkpt>
      <trkpt lat="44.79763" lon="1.61761">
        <ele>146.74</ele>
        <time>2021-05-31T08:06:52Z</time>
      </trkpt>
      <trkpt lat="44.79753" lon="1.61749">
        <ele>146.74</ele>
        <time>2021-05-31T08:07:02Z</time>
      </trkpt>
      <trkpt lat="44.79752" lon="1.61745">
        <ele>146.74</ele>
        <time>2021-05-31T08:07:05Z</time>
      </trkpt>
      <trkpt lat="44.79748" lon="1.61739">
        <ele>146.74</ele>
        <time>2021-05-31T08:07:09Z</time>
      </trkpt>
      <trkpt lat="44.79743" lon="1.61727">
        <ele>146.74</ele>
        <time>2021-05-31T08:07:17Z</time>
      </trkpt>
      <trkpt lat="44.79739" lon="1.61726">
        <ele>146.74</ele>
        <time>2021-05-31T08:07:21Z</time>
      </trkpt>
      <trkpt lat="44.79729" lon="1.61719">
        <ele>146.74</ele>
        <time>2021-05-31T08:07:28Z</time>
      </trkpt>
      <trkpt lat="44.79723" lon="1.61716">
        <ele>146.74</ele>
        <time>2021-05-31T08:07:32Z</time>
      </trkpt>
      <trkpt lat="44.79723" lon="1.61707">
        <ele>146.74</ele>
        <time>2021-05-31T08:07:37Z</time>
      </trkpt>
      <trkpt lat="44.79719" lon="1.61687">
        <ele>146.74</ele>
        <time>2021-05-31T08:07:46Z</time>
      </trkpt>
      <trkpt lat="44.79716" lon="1.61675">
        <ele>146.74</ele>
        <time>2021-05-31T08:07:53Z</time>
      </trkpt>
      <trkpt lat="44.79715" lon="1.61666">
        <ele>146.74</ele>
        <time>2021-05-31T08:07:58Z</time>
      </trkpt>
      <trkpt lat="44.79711" lon="1.61657">
        <ele>146.74</ele>
        <time>2021-05-31T08:08:02Z</time>
      </trkpt>
      <trkpt lat="44.79708" lon="1.61645">
        <ele>146.74</ele>
        <time>2021-05-31T08:08:10Z</time>
      </trkpt>
      <trkpt lat="44.79708" lon="1.61641">
        <ele>146.74</ele>
        <time>2021-05-31T08:08:12Z</time>
      </trkpt>
      <trkpt lat="44.79704" lon="1.61634">
        <ele>146.74</ele>
        <time>2021-05-31T08:08:16Z</time>
      </trkpt>
      <trkpt lat="44.79697" lon="1.61624">
        <ele>146.74</ele>
        <time>2021-05-31T08:08:24Z</time>
      </trkpt>
      <trkpt lat="44.79694" lon="1.61623">
        <ele>146.74</ele>
        <time>2021-05-31T08:08:27Z</time>
      </trkpt>
      <trkpt lat="44.79689" lon="1.61627">
        <ele>146.74</ele>
        <time>2021-05-31T08:08:30Z</time>
      </trkpt>
      <trkpt lat="44.79687" lon="1.61629">
        <ele>146.26</ele>
        <time>2021-05-31T08:08:31Z</time>
      </trkpt>
      <trkpt lat="44.79685" lon="1.6163">
        <ele>146.26</ele>
        <time>2021-05-31T08:08:32Z</time>
      </trkpt>
      <trkpt lat="44.79684" lon="1.61632">
        <ele>146.26</ele>
        <time>2021-05-31T08:08:33Z</time>
      </trkpt>
      <trkpt lat="44.79682" lon="1.61634">
        <ele>145.78</ele>
        <time>2021-05-31T08:08:34Z</time>
      </trkpt>
      <trkpt lat="44.7968" lon="1.61635">
        <ele>145.78</ele>
        <time>2021-05-31T08:08:35Z</time>
      </trkpt>
      <trkpt lat="44.79675" lon="1.61637">
        <ele>145.78</ele>
        <time>2021-05-31T08:08:39Z</time>
      </trkpt>
      <trkpt lat="44.79674" lon="1.61637">
        <ele>145.78</ele>
        <time>2021-05-31T08:08:40Z</time>
      </trkpt>
      <trkpt lat="44.79669" lon="1.61637">
        <ele>144.82</ele>
        <time>2021-05-31T08:08:44Z</time>
      </trkpt>
      <trkpt lat="44.79668" lon="1.61638">
        <ele>144.82</ele>
        <time>2021-05-31T08:08:45Z</time>
      </trkpt>
      <trkpt lat="44.79665" lon="1.6164">
        <ele>144.34</ele>
        <time>2021-05-31T08:08:46Z</time>
      </trkpt>
      <trkpt lat="44.79653" lon="1.61649">
        <ele>145.78</ele>
        <time>2021-05-31T08:08:53Z</time>
      </trkpt>
      <trkpt lat="44.79639" lon="1.61651">
        <ele>145.78</ele>
        <time>2021-05-31T08:09:03Z</time>
      </trkpt>
      <trkpt lat="44.79636" lon="1.61645">
        <ele>145.78</ele>
        <time>2021-05-31T08:09:07Z</time>
      </trkpt>
      <trkpt lat="44.79635" lon="1.61644">
        <ele>145.78</ele>
        <time>2021-05-31T08:09:08Z</time>
      </trkpt>
      <trkpt lat="44.79633" lon="1.61643">
        <ele>145.78</ele>
        <time>2021-05-31T08:09:09Z</time>
      </trkpt>
      <trkpt lat="44.79625" lon="1.61637">
        <ele>145.78</ele>
        <time>2021-05-31T08:09:17Z</time>
      </trkpt>
      <trkpt lat="44.79622" lon="1.61632">
        <ele>146.26</ele>
        <time>2021-05-31T08:09:21Z</time>
      </trkpt>
      <trkpt lat="44.79621" lon="1.6163">
        <ele>146.26</ele>
        <time>2021-05-31T08:09:22Z</time>
      </trkpt>
      <trkpt lat="44.79619" lon="1.61629">
        <ele>146.26</ele>
        <time>2021-05-31T08:09:23Z</time>
      </trkpt>
      <trkpt lat="44.79618" lon="1.61627">
        <ele>146.26</ele>
        <time>2021-05-31T08:09:24Z</time>
      </trkpt>
      <trkpt lat="44.79614" lon="1.61612">
        <ele>147.22</ele>
        <time>2021-05-31T08:09:33Z</time>
      </trkpt>
      <trkpt lat="44.79613" lon="1.61608">
        <ele>147.22</ele>
        <time>2021-05-31T08:09:35Z</time>
      </trkpt>
      <trkpt lat="44.79607" lon="1.61595">
        <ele>147.7</ele>
        <time>2021-05-31T08:09:44Z</time>
      </trkpt>
      <trkpt lat="44.79597" lon="1.61589">
        <ele>148.66</ele>
        <time>2021-05-31T08:09:53Z</time>
      </trkpt>
      <trkpt lat="44.79594" lon="1.61586">
        <ele>149.14</ele>
        <time>2021-05-31T08:09:56Z</time>
      </trkpt>
      <trkpt lat="44.79592" lon="1.61583">
        <ele>149.62</ele>
        <time>2021-05-31T08:09:57Z</time>
      </trkpt>
      <trkpt lat="44.79591" lon="1.61582">
        <ele>149.62</ele>
        <time>2021-05-31T08:09:58Z</time>
      </trkpt>
      <trkpt lat="44.7959" lon="1.61581">
        <ele>150.1</ele>
        <time>2021-05-31T08:09:59Z</time>
      </trkpt>
      <trkpt lat="44.79589" lon="1.61579">
        <ele>150.1</ele>
        <time>2021-05-31T08:10:00Z</time>
      </trkpt>
      <trkpt lat="44.79586" lon="1.61567">
        <ele>151.06</ele>
        <time>2021-05-31T08:10:08Z</time>
      </trkpt>
      <trkpt lat="44.79585" lon="1.61564">
        <ele>151.06</ele>
        <time>2021-05-31T08:10:09Z</time>
      </trkpt>
      <trkpt lat="44.79581" lon="1.61557">
        <ele>152.51</ele>
        <time>2021-05-31T08:10:16Z</time>
      </trkpt>
      <trkpt lat="44.79581" lon="1.61553">
        <ele>152.51</ele>
        <time>2021-05-31T08:10:19Z</time>
      </trkpt>
      <trkpt lat="44.79577" lon="1.61543">
        <ele>154.43</ele>
        <time>2021-05-31T08:10:28Z</time>
      </trkpt>
      <trkpt lat="44.7957" lon="1.61538">
        <ele>155.87</ele>
        <time>2021-05-31T08:10:36Z</time>
      </trkpt>
      <trkpt lat="44.79568" lon="1.61537">
        <ele>156.35</ele>
        <time>2021-05-31T08:10:37Z</time>
      </trkpt>
      <trkpt lat="44.79567" lon="1.61536">
        <ele>156.83</ele>
        <time>2021-05-31T08:10:38Z</time>
      </trkpt>
      <trkpt lat="44.79561" lon="1.6153">
        <ele>158.27</ele>
        <time>2021-05-31T08:10:45Z</time>
      </trkpt>
      <trkpt lat="44.79552" lon="1.61525">
        <ele>159.24</ele>
        <time>2021-05-31T08:10:53Z</time>
      </trkpt>
      <trkpt lat="44.79551" lon="1.61524">
        <ele>159.24</ele>
        <time>2021-05-31T08:10:54Z</time>
      </trkpt>
      <trkpt lat="44.79547" lon="1.61515">
        <ele>160.68</ele>
        <time>2021-05-31T08:11:02Z</time>
      </trkpt>
      <trkpt lat="44.79544" lon="1.61508">
        <ele>162.12</ele>
        <time>2021-05-31T08:11:08Z</time>
      </trkpt>
      <trkpt lat="44.79538" lon="1.61502">
        <ele>163.08</ele>
        <time>2021-05-31T08:11:15Z</time>
      </trkpt>
      <trkpt lat="44.79535" lon="1.61496">
        <ele>164.04</ele>
        <time>2021-05-31T08:11:22Z</time>
      </trkpt>
      <trkpt lat="44.7953" lon="1.61488">
        <ele>165.48</ele>
        <time>2021-05-31T08:11:33Z</time>
      </trkpt>
      <trkpt lat="44.79523" lon="1.6148">
        <ele>166.93</ele>
        <time>2021-05-31T08:11:43Z</time>
      </trkpt>
      <trkpt lat="44.79518" lon="1.61474">
        <ele>168.85</ele>
        <time>2021-05-31T08:11:52Z</time>
      </trkpt>
      <trkpt lat="44.79511" lon="1.6147">
        <ele>169.81</ele>
        <time>2021-05-31T08:12:01Z</time>
      </trkpt>
      <trkpt lat="44.79509" lon="1.61468">
        <ele>170.29</ele>
        <time>2021-05-31T08:12:05Z</time>
      </trkpt>
      <trkpt lat="44.79504" lon="1.61461">
        <ele>172.21</ele>
        <time>2021-05-31T08:12:13Z</time>
      </trkpt>
      <trkpt lat="44.79498" lon="1.61456">
        <ele>172.69</ele>
        <time>2021-05-31T08:12:20Z</time>
      </trkpt>
      <trkpt lat="44.79495" lon="1.61453">
        <ele>174.14</ele>
        <time>2021-05-31T08:12:27Z</time>
      </trkpt>
      <trkpt lat="44.79495" lon="1.61458">
        <ele>176.06</ele>
        <time>2021-05-31T08:12:37Z</time>
      </trkpt>
      <trkpt lat="44.79496" lon="1.61464">
        <ele>177.02</ele>
        <time>2021-05-31T08:12:45Z</time>
      </trkpt>
      <trkpt lat="44.79502" lon="1.61473">
        <ele>178.46</ele>
        <time>2021-05-31T08:12:56Z</time>
      </trkpt>
      <trkpt lat="44.79506" lon="1.61482">
        <ele>179.9</ele>
        <time>2021-05-31T08:13:07Z</time>
      </trkpt>
      <trkpt lat="44.79511" lon="1.61491">
        <ele>181.35</ele>
        <time>2021-05-31T08:13:16Z</time>
      </trkpt>
      <trkpt lat="44.79497" lon="1.61506">
        <ele>182.31</ele>
        <time>2021-05-31T08:13:24Z</time>
      </trkpt>
      <trkpt lat="44.79493" lon="1.6152">
        <ele>184.23</ele>
        <time>2021-05-31T08:13:36Z</time>
      </trkpt>
      <trkpt lat="44.7949" lon="1.61526">
        <ele>185.67</ele>
        <time>2021-05-31T08:13:46Z</time>
      </trkpt>
      <trkpt lat="44.79489" lon="1.61519">
        <ele>187.11</ele>
        <time>2021-05-31T08:13:53Z</time>
      </trkpt>
      <trkpt lat="44.79489" lon="1.61516">
        <ele>187.59</ele>
        <time>2021-05-31T08:13:57Z</time>
      </trkpt>
      <trkpt lat="44.79484" lon="1.61508">
        <ele>189.04</ele>
        <time>2021-05-31T08:14:06Z</time>
      </trkpt>
      <trkpt lat="44.79479" lon="1.615">
        <ele>190.48</ele>
        <time>2021-05-31T08:14:16Z</time>
      </trkpt>
      <trkpt lat="44.79473" lon="1.61492">
        <ele>191.92</ele>
        <time>2021-05-31T08:14:24Z</time>
      </trkpt>
      <trkpt lat="44.79467" lon="1.61477">
        <ele>193.36</ele>
        <time>2021-05-31T08:14:37Z</time>
      </trkpt>
      <trkpt lat="44.79462" lon="1.61468">
        <ele>194.32</ele>
        <time>2021-05-31T08:14:46Z</time>
      </trkpt>
      <trkpt lat="44.79457" lon="1.61457">
        <ele>196.25</ele>
        <time>2021-05-31T08:14:57Z</time>
      </trkpt>
      <trkpt lat="44.79453" lon="1.61445">
        <ele>198.17</ele>
        <time>2021-05-31T08:15:08Z</time>
      </trkpt>
      <trkpt lat="44.79449" lon="1.61434">
        <ele>199.13</ele>
        <time>2021-05-31T08:15:18Z</time>
      </trkpt>
      <trkpt lat="44.79449" lon="1.61432">
        <ele>199.13</ele>
        <time>2021-05-31T08:15:19Z</time>
      </trkpt>
      <trkpt lat="44.79452" lon="1.61418">
        <ele>201.05</ele>
        <time>2021-05-31T08:15:28Z</time>
      </trkpt>
      <trkpt lat="44.7945" lon="1.61407">
        <ele>200.57</ele>
        <time>2021-05-31T08:15:40Z</time>
      </trkpt>
      <trkpt lat="44.79447" lon="1.61393">
        <ele>200.57</ele>
        <time>2021-05-31T08:15:52Z</time>
      </trkpt>
      <trkpt lat="44.79449" lon="1.61368">
        <ele>201.05</ele>
        <time>2021-05-31T08:16:02Z</time>
      </trkpt>
      <trkpt lat="44.79449" lon="1.61348">
        <ele>201.05</ele>
        <time>2021-05-31T08:16:10Z</time>
      </trkpt>
      <trkpt lat="44.79451" lon="1.61332">
        <ele>200.09</ele>
        <time>2021-05-31T08:16:21Z</time>
      </trkpt>
      <trkpt lat="44.79458" lon="1.61311">
        <ele>199.61</ele>
        <time>2021-05-31T08:16:33Z</time>
      </trkpt>
      <trkpt lat="44.79464" lon="1.61297">
        <ele>199.13</ele>
        <time>2021-05-31T08:16:43Z</time>
      </trkpt>
      <trkpt lat="44.79469" lon="1.61289">
        <ele>198.65</ele>
        <time>2021-05-31T08:16:48Z</time>
      </trkpt>
      <trkpt lat="44.79479" lon="1.61272">
        <ele>198.17</ele>
        <time>2021-05-31T08:17:01Z</time>
      </trkpt>
      <trkpt lat="44.79487" lon="1.61259">
        <ele>198.17</ele>
        <time>2021-05-31T08:17:11Z</time>
      </trkpt>
      <trkpt lat="44.79498" lon="1.61246">
        <ele>198.17</ele>
        <time>2021-05-31T08:17:22Z</time>
      </trkpt>
      <trkpt lat="44.795" lon="1.61244">
        <ele>198.17</ele>
        <time>2021-05-31T08:17:23Z</time>
      </trkpt>
      <trkpt lat="44.79505" lon="1.61235">
        <ele>197.69</ele>
        <time>2021-05-31T08:17:30Z</time>
      </trkpt>
      <trkpt lat="44.79515" lon="1.61223">
        <ele>200.09</ele>
        <time>2021-05-31T08:17:41Z</time>
      </trkpt>
      <trkpt lat="44.79521" lon="1.61211">
        <ele>200.57</ele>
        <time>2021-05-31T08:17:48Z</time>
      </trkpt>
      <trkpt lat="44.79526" lon="1.61205">
        <ele>201.05</ele>
        <time>2021-05-31T08:17:53Z</time>
      </trkpt>
      <trkpt lat="44.7953" lon="1.61202">
        <ele>201.53</ele>
        <time>2021-05-31T08:17:57Z</time>
      </trkpt>
      <trkpt lat="44.79545" lon="1.61191">
        <ele>202.98</ele>
        <time>2021-05-31T08:18:09Z</time>
      </trkpt>
      <trkpt lat="44.79553" lon="1.61173">
        <ele>204.42</ele>
        <time>2021-05-31T08:18:22Z</time>
      </trkpt>
      <trkpt lat="44.79556" lon="1.61161">
        <ele>206.34</ele>
        <time>2021-05-31T08:18:32Z</time>
      </trkpt>
      <trkpt lat="44.79558" lon="1.61144">
        <ele>208.74</ele>
        <time>2021-05-31T08:18:45Z</time>
      </trkpt>
      <trkpt lat="44.79559" lon="1.61132">
        <ele>210.19</ele>
        <time>2021-05-31T08:18:55Z</time>
      </trkpt>
      <trkpt lat="44.7956" lon="1.61123">
        <ele>212.11</ele>
        <time>2021-05-31T08:19:04Z</time>
      </trkpt>
      <trkpt lat="44.79559" lon="1.61122">
        <ele>212.11</ele>
        <time>2021-05-31T08:19:06Z</time>
      </trkpt>
      <trkpt lat="44.79556" lon="1.61109">
        <ele>214.03</ele>
        <time>2021-05-31T08:19:17Z</time>
      </trkpt>
      <trkpt lat="44.79555" lon="1.611">
        <ele>215.47</ele>
        <time>2021-05-31T08:19:25Z</time>
      </trkpt>
      <trkpt lat="44.79553" lon="1.61093">
        <ele>216.43</ele>
        <time>2021-05-31T08:19:34Z</time>
      </trkpt>
      <trkpt lat="44.79546" lon="1.61094">
        <ele>217.88</ele>
        <time>2021-05-31T08:19:43Z</time>
      </trkpt>
      <trkpt lat="44.79541" lon="1.61099">
        <ele>219.32</ele>
        <time>2021-05-31T08:19:51Z</time>
      </trkpt>
      <trkpt lat="44.79531" lon="1.61104">
        <ele>221.24</ele>
        <time>2021-05-31T08:20:03Z</time>
      </trkpt>
      <trkpt lat="44.79528" lon="1.61107">
        <ele>221.72</ele>
        <time>2021-05-31T08:20:07Z</time>
      </trkpt>
      <trkpt lat="44.79518" lon="1.6111">
        <ele>223.64</ele>
        <time>2021-05-31T08:20:18Z</time>
      </trkpt>
      <trkpt lat="44.79513" lon="1.61113">
        <ele>224.61</ele>
        <time>2021-05-31T08:20:23Z</time>
      </trkpt>
      <trkpt lat="44.79507" lon="1.61112">
        <ele>224.61</ele>
        <time>2021-05-31T08:20:29Z</time>
      </trkpt>
      <trkpt lat="44.79501" lon="1.61113">
        <ele>226.53</ele>
        <time>2021-05-31T08:20:39Z</time>
      </trkpt>
      <trkpt lat="44.79494" lon="1.61115">
        <ele>227.01</ele>
        <time>2021-05-31T08:20:46Z</time>
      </trkpt>
      <trkpt lat="44.79485" lon="1.61119">
        <ele>228.93</ele>
        <time>2021-05-31T08:20:56Z</time>
      </trkpt>
      <trkpt lat="44.79475" lon="1.6112">
        <ele>230.37</ele>
        <time>2021-05-31T08:21:06Z</time>
      </trkpt>
      <trkpt lat="44.79469" lon="1.61119">
        <ele>231.33</ele>
        <time>2021-05-31T08:21:13Z</time>
      </trkpt>
      <trkpt lat="44.79459" lon="1.61114">
        <ele>233.26</ele>
        <time>2021-05-31T08:21:24Z</time>
      </trkpt>
      <trkpt lat="44.79451" lon="1.6111">
        <ele>235.18</ele>
        <time>2021-05-31T08:21:35Z</time>
      </trkpt>
      <trkpt lat="44.79442" lon="1.61104">
        <ele>237.1</ele>
        <time>2021-05-31T08:21:46Z</time>
      </trkpt>
      <trkpt lat="44.79433" lon="1.611">
        <ele>239.02</ele>
        <time>2021-05-31T08:21:58Z</time>
      </trkpt>
      <trkpt lat="44.79425" lon="1.61095">
        <ele>240.95</ele>
        <time>2021-05-31T08:22:10Z</time>
      </trkpt>
      <trkpt lat="44.79419" lon="1.61093">
        <ele>242.87</ele>
        <time>2021-05-31T08:22:20Z</time>
      </trkpt>
      <trkpt lat="44.79411" lon="1.61095">
        <ele>243.83</ele>
        <time>2021-05-31T08:22:35Z</time>
      </trkpt>
      <trkpt lat="44.79404" lon="1.61095">
        <ele>245.75</ele>
        <time>2021-05-31T08:22:46Z</time>
      </trkpt>
      <trkpt lat="44.79398" lon="1.61096">
        <ele>247.2</ele>
        <time>2021-05-31T08:22:53Z</time>
      </trkpt>
      <trkpt lat="44.79389" lon="1.61097">
        <ele>248.16</ele>
        <time>2021-05-31T08:23:03Z</time>
      </trkpt>
      <trkpt lat="44.79379" lon="1.61102">
        <ele>249.6</ele>
        <time>2021-05-31T08:23:15Z</time>
      </trkpt>
      <trkpt lat="44.79372" lon="1.61106">
        <ele>252</ele>
        <time>2021-05-31T08:23:25Z</time>
      </trkpt>
      <trkpt lat="44.7937" lon="1.61107">
        <ele>252.48</ele>
        <time>2021-05-31T08:23:28Z</time>
      </trkpt>
      <trkpt lat="44.7936" lon="1.61112">
        <ele>254.41</ele>
        <time>2021-05-31T08:23:41Z</time>
      </trkpt>
      <trkpt lat="44.79349" lon="1.61115">
        <ele>255.85</ele>
        <time>2021-05-31T08:23:53Z</time>
      </trkpt>
      <trkpt lat="44.79338" lon="1.61118">
        <ele>256.81</ele>
        <time>2021-05-31T08:24:05Z</time>
      </trkpt>
      <trkpt lat="44.79328" lon="1.6112">
        <ele>258.73</ele>
        <time>2021-05-31T08:24:15Z</time>
      </trkpt>
      <trkpt lat="44.79318" lon="1.61123">
        <ele>259.69</ele>
        <time>2021-05-31T08:24:26Z</time>
      </trkpt>
      <trkpt lat="44.79312" lon="1.61133">
        <ele>261.14</ele>
        <time>2021-05-31T08:24:37Z</time>
      </trkpt>
      <trkpt lat="44.79311" lon="1.61142">
        <ele>261.14</ele>
        <time>2021-05-31T08:24:48Z</time>
      </trkpt>
      <trkpt lat="44.79312" lon="1.6115">
        <ele>261.62</ele>
        <time>2021-05-31T08:24:58Z</time>
      </trkpt>
      <trkpt lat="44.79314" lon="1.61148">
        <ele>261.62</ele>
        <time>2021-05-31T08:25:10Z</time>
      </trkpt>
      <trkpt lat="44.79314" lon="1.61148">
        <ele>260.17</ele>
        <time>2021-05-31T08:25:18Z</time>
      </trkpt>
      <trkpt lat="44.79315" lon="1.61148">
        <ele>259.69</ele>
        <time>2021-05-31T08:25:46Z</time>
      </trkpt>
      <trkpt lat="44.79315" lon="1.61148">
        <ele>259.69</ele>
        <time>2021-05-31T08:25:47Z</time>
      </trkpt>
      <trkpt lat="44.79315" lon="1.61147">
        <ele>261.14</ele>
        <time>2021-05-31T08:26:04Z</time>
      </trkpt>
      <trkpt lat="44.79314" lon="1.6115">
        <ele>261.14</ele>
        <time>2021-05-31T08:26:11Z</time>
      </trkpt>
      <trkpt lat="44.79315" lon="1.61151">
        <ele>259.21</ele>
        <time>2021-05-31T08:26:26Z</time>
      </trkpt>
      <trkpt lat="44.79315" lon="1.61151">
        <ele>263.06</ele>
        <time>2021-05-31T08:26:28Z</time>
      </trkpt>
      <trkpt lat="44.79314" lon="1.61151">
        <ele>261.14</ele>
        <time>2021-05-31T08:26:29Z</time>
      </trkpt>
      <trkpt lat="44.79312" lon="1.61147">
        <ele>262.1</ele>
        <time>2021-05-31T08:26:42Z</time>
      </trkpt>
      <trkpt lat="44.79313" lon="1.61144">
        <ele>260.65</ele>
        <time>2021-05-31T08:26:46Z</time>
      </trkpt>
      <trkpt lat="44.79313" lon="1.61131">
        <ele>260.65</ele>
        <time>2021-05-31T08:26:56Z</time>
      </trkpt>
      <trkpt lat="44.79311" lon="1.6113">
        <ele>260.65</ele>
        <time>2021-05-31T08:27:07Z</time>
      </trkpt>
      <trkpt lat="44.79315" lon="1.6112">
        <ele>260.17</ele>
        <time>2021-05-31T08:27:17Z</time>
      </trkpt>
      <trkpt lat="44.79311" lon="1.61124">
        <ele>260.17</ele>
        <time>2021-05-31T08:27:27Z</time>
      </trkpt>
      <trkpt lat="44.79309" lon="1.61128">
        <ele>260.17</ele>
        <time>2021-05-31T08:27:48Z</time>
      </trkpt>
      <trkpt lat="44.79304" lon="1.61131">
        <ele>260.17</ele>
        <time>2021-05-31T08:28:05Z</time>
      </trkpt>
      <trkpt lat="44.79309" lon="1.61125">
        <ele>259.69</ele>
        <time>2021-05-31T08:28:19Z</time>
      </trkpt>
      <trkpt lat="44.79308" lon="1.61127">
        <ele>259.69</ele>
        <time>2021-05-31T08:28:41Z</time>
      </trkpt>
      <trkpt lat="44.7931" lon="1.61128">
        <ele>262.1</ele>
        <time>2021-05-31T08:28:52Z</time>
      </trkpt>
      <trkpt lat="44.7931" lon="1.61127">
        <ele>260.17</ele>
        <time>2021-05-31T08:28:54Z</time>
      </trkpt>
      <trkpt lat="44.79308" lon="1.61124">
        <ele>259.69</ele>
        <time>2021-05-31T08:29:07Z</time>
      </trkpt>
      <trkpt lat="44.793" lon="1.61118">
        <ele>259.69</ele>
        <time>2021-05-31T08:29:17Z</time>
      </trkpt>
      <trkpt lat="44.79287" lon="1.61115">
        <ele>262.58</ele>
        <time>2021-05-31T08:29:28Z</time>
      </trkpt>
      <trkpt lat="44.79282" lon="1.6111">
        <ele>262.58</ele>
        <time>2021-05-31T08:29:34Z</time>
      </trkpt>
      <trkpt lat="44.79276" lon="1.61109">
        <ele>263.06</ele>
        <time>2021-05-31T08:29:38Z</time>
      </trkpt>
      <trkpt lat="44.79259" lon="1.61105">
        <ele>264.02</ele>
        <time>2021-05-31T08:29:50Z</time>
      </trkpt>
      <trkpt lat="44.79248" lon="1.61104">
        <ele>264.5</ele>
        <time>2021-05-31T08:29:59Z</time>
      </trkpt>
      <trkpt lat="44.79234" lon="1.61101">
        <ele>264.5</ele>
        <time>2021-05-31T08:30:10Z</time>
      </trkpt>
      <trkpt lat="44.79225" lon="1.61099">
        <ele>264.98</ele>
        <time>2021-05-31T08:30:17Z</time>
      </trkpt>
      <trkpt lat="44.79208" lon="1.61093">
        <ele>265.46</ele>
        <time>2021-05-31T08:30:30Z</time>
      </trkpt>
      <trkpt lat="44.79194" lon="1.61089">
        <ele>265.46</ele>
        <time>2021-05-31T08:30:41Z</time>
      </trkpt>
      <trkpt lat="44.79177" lon="1.61084">
        <ele>264.98</ele>
        <time>2021-05-31T08:30:53Z</time>
      </trkpt>
      <trkpt lat="44.79161" lon="1.61077">
        <ele>264.98</ele>
        <time>2021-05-31T08:31:06Z</time>
      </trkpt>
      <trkpt lat="44.7916" lon="1.61076">
        <ele>264.98</ele>
        <time>2021-05-31T08:31:07Z</time>
      </trkpt>
      <trkpt lat="44.79141" lon="1.61071">
        <ele>264.98</ele>
        <time>2021-05-31T08:31:21Z</time>
      </trkpt>
      <trkpt lat="44.79134" lon="1.61066">
        <ele>264.98</ele>
        <time>2021-05-31T08:31:27Z</time>
      </trkpt>
      <trkpt lat="44.79118" lon="1.61061">
        <ele>264.98</ele>
        <time>2021-05-31T08:31:39Z</time>
      </trkpt>
      <trkpt lat="44.79114" lon="1.6106">
        <ele>264.98</ele>
        <time>2021-05-31T08:31:42Z</time>
      </trkpt>
      <trkpt lat="44.79099" lon="1.61054">
        <ele>264.02</ele>
        <time>2021-05-31T08:31:54Z</time>
      </trkpt>
      <trkpt lat="44.79092" lon="1.61053">
        <ele>264.02</ele>
        <time>2021-05-31T08:31:59Z</time>
      </trkpt>
      <trkpt lat="44.79077" lon="1.61047">
        <ele>263.54</ele>
        <time>2021-05-31T08:32:10Z</time>
      </trkpt>
      <trkpt lat="44.7906" lon="1.61042">
        <ele>263.06</ele>
        <time>2021-05-31T08:32:22Z</time>
      </trkpt>
      <trkpt lat="44.79042" lon="1.61029">
        <ele>262.58</ele>
        <time>2021-05-31T08:32:37Z</time>
      </trkpt>
      <trkpt lat="44.79028" lon="1.61022">
        <ele>262.1</ele>
        <time>2021-05-31T08:32:48Z</time>
      </trkpt>
      <trkpt lat="44.79013" lon="1.61012">
        <ele>261.62</ele>
        <time>2021-05-31T08:33:01Z</time>
      </trkpt>
      <trkpt lat="44.79009" lon="1.61009">
        <ele>261.62</ele>
        <time>2021-05-31T08:33:05Z</time>
      </trkpt>
      <trkpt lat="44.79005" lon="1.61006">
        <ele>261.62</ele>
        <time>2021-05-31T08:33:10Z</time>
      </trkpt>
      <trkpt lat="44.78999" lon="1.61003">
        <ele>262.1</ele>
        <time>2021-05-31T08:33:15Z</time>
      </trkpt>
      <trkpt lat="44.78994" lon="1.60999">
        <ele>260.65</ele>
        <time>2021-05-31T08:33:19Z</time>
      </trkpt>
      <trkpt lat="44.78988" lon="1.60992">
        <ele>260.17</ele>
        <time>2021-05-31T08:33:28Z</time>
      </trkpt>
      <trkpt lat="44.78973" lon="1.6098">
        <ele>260.17</ele>
        <time>2021-05-31T08:33:41Z</time>
      </trkpt>
      <trkpt lat="44.78957" lon="1.60968">
        <ele>261.14</ele>
        <time>2021-05-31T08:33:54Z</time>
      </trkpt>
      <trkpt lat="44.78957" lon="1.60967">
        <ele>261.14</ele>
        <time>2021-05-31T08:33:55Z</time>
      </trkpt>
      <trkpt lat="44.78955" lon="1.60948">
        <ele>261.62</ele>
        <time>2021-05-31T08:34:06Z</time>
      </trkpt>
      <trkpt lat="44.78956" lon="1.60942">
        <ele>261.62</ele>
        <time>2021-05-31T08:34:10Z</time>
      </trkpt>
      <trkpt lat="44.78957" lon="1.60921">
        <ele>261.62</ele>
        <time>2021-05-31T08:34:23Z</time>
      </trkpt>
      <trkpt lat="44.78961" lon="1.60893">
        <ele>261.62</ele>
        <time>2021-05-31T08:34:35Z</time>
      </trkpt>
      <trkpt lat="44.78964" lon="1.60875">
        <ele>262.58</ele>
        <time>2021-05-31T08:34:47Z</time>
      </trkpt>
      <trkpt lat="44.78965" lon="1.60859">
        <ele>260.65</ele>
        <time>2021-05-31T08:34:59Z</time>
      </trkpt>
      <trkpt lat="44.78964" lon="1.60854">
        <ele>260.65</ele>
        <time>2021-05-31T08:35:08Z</time>
      </trkpt>
      <trkpt lat="44.78965" lon="1.60852">
        <ele>260.65</ele>
        <time>2021-05-31T08:35:18Z</time>
      </trkpt>
      <trkpt lat="44.78965" lon="1.60852">
        <ele>260.65</ele>
        <time>2021-05-31T08:35:30Z</time>
      </trkpt>
      <trkpt lat="44.78963" lon="1.6085">
        <ele>260.65</ele>
        <time>2021-05-31T08:35:39Z</time>
      </trkpt>
      <trkpt lat="44.78963" lon="1.6085">
        <ele>260.65</ele>
        <time>2021-05-31T08:35:41Z</time>
      </trkpt>
      <trkpt lat="44.78965" lon="1.60855">
        <ele>260.65</ele>
        <time>2021-05-31T08:35:45Z</time>
      </trkpt>
      <trkpt lat="44.78964" lon="1.60879">
        <ele>260.65</ele>
        <time>2021-05-31T08:35:58Z</time>
      </trkpt>
      <trkpt lat="44.7896" lon="1.60903">
        <ele>260.65</ele>
        <time>2021-05-31T08:36:12Z</time>
      </trkpt>
      <trkpt lat="44.78959" lon="1.60924">
        <ele>260.65</ele>
        <time>2021-05-31T08:36:24Z</time>
      </trkpt>
      <trkpt lat="44.78958" lon="1.60932">
        <ele>261.62</ele>
        <time>2021-05-31T08:36:29Z</time>
      </trkpt>
      <trkpt lat="44.78953" lon="1.60953">
        <ele>261.62</ele>
        <time>2021-05-31T08:36:41Z</time>
      </trkpt>
      <trkpt lat="44.78949" lon="1.60964">
        <ele>261.62</ele>
        <time>2021-05-31T08:36:48Z</time>
      </trkpt>
      <trkpt lat="44.78934" lon="1.60961">
        <ele>261.62</ele>
        <time>2021-05-31T08:37:00Z</time>
      </trkpt>
      <trkpt lat="44.78916" lon="1.60955">
        <ele>261.62</ele>
        <time>2021-05-31T08:37:14Z</time>
      </trkpt>
      <trkpt lat="44.78898" lon="1.60945">
        <ele>261.62</ele>
        <time>2021-05-31T08:37:28Z</time>
      </trkpt>
      <trkpt lat="44.78878" lon="1.60937">
        <ele>261.62</ele>
        <time>2021-05-31T08:37:43Z</time>
      </trkpt>
      <trkpt lat="44.78865" lon="1.60928">
        <ele>261.62</ele>
        <time>2021-05-31T08:37:55Z</time>
      </trkpt>
      <trkpt lat="44.78856" lon="1.6092">
        <ele>260.17</ele>
        <time>2021-05-31T08:38:03Z</time>
      </trkpt>
      <trkpt lat="44.78854" lon="1.60918">
        <ele>260.17</ele>
        <time>2021-05-31T08:38:05Z</time>
      </trkpt>
      <trkpt lat="44.78844" lon="1.6091">
        <ele>260.17</ele>
        <time>2021-05-31T08:38:14Z</time>
      </trkpt>
      <trkpt lat="44.78828" lon="1.60895">
        <ele>259.69</ele>
        <time>2021-05-31T08:38:29Z</time>
      </trkpt>
      <trkpt lat="44.78814" lon="1.60885">
        <ele>259.21</ele>
        <time>2021-05-31T08:38:42Z</time>
      </trkpt>
      <trkpt lat="44.78813" lon="1.60884">
        <ele>259.21</ele>
        <time>2021-05-31T08:38:43Z</time>
      </trkpt>
      <trkpt lat="44.78809" lon="1.60864">
        <ele>258.73</ele>
        <time>2021-05-31T08:38:56Z</time>
      </trkpt>
      <trkpt lat="44.78811" lon="1.60842">
        <ele>257.29</ele>
        <time>2021-05-31T08:39:08Z</time>
      </trkpt>
      <trkpt lat="44.78811" lon="1.60823">
        <ele>256.33</ele>
        <time>2021-05-31T08:39:18Z</time>
      </trkpt>
      <trkpt lat="44.78812" lon="1.60808">
        <ele>255.37</ele>
        <time>2021-05-31T08:39:30Z</time>
      </trkpt>
      <trkpt lat="44.78811" lon="1.60799">
        <ele>253.93</ele>
        <time>2021-05-31T08:39:38Z</time>
      </trkpt>
      <trkpt lat="44.78808" lon="1.60782">
        <ele>252</ele>
        <time>2021-05-31T08:39:50Z</time>
      </trkpt>
      <trkpt lat="44.78805" lon="1.60769">
        <ele>250.08</ele>
        <time>2021-05-31T08:40:01Z</time>
      </trkpt>
      <trkpt lat="44.78803" lon="1.60759">
        <ele>248.16</ele>
        <time>2021-05-31T08:40:10Z</time>
      </trkpt>
      <trkpt lat="44.78798" lon="1.60749">
        <ele>246.23</ele>
        <time>2021-05-31T08:40:19Z</time>
      </trkpt>
      <trkpt lat="44.78796" lon="1.60729">
        <ele>244.79</ele>
        <time>2021-05-31T08:40:28Z</time>
      </trkpt>
      <trkpt lat="44.78793" lon="1.60721">
        <ele>242.87</ele>
        <time>2021-05-31T08:40:37Z</time>
      </trkpt>
      <trkpt lat="44.7879" lon="1.60707">
        <ele>240.47</ele>
        <time>2021-05-31T08:40:47Z</time>
      </trkpt>
      <trkpt lat="44.78789" lon="1.60693">
        <ele>238.54</ele>
        <time>2021-05-31T08:40:57Z</time>
      </trkpt>
      <trkpt lat="44.78789" lon="1.60677">
        <ele>236.62</ele>
        <time>2021-05-31T08:41:07Z</time>
      </trkpt>
      <trkpt lat="44.78788" lon="1.60658">
        <ele>235.18</ele>
        <time>2021-05-31T08:41:16Z</time>
      </trkpt>
      <trkpt lat="44.78787" lon="1.6064">
        <ele>233.74</ele>
        <time>2021-05-31T08:41:24Z</time>
      </trkpt>
      <trkpt lat="44.78786" lon="1.60632">
        <ele>233.26</ele>
        <time>2021-05-31T08:41:28Z</time>
      </trkpt>
      <trkpt lat="44.78781" lon="1.60614">
        <ele>230.85</ele>
        <time>2021-05-31T08:41:39Z</time>
      </trkpt>
      <trkpt lat="44.78779" lon="1.60592">
        <ele>229.41</ele>
        <time>2021-05-31T08:41:49Z</time>
      </trkpt>
      <trkpt lat="44.78775" lon="1.60575">
        <ele>227.49</ele>
        <time>2021-05-31T08:41:57Z</time>
      </trkpt>
      <trkpt lat="44.7877" lon="1.60553">
        <ele>226.05</ele>
        <time>2021-05-31T08:42:09Z</time>
      </trkpt>
      <trkpt lat="44.78769" lon="1.60549">
        <ele>226.05</ele>
        <time>2021-05-31T08:42:11Z</time>
      </trkpt>
      <trkpt lat="44.78766" lon="1.60521">
        <ele>223.64</ele>
        <time>2021-05-31T08:42:24Z</time>
      </trkpt>
      <trkpt lat="44.78766" lon="1.60519">
        <ele>223.64</ele>
        <time>2021-05-31T08:42:25Z</time>
      </trkpt>
      <trkpt lat="44.78764" lon="1.60498">
        <ele>221.72</ele>
        <time>2021-05-31T08:42:36Z</time>
      </trkpt>
      <trkpt lat="44.78763" lon="1.60479">
        <ele>220.76</ele>
        <time>2021-05-31T08:42:46Z</time>
      </trkpt>
      <trkpt lat="44.78759" lon="1.60466">
        <ele>218.84</ele>
        <time>2021-05-31T08:42:56Z</time>
      </trkpt>
      <trkpt lat="44.78758" lon="1.60454">
        <ele>217.4</ele>
        <time>2021-05-31T08:43:05Z</time>
      </trkpt>
      <trkpt lat="44.78757" lon="1.60452">
        <ele>216.91</ele>
        <time>2021-05-31T08:43:07Z</time>
      </trkpt>
      <trkpt lat="44.78754" lon="1.6043">
        <ele>214.99</ele>
        <time>2021-05-31T08:43:19Z</time>
      </trkpt>
      <trkpt lat="44.78756" lon="1.60411">
        <ele>213.07</ele>
        <time>2021-05-31T08:43:29Z</time>
      </trkpt>
      <trkpt lat="44.78759" lon="1.60402">
        <ele>212.11</ele>
        <time>2021-05-31T08:43:34Z</time>
      </trkpt>
      <trkpt lat="44.78763" lon="1.60384">
        <ele>211.15</ele>
        <time>2021-05-31T08:43:45Z</time>
      </trkpt>
      <trkpt lat="44.78766" lon="1.60372">
        <ele>209.22</ele>
        <time>2021-05-31T08:43:54Z</time>
      </trkpt>
      <trkpt lat="44.78768" lon="1.60368">
        <ele>208.74</ele>
        <time>2021-05-31T08:43:57Z</time>
      </trkpt>
      <trkpt lat="44.78767" lon="1.60362">
        <ele>208.74</ele>
        <time>2021-05-31T08:44:01Z</time>
      </trkpt>
      <trkpt lat="44.78765" lon="1.6036">
        <ele>208.26</ele>
        <time>2021-05-31T08:44:02Z</time>
      </trkpt>
      <trkpt lat="44.78766" lon="1.60354">
        <ele>207.3</ele>
        <time>2021-05-31T08:44:05Z</time>
      </trkpt>
      <trkpt lat="44.78767" lon="1.60346">
        <ele>207.3</ele>
        <time>2021-05-31T08:44:08Z</time>
      </trkpt>
      <trkpt lat="44.78769" lon="1.60327">
        <ele>205.38</ele>
        <time>2021-05-31T08:44:19Z</time>
      </trkpt>
      <trkpt lat="44.7877" lon="1.60323">
        <ele>205.38</ele>
        <time>2021-05-31T08:44:21Z</time>
      </trkpt>
      <trkpt lat="44.78771" lon="1.60318">
        <ele>204.9</ele>
        <time>2021-05-31T08:44:24Z</time>
      </trkpt>
      <trkpt lat="44.78771" lon="1.60299">
        <ele>203.46</ele>
        <time>2021-05-31T08:44:34Z</time>
      </trkpt>
      <trkpt lat="44.7877" lon="1.60285">
        <ele>201.53</ele>
        <time>2021-05-31T08:44:44Z</time>
      </trkpt>
      <trkpt lat="44.78766" lon="1.60273">
        <ele>200.09</ele>
        <time>2021-05-31T08:44:54Z</time>
      </trkpt>
      <trkpt lat="44.78766" lon="1.60264">
        <ele>199.13</ele>
        <time>2021-05-31T08:44:59Z</time>
      </trkpt>
      <trkpt lat="44.78764" lon="1.60259">
        <ele>198.65</ele>
        <time>2021-05-31T08:45:02Z</time>
      </trkpt>
      <trkpt lat="44.78761" lon="1.60236">
        <ele>196.73</ele>
        <time>2021-05-31T08:45:13Z</time>
      </trkpt>
      <trkpt lat="44.7876" lon="1.60234">
        <ele>196.25</ele>
        <time>2021-05-31T08:45:14Z</time>
      </trkpt>
      <trkpt lat="44.78755" lon="1.60209">
        <ele>194.8</ele>
        <time>2021-05-31T08:45:25Z</time>
      </trkpt>
      <trkpt lat="44.78753" lon="1.60194">
        <ele>193.84</ele>
        <time>2021-05-31T08:45:34Z</time>
      </trkpt>
      <trkpt lat="44.78756" lon="1.60184">
        <ele>192.4</ele>
        <time>2021-05-31T08:45:42Z</time>
      </trkpt>
      <trkpt lat="44.78755" lon="1.60179">
        <ele>192.4</ele>
        <time>2021-05-31T08:45:45Z</time>
      </trkpt>
      <trkpt lat="44.78755" lon="1.60171">
        <ele>191.92</ele>
        <time>2021-05-31T08:45:49Z</time>
      </trkpt>
      <trkpt lat="44.78755" lon="1.60163">
        <ele>190.96</ele>
        <time>2021-05-31T08:45:53Z</time>
      </trkpt>
      <trkpt lat="44.78755" lon="1.60157">
        <ele>190.48</ele>
        <time>2021-05-31T08:45:57Z</time>
      </trkpt>
      <trkpt lat="44.78754" lon="1.60136">
        <ele>188.56</ele>
        <time>2021-05-31T08:46:08Z</time>
      </trkpt>
      <trkpt lat="44.78751" lon="1.60128">
        <ele>187.59</ele>
        <time>2021-05-31T08:46:15Z</time>
      </trkpt>
      <trkpt lat="44.78748" lon="1.60122">
        <ele>186.63</ele>
        <time>2021-05-31T08:46:19Z</time>
      </trkpt>
      <trkpt lat="44.78749" lon="1.6012">
        <ele>186.63</ele>
        <time>2021-05-31T08:46:20Z</time>
      </trkpt>
      <trkpt lat="44.7875" lon="1.60118">
        <ele>186.15</ele>
        <time>2021-05-31T08:46:21Z</time>
      </trkpt>
      <trkpt lat="44.78752" lon="1.60102">
        <ele>184.71</ele>
        <time>2021-05-31T08:46:28Z</time>
      </trkpt>
      <trkpt lat="44.78752" lon="1.601">
        <ele>184.71</ele>
        <time>2021-05-31T08:46:29Z</time>
      </trkpt>
      <trkpt lat="44.78752" lon="1.60098">
        <ele>184.71</ele>
        <time>2021-05-31T08:46:30Z</time>
      </trkpt>
      <trkpt lat="44.78751" lon="1.60091">
        <ele>184.23</ele>
        <time>2021-05-31T08:46:33Z</time>
      </trkpt>
      <trkpt lat="44.78749" lon="1.60079">
        <ele>183.27</ele>
        <time>2021-05-31T08:46:40Z</time>
      </trkpt>
      <trkpt lat="44.78754" lon="1.6006">
        <ele>181.35</ele>
        <time>2021-05-31T08:46:50Z</time>
      </trkpt>
      <trkpt lat="44.78752" lon="1.60052">
        <ele>180.87</ele>
        <time>2021-05-31T08:46:55Z</time>
      </trkpt>
      <trkpt lat="44.78751" lon="1.60051">
        <ele>180.87</ele>
        <time>2021-05-31T08:46:56Z</time>
      </trkpt>
      <trkpt lat="44.78746" lon="1.60035">
        <ele>179.42</ele>
        <time>2021-05-31T08:47:04Z</time>
      </trkpt>
      <trkpt lat="44.78753" lon="1.60019">
        <ele>177.5</ele>
        <time>2021-05-31T08:47:13Z</time>
      </trkpt>
      <trkpt lat="44.78757" lon="1.6001">
        <ele>177.02</ele>
        <time>2021-05-31T08:47:19Z</time>
      </trkpt>
      <trkpt lat="44.78758" lon="1.59997">
        <ele>175.58</ele>
        <time>2021-05-31T08:47:28Z</time>
      </trkpt>
      <trkpt lat="44.78758" lon="1.59994">
        <ele>175.1</ele>
        <time>2021-05-31T08:47:30Z</time>
      </trkpt>
      <trkpt lat="44.78759" lon="1.59988">
        <ele>175.1</ele>
        <time>2021-05-31T08:47:33Z</time>
      </trkpt>
      <trkpt lat="44.78764" lon="1.5997">
        <ele>173.17</ele>
        <time>2021-05-31T08:47:43Z</time>
      </trkpt>
      <trkpt lat="44.78762" lon="1.59951">
        <ele>172.21</ele>
        <time>2021-05-31T08:47:52Z</time>
      </trkpt>
      <trkpt lat="44.78762" lon="1.59947">
        <ele>171.73</ele>
        <time>2021-05-31T08:47:54Z</time>
      </trkpt>
      <trkpt lat="44.78763" lon="1.59945">
        <ele>171.25</ele>
        <time>2021-05-31T08:47:55Z</time>
      </trkpt>
      <trkpt lat="44.78766" lon="1.59927">
        <ele>169.81</ele>
        <time>2021-05-31T08:48:05Z</time>
      </trkpt>
      <trkpt lat="44.78767" lon="1.59926">
        <ele>169.81</ele>
        <time>2021-05-31T08:48:06Z</time>
      </trkpt>
      <trkpt lat="44.78767" lon="1.59924">
        <ele>169.81</ele>
        <time>2021-05-31T08:48:07Z</time>
      </trkpt>
      <trkpt lat="44.78767" lon="1.59922">
        <ele>169.33</ele>
        <time>2021-05-31T08:48:08Z</time>
      </trkpt>
      <trkpt lat="44.78767" lon="1.59916">
        <ele>168.85</ele>
        <time>2021-05-31T08:48:11Z</time>
      </trkpt>
      <trkpt lat="44.78768" lon="1.59914">
        <ele>168.37</ele>
        <time>2021-05-31T08:48:12Z</time>
      </trkpt>
      <trkpt lat="44.78768" lon="1.59912">
        <ele>168.37</ele>
        <time>2021-05-31T08:48:13Z</time>
      </trkpt>
      <trkpt lat="44.78771" lon="1.59906">
        <ele>167.89</ele>
        <time>2021-05-31T08:48:16Z</time>
      </trkpt>
      <trkpt lat="44.78773" lon="1.59894">
        <ele>166.93</ele>
        <time>2021-05-31T08:48:23Z</time>
      </trkpt>
      <trkpt lat="44.78774" lon="1.59883">
        <ele>165.96</ele>
        <time>2021-05-31T08:48:28Z</time>
      </trkpt>
      <trkpt lat="44.78774" lon="1.59881">
        <ele>165.48</ele>
        <time>2021-05-31T08:48:29Z</time>
      </trkpt>
      <trkpt lat="44.78775" lon="1.59879">
        <ele>165.48</ele>
        <time>2021-05-31T08:48:30Z</time>
      </trkpt>
      <trkpt lat="44.78775" lon="1.59877">
        <ele>165.48</ele>
        <time>2021-05-31T08:48:31Z</time>
      </trkpt>
      <trkpt lat="44.78776" lon="1.59875">
        <ele>165.48</ele>
        <time>2021-05-31T08:48:32Z</time>
      </trkpt>
      <trkpt lat="44.78772" lon="1.59858">
        <ele>164.04</ele>
        <time>2021-05-31T08:48:41Z</time>
      </trkpt>
      <trkpt lat="44.78756" lon="1.59847">
        <ele>162.6</ele>
        <time>2021-05-31T08:48:49Z</time>
      </trkpt>
      <trkpt lat="44.78741" lon="1.59828">
        <ele>161.16</ele>
        <time>2021-05-31T08:49:00Z</time>
      </trkpt>
      <trkpt lat="44.78736" lon="1.5981">
        <ele>160.2</ele>
        <time>2021-05-31T08:49:08Z</time>
      </trkpt>
      <trkpt lat="44.78724" lon="1.59796">
        <ele>159.24</ele>
        <time>2021-05-31T08:49:17Z</time>
      </trkpt>
      <trkpt lat="44.78718" lon="1.59782">
        <ele>157.79</ele>
        <time>2021-05-31T08:49:23Z</time>
      </trkpt>
      <trkpt lat="44.78718" lon="1.59779">
        <ele>157.31</ele>
        <time>2021-05-31T08:49:26Z</time>
      </trkpt>
      <trkpt lat="44.78721" lon="1.59771">
        <ele>156.83</ele>
        <time>2021-05-31T08:49:30Z</time>
      </trkpt>
      <trkpt lat="44.78716" lon="1.59752">
        <ele>154.91</ele>
        <time>2021-05-31T08:49:41Z</time>
      </trkpt>
      <trkpt lat="44.78795" lon="1.59734">
        <ele>153.95</ele>
        <time>2021-05-31T08:49:49Z</time>
      </trkpt>
      <trkpt lat="44.78801" lon="1.59725">
        <ele>153.47</ele>
        <time>2021-05-31T08:49:56Z</time>
      </trkpt>
      <trkpt lat="44.78803" lon="1.59713">
        <ele>151.54</ele>
        <time>2021-05-31T08:50:05Z</time>
      </trkpt>
      <trkpt lat="44.78802" lon="1.5971">
        <ele>151.54</ele>
        <time>2021-05-31T08:50:08Z</time>
      </trkpt>
      <trkpt lat="44.78808" lon="1.59702">
        <ele>151.06</ele>
        <time>2021-05-31T08:50:13Z</time>
      </trkpt>
      <trkpt lat="44.78807" lon="1.597">
        <ele>150.58</ele>
        <time>2021-05-31T08:50:14Z</time>
      </trkpt>
      <trkpt lat="44.78805" lon="1.59697">
        <ele>150.58</ele>
        <time>2021-05-31T08:50:17Z</time>
      </trkpt>
      <trkpt lat="44.78809" lon="1.59691">
        <ele>150.1</ele>
        <time>2021-05-31T08:50:20Z</time>
      </trkpt>
      <trkpt lat="44.78811" lon="1.59674">
        <ele>149.14</ele>
        <time>2021-05-31T08:50:30Z</time>
      </trkpt>
      <trkpt lat="44.78813" lon="1.59671">
        <ele>148.66</ele>
        <time>2021-05-31T08:50:32Z</time>
      </trkpt>
      <trkpt lat="44.78816" lon="1.59652">
        <ele>147.22</ele>
        <time>2021-05-31T08:50:42Z</time>
      </trkpt>
      <trkpt lat="44.78818" lon="1.59637">
        <ele>145.78</ele>
        <time>2021-05-31T08:50:50Z</time>
      </trkpt>
      <trkpt lat="44.78816" lon="1.59632">
        <ele>145.3</ele>
        <time>2021-05-31T08:50:53Z</time>
      </trkpt>
      <trkpt lat="44.78817" lon="1.5963">
        <ele>145.3</ele>
        <time>2021-05-31T08:50:54Z</time>
      </trkpt>
      <trkpt lat="44.78818" lon="1.59628">
        <ele>145.3</ele>
        <time>2021-05-31T08:50:55Z</time>
      </trkpt>
      <trkpt lat="44.78819" lon="1.59625">
        <ele>145.3</ele>
        <time>2021-05-31T08:50:56Z</time>
      </trkpt>
      <trkpt lat="44.78819" lon="1.59623">
        <ele>145.3</ele>
        <time>2021-05-31T08:50:57Z</time>
      </trkpt>
      <trkpt lat="44.7882" lon="1.5962">
        <ele>145.3</ele>
        <time>2021-05-31T08:50:59Z</time>
      </trkpt>
      <trkpt lat="44.78819" lon="1.59604">
        <ele>143.85</ele>
        <time>2021-05-31T08:51:06Z</time>
      </trkpt>
      <trkpt lat="44.78817" lon="1.59592">
        <ele>142.89</ele>
        <time>2021-05-31T08:51:12Z</time>
      </trkpt>
      <trkpt lat="44.78818" lon="1.5959">
        <ele>142.89</ele>
        <time>2021-05-31T08:51:13Z</time>
      </trkpt>
      <trkpt lat="44.78818" lon="1.59589">
        <ele>142.89</ele>
        <time>2021-05-31T08:51:14Z</time>
      </trkpt>
      <trkpt lat="44.78818" lon="1.59577">
        <ele>141.93</ele>
        <time>2021-05-31T08:51:20Z</time>
      </trkpt>
      <trkpt lat="44.78805" lon="1.59561">
        <ele>140.97</ele>
        <time>2021-05-31T08:51:28Z</time>
      </trkpt>
      <trkpt lat="44.78805" lon="1.59558">
        <ele>140.49</ele>
        <time>2021-05-31T08:51:29Z</time>
      </trkpt>
      <trkpt lat="44.78806" lon="1.59557">
        <ele>140.49</ele>
        <time>2021-05-31T08:51:30Z</time>
      </trkpt>
      <trkpt lat="44.78808" lon="1.59546">
        <ele>140.01</ele>
        <time>2021-05-31T08:51:37Z</time>
      </trkpt>
      <trkpt lat="44.78814" lon="1.59534">
        <ele>139.53</ele>
        <time>2021-05-31T08:51:43Z</time>
      </trkpt>
      <trkpt lat="44.78817" lon="1.59528">
        <ele>138.57</ele>
        <time>2021-05-31T08:51:47Z</time>
      </trkpt>
      <trkpt lat="44.78818" lon="1.59525">
        <ele>138.57</ele>
        <time>2021-05-31T08:51:49Z</time>
      </trkpt>
      <trkpt lat="44.78822" lon="1.59517">
        <ele>138.09</ele>
        <time>2021-05-31T08:51:55Z</time>
      </trkpt>
      <trkpt lat="44.78822" lon="1.59505">
        <ele>136.64</ele>
        <time>2021-05-31T08:52:04Z</time>
      </trkpt>
      <trkpt lat="44.78825" lon="1.59494">
        <ele>135.68</ele>
        <time>2021-05-31T08:52:13Z</time>
      </trkpt>
      <trkpt lat="44.78827" lon="1.59487">
        <ele>134.72</ele>
        <time>2021-05-31T08:52:21Z</time>
      </trkpt>
      <trkpt lat="44.78828" lon="1.59482">
        <ele>134.24</ele>
        <time>2021-05-31T08:52:25Z</time>
      </trkpt>
      <trkpt lat="44.7883" lon="1.59463">
        <ele>132.32</ele>
        <time>2021-05-31T08:52:35Z</time>
      </trkpt>
      <trkpt lat="44.78832" lon="1.59453">
        <ele>131.36</ele>
        <time>2021-05-31T08:52:40Z</time>
      </trkpt>
      <trkpt lat="44.78834" lon="1.59448">
        <ele>131.36</ele>
        <time>2021-05-31T08:52:42Z</time>
      </trkpt>
      <trkpt lat="44.78833" lon="1.59438">
        <ele>130.88</ele>
        <time>2021-05-31T08:52:46Z</time>
      </trkpt>
      <trkpt lat="44.78832" lon="1.59433">
        <ele>130.4</ele>
        <time>2021-05-31T08:52:48Z</time>
      </trkpt>
      <trkpt lat="44.78832" lon="1.59426">
        <ele>129.92</ele>
        <time>2021-05-31T08:52:52Z</time>
      </trkpt>
      <trkpt lat="44.78832" lon="1.59412">
        <ele>128.95</ele>
        <time>2021-05-31T08:53:02Z</time>
      </trkpt>
      <trkpt lat="44.78831" lon="1.59408">
        <ele>128.95</ele>
        <time>2021-05-31T08:53:15Z</time>
      </trkpt>
      <trkpt lat="44.78834" lon="1.59385">
        <ele>127.51</ele>
        <time>2021-05-31T08:53:26Z</time>
      </trkpt>
      <trkpt lat="44.78835" lon="1.59381">
        <ele>126.55</ele>
        <time>2021-05-31T08:53:28Z</time>
      </trkpt>
      <trkpt lat="44.78841" lon="1.59364">
        <ele>125.59</ele>
        <time>2021-05-31T08:53:39Z</time>
      </trkpt>
      <trkpt lat="44.78849" lon="1.59345">
        <ele>124.63</ele>
        <time>2021-05-31T08:53:52Z</time>
      </trkpt>
      <trkpt lat="44.78861" lon="1.59341">
        <ele>123.67</ele>
        <time>2021-05-31T08:54:04Z</time>
      </trkpt>
      <trkpt lat="44.7887" lon="1.59342">
        <ele>123.19</ele>
        <time>2021-05-31T08:54:14Z</time>
      </trkpt>
      <trkpt lat="44.78878" lon="1.59337">
        <ele>123.19</ele>
        <time>2021-05-31T08:54:22Z</time>
      </trkpt>
      <trkpt lat="44.78893" lon="1.59329">
        <ele>122.22</ele>
        <time>2021-05-31T08:54:33Z</time>
      </trkpt>
      <trkpt lat="44.78902" lon="1.59323">
        <ele>122.22</ele>
        <time>2021-05-31T08:54:43Z</time>
      </trkpt>
      <trkpt lat="44.78904" lon="1.59322">
        <ele>122.22</ele>
        <time>2021-05-31T08:54:45Z</time>
      </trkpt>
      <trkpt lat="44.78926" lon="1.5932">
        <ele>121.74</ele>
        <time>2021-05-31T08:54:57Z</time>
      </trkpt>
      <trkpt lat="44.7894" lon="1.59319">
        <ele>121.74</ele>
        <time>2021-05-31T08:55:06Z</time>
      </trkpt>
      <trkpt lat="44.78946" lon="1.5932">
        <ele>120.78</ele>
        <time>2021-05-31T08:55:10Z</time>
      </trkpt>
      <trkpt lat="44.78953" lon="1.59322">
        <ele>120.78</ele>
        <time>2021-05-31T08:55:14Z</time>
      </trkpt>
      <trkpt lat="44.78959" lon="1.59324">
        <ele>120.78</ele>
        <time>2021-05-31T08:55:17Z</time>
      </trkpt>
      <trkpt lat="44.78966" lon="1.59327">
        <ele>120.78</ele>
        <time>2021-05-31T08:55:22Z</time>
      </trkpt>
      <trkpt lat="44.78968" lon="1.59326">
        <ele>119.82</ele>
        <time>2021-05-31T08:55:24Z</time>
      </trkpt>
      <trkpt lat="44.78987" lon="1.59327">
        <ele>119.82</ele>
        <time>2021-05-31T08:55:34Z</time>
      </trkpt>
      <trkpt lat="44.78997" lon="1.59329">
        <ele>119.82</ele>
        <time>2021-05-31T08:55:43Z</time>
      </trkpt>
      <trkpt lat="44.79003" lon="1.59329">
        <ele>119.82</ele>
        <time>2021-05-31T08:55:49Z</time>
      </trkpt>
      <trkpt lat="44.79013" lon="1.59328">
        <ele>119.82</ele>
        <time>2021-05-31T08:56:00Z</time>
      </trkpt>
      <trkpt lat="44.79023" lon="1.59327">
        <ele>118.86</ele>
        <time>2021-05-31T08:56:09Z</time>
      </trkpt>
      <trkpt lat="44.79039" lon="1.59326">
        <ele>118.86</ele>
        <time>2021-05-31T08:56:19Z</time>
      </trkpt>
      <trkpt lat="44.7905" lon="1.59318">
        <ele>118.38</ele>
        <time>2021-05-31T08:56:30Z</time>
      </trkpt>
      <trkpt lat="44.79054" lon="1.59313">
        <ele>118.38</ele>
        <time>2021-05-31T08:56:35Z</time>
      </trkpt>
      <trkpt lat="44.79066" lon="1.59305">
        <ele>118.38</ele>
        <time>2021-05-31T08:56:44Z</time>
      </trkpt>
      <trkpt lat="44.79068" lon="1.59302">
        <ele>117.9</ele>
        <time>2021-05-31T08:56:46Z</time>
      </trkpt>
      <trkpt lat="44.79069" lon="1.593">
        <ele>117.9</ele>
        <time>2021-05-31T08:56:48Z</time>
      </trkpt>
      <trkpt lat="44.79071" lon="1.59299">
        <ele>117.42</ele>
        <time>2021-05-31T08:56:49Z</time>
      </trkpt>
      <trkpt lat="44.79073" lon="1.59295">
        <ele>117.42</ele>
        <time>2021-05-31T08:56:53Z</time>
      </trkpt>
      <trkpt lat="44.79075" lon="1.59294">
        <ele>116.46</ele>
        <time>2021-05-31T08:56:54Z</time>
      </trkpt>
      <trkpt lat="44.79074" lon="1.59286">
        <ele>116.94</ele>
        <time>2021-05-31T08:57:01Z</time>
      </trkpt>
      <trkpt lat="44.79074" lon="1.59287">
        <ele>116.94</ele>
        <time>2021-05-31T08:57:04Z</time>
      </trkpt>
      <trkpt lat="44.79072" lon="1.59294">
        <ele>115.01</ele>
        <time>2021-05-31T08:57:10Z</time>
      </trkpt>
      <trkpt lat="44.79079" lon="1.59303">
        <ele>114.05</ele>
        <time>2021-05-31T08:57:18Z</time>
      </trkpt>
      <trkpt lat="44.79084" lon="1.59309">
        <ele>113.57</ele>
        <time>2021-05-31T08:57:23Z</time>
      </trkpt>
      <trkpt lat="44.79084" lon="1.59317">
        <ele>113.09</ele>
        <time>2021-05-31T08:57:31Z</time>
      </trkpt>
      <trkpt lat="44.79082" lon="1.59317">
        <ele>113.09</ele>
        <time>2021-05-31T08:57:43Z</time>
      </trkpt>
      <trkpt lat="44.7909" lon="1.59326">
        <ele>113.09</ele>
        <time>2021-05-31T08:58:02Z</time>
      </trkpt>
      <trkpt lat="44.79099" lon="1.59332">
        <ele>112.61</ele>
        <time>2021-05-31T08:58:23Z</time>
      </trkpt>
      <trkpt lat="44.791" lon="1.5933">
        <ele>111.65</ele>
        <time>2021-05-31T08:58:40Z</time>
      </trkpt>
      <trkpt lat="44.791" lon="1.59329">
        <ele>113.09</ele>
        <time>2021-05-31T08:58:43Z</time>
      </trkpt>
      <trkpt lat="44.791" lon="1.59325">
        <ele>114.05</ele>
        <time>2021-05-31T08:58:53Z</time>
      </trkpt>
      <trkpt lat="44.79099" lon="1.59314">
        <ele>114.05</ele>
        <time>2021-05-31T08:59:02Z</time>
      </trkpt>
      <trkpt lat="44.7909" lon="1.59296">
        <ele>115.01</ele>
        <time>2021-05-31T08:59:11Z</time>
      </trkpt>
      <trkpt lat="44.7909" lon="1.5929">
        <ele>115.5</ele>
        <time>2021-05-31T08:59:15Z</time>
      </trkpt>
      <trkpt lat="44.79094" lon="1.59286">
        <ele>117.42</ele>
        <time>2021-05-31T08:59:23Z</time>
      </trkpt>
      <trkpt lat="44.791" lon="1.59279">
        <ele>118.86</ele>
        <time>2021-05-31T08:59:32Z</time>
      </trkpt>
      <trkpt lat="44.79106" lon="1.59266">
        <ele>119.82</ele>
        <time>2021-05-31T08:59:41Z</time>
      </trkpt>
      <trkpt lat="44.79106" lon="1.59262">
        <ele>119.82</ele>
        <time>2021-05-31T08:59:44Z</time>
      </trkpt>
      <trkpt lat="44.79105" lon="1.5925">
        <ele>120.3</ele>
        <time>2021-05-31T08:59:49Z</time>
      </trkpt>
      <trkpt lat="44.79109" lon="1.59245">
        <ele>120.3</ele>
        <time>2021-05-31T08:59:53Z</time>
      </trkpt>
      <trkpt lat="44.79115" lon="1.59234">
        <ele>120.3</ele>
        <time>2021-05-31T09:00:03Z</time>
      </trkpt>
      <trkpt lat="44.7912" lon="1.59227">
        <ele>118.86</ele>
        <time>2021-05-31T09:00:12Z</time>
      </trkpt>
      <trkpt lat="44.79123" lon="1.59223">
        <ele>118.86</ele>
        <time>2021-05-31T09:00:17Z</time>
      </trkpt>
      <trkpt lat="44.79125" lon="1.59219">
        <ele>118.86</ele>
        <time>2021-05-31T09:00:20Z</time>
      </trkpt>
      <trkpt lat="44.79127" lon="1.59214">
        <ele>118.86</ele>
        <time>2021-05-31T09:00:23Z</time>
      </trkpt>
      <trkpt lat="44.79125" lon="1.59204">
        <ele>118.86</ele>
        <time>2021-05-31T09:00:28Z</time>
      </trkpt>
      <trkpt lat="44.79125" lon="1.59199">
        <ele>118.86</ele>
        <time>2021-05-31T09:00:30Z</time>
      </trkpt>
      <trkpt lat="44.79127" lon="1.59194">
        <ele>118.38</ele>
        <time>2021-05-31T09:00:33Z</time>
      </trkpt>
      <trkpt lat="44.79128" lon="1.59176">
        <ele>118.38</ele>
        <time>2021-05-31T09:00:42Z</time>
      </trkpt>
      <trkpt lat="44.79132" lon="1.59162">
        <ele>118.38</ele>
        <time>2021-05-31T09:00:50Z</time>
      </trkpt>
      <trkpt lat="44.79132" lon="1.5916">
        <ele>118.38</ele>
        <time>2021-05-31T09:00:51Z</time>
      </trkpt>
      <trkpt lat="44.79129" lon="1.59148">
        <ele>118.38</ele>
        <time>2021-05-31T09:00:56Z</time>
      </trkpt>
      <trkpt lat="44.79128" lon="1.59132">
        <ele>117.9</ele>
        <time>2021-05-31T09:01:04Z</time>
      </trkpt>
      <trkpt lat="44.79133" lon="1.59126">
        <ele>117.9</ele>
        <time>2021-05-31T09:01:09Z</time>
      </trkpt>
      <trkpt lat="44.7914" lon="1.59113">
        <ele>117.42</ele>
        <time>2021-05-31T09:01:17Z</time>
      </trkpt>
      <trkpt lat="44.79147" lon="1.59101">
        <ele>117.42</ele>
        <time>2021-05-31T09:01:26Z</time>
      </trkpt>
      <trkpt lat="44.79149" lon="1.59094">
        <ele>117.42</ele>
        <time>2021-05-31T09:01:31Z</time>
      </trkpt>
      <trkpt lat="44.7915" lon="1.59092">
        <ele>116.94</ele>
        <time>2021-05-31T09:01:32Z</time>
      </trkpt>
      <trkpt lat="44.79169" lon="1.59084">
        <ele>116.94</ele>
        <time>2021-05-31T09:01:41Z</time>
      </trkpt>
      <trkpt lat="44.79178" lon="1.5908">
        <ele>116.94</ele>
        <time>2021-05-31T09:01:49Z</time>
      </trkpt>
      <trkpt lat="44.79193" lon="1.59071">
        <ele>116.94</ele>
        <time>2021-05-31T09:02:00Z</time>
      </trkpt>
      <trkpt lat="44.7919" lon="1.59068">
        <ele>118.38</ele>
        <time>2021-05-31T09:02:06Z</time>
      </trkpt>
      <trkpt lat="44.7919" lon="1.59066">
        <ele>118.38</ele>
        <time>2021-05-31T09:02:15Z</time>
      </trkpt>
      <trkpt lat="44.79192" lon="1.59065">
        <ele>118.38</ele>
        <time>2021-05-31T09:02:25Z</time>
      </trkpt>
      <trkpt lat="44.79192" lon="1.59064">
        <ele>116.94</ele>
        <time>2021-05-31T09:02:27Z</time>
      </trkpt>
      <trkpt lat="44.79195" lon="1.59059">
        <ele>116.94</ele>
        <time>2021-05-31T09:02:31Z</time>
      </trkpt>
      <trkpt lat="44.79203" lon="1.59044">
        <ele>116.94</ele>
        <time>2021-05-31T09:02:41Z</time>
      </trkpt>
      <trkpt lat="44.79208" lon="1.59031">
        <ele>116.94</ele>
        <time>2021-05-31T09:02:52Z</time>
      </trkpt>
      <trkpt lat="44.79208" lon="1.59029">
        <ele>116.94</ele>
        <time>2021-05-31T09:02:56Z</time>
      </trkpt>
      <trkpt lat="44.79205" lon="1.59009">
        <ele>116.94</ele>
        <time>2021-05-31T09:03:07Z</time>
      </trkpt>
      <trkpt lat="44.79201" lon="1.58998">
        <ele>116.94</ele>
        <time>2021-05-31T09:03:16Z</time>
      </trkpt>
      <trkpt lat="44.79199" lon="1.58996">
        <ele>116.94</ele>
        <time>2021-05-31T09:03:20Z</time>
      </trkpt>
      <trkpt lat="44.79183" lon="1.5896">
        <ele>116.94</ele>
        <time>2021-05-31T09:03:29Z</time>
      </trkpt>
      <trkpt lat="44.79182" lon="1.58947">
        <ele>116.94</ele>
        <time>2021-05-31T09:03:35Z</time>
      </trkpt>
      <trkpt lat="44.79183" lon="1.58945">
        <ele>116.94</ele>
        <time>2021-05-31T09:03:37Z</time>
      </trkpt>
      <trkpt lat="44.79195" lon="1.58932">
        <ele>116.94</ele>
        <time>2021-05-31T09:03:48Z</time>
      </trkpt>
      <trkpt lat="44.79198" lon="1.58928">
        <ele>116.94</ele>
        <time>2021-05-31T09:03:52Z</time>
      </trkpt>
      <trkpt lat="44.79191" lon="1.58912">
        <ele>116.94</ele>
        <time>2021-05-31T09:04:01Z</time>
      </trkpt>
      <trkpt lat="44.79176" lon="1.58872">
        <ele>116.94</ele>
        <time>2021-05-31T09:04:12Z</time>
      </trkpt>
      <trkpt lat="44.7917" lon="1.58853">
        <ele>116.94</ele>
        <time>2021-05-31T09:04:21Z</time>
      </trkpt>
      <trkpt lat="44.79173" lon="1.58835">
        <ele>116.94</ele>
        <time>2021-05-31T09:04:31Z</time>
      </trkpt>
      <trkpt lat="44.79177" lon="1.58814">
        <ele>115.98</ele>
        <time>2021-05-31T09:04:42Z</time>
      </trkpt>
      <trkpt lat="44.79179" lon="1.5881">
        <ele>115.98</ele>
        <time>2021-05-31T09:04:46Z</time>
      </trkpt>
      <trkpt lat="44.79186" lon="1.58797">
        <ele>115.98</ele>
        <time>2021-05-31T09:04:55Z</time>
      </trkpt>
      <trkpt lat="44.79193" lon="1.58789">
        <ele>115.98</ele>
        <time>2021-05-31T09:05:00Z</time>
      </trkpt>
      <trkpt lat="44.79195" lon="1.58777">
        <ele>115.98</ele>
        <time>2021-05-31T09:05:05Z</time>
      </trkpt>
      <trkpt lat="44.79193" lon="1.58758">
        <ele>115.98</ele>
        <time>2021-05-31T09:05:15Z</time>
      </trkpt>
      <trkpt lat="44.79194" lon="1.58751">
        <ele>115.98</ele>
        <time>2021-05-31T09:05:19Z</time>
      </trkpt>
      <trkpt lat="44.79195" lon="1.58737">
        <ele>115.98</ele>
        <time>2021-05-31T09:05:29Z</time>
      </trkpt>
      <trkpt lat="44.79193" lon="1.58731">
        <ele>115.98</ele>
        <time>2021-05-31T09:05:38Z</time>
      </trkpt>
      <trkpt lat="44.79189" lon="1.5872">
        <ele>115.98</ele>
        <time>2021-05-31T09:05:43Z</time>
      </trkpt>
      <trkpt lat="44.79178" lon="1.587">
        <ele>115.98</ele>
        <time>2021-05-31T09:05:54Z</time>
      </trkpt>
      <trkpt lat="44.79172" lon="1.58679">
        <ele>115.98</ele>
        <time>2021-05-31T09:06:04Z</time>
      </trkpt>
      <trkpt lat="44.79169" lon="1.58663">
        <ele>115.98</ele>
        <time>2021-05-31T09:06:13Z</time>
      </trkpt>
      <trkpt lat="44.79168" lon="1.5865">
        <ele>115.98</ele>
        <time>2021-05-31T09:06:22Z</time>
      </trkpt>
      <trkpt lat="44.79168" lon="1.58642">
        <ele>115.01</ele>
        <time>2021-05-31T09:06:33Z</time>
      </trkpt>
      <trkpt lat="44.79161" lon="1.58636">
        <ele>114.53</ele>
        <time>2021-05-31T09:06:43Z</time>
      </trkpt>
      <trkpt lat="44.79147" lon="1.58616">
        <ele>114.53</ele>
        <time>2021-05-31T09:06:53Z</time>
      </trkpt>
      <trkpt lat="44.79144" lon="1.58612">
        <ele>114.05</ele>
        <time>2021-05-31T09:06:55Z</time>
      </trkpt>
      <trkpt lat="44.79141" lon="1.58612">
        <ele>114.05</ele>
        <time>2021-05-31T09:06:57Z</time>
      </trkpt>
      <trkpt lat="44.79125" lon="1.58605">
        <ele>114.05</ele>
        <time>2021-05-31T09:07:05Z</time>
      </trkpt>
      <trkpt lat="44.79121" lon="1.58603">
        <ele>114.05</ele>
        <time>2021-05-31T09:07:07Z</time>
      </trkpt>
      <trkpt lat="44.79119" lon="1.58602">
        <ele>114.05</ele>
        <time>2021-05-31T09:07:08Z</time>
      </trkpt>
      <trkpt lat="44.79116" lon="1.58601">
        <ele>114.05</ele>
        <time>2021-05-31T09:07:10Z</time>
      </trkpt>
      <trkpt lat="44.79102" lon="1.58594">
        <ele>114.05</ele>
        <time>2021-05-31T09:07:19Z</time>
      </trkpt>
      <trkpt lat="44.79085" lon="1.58585">
        <ele>114.05</ele>
        <time>2021-05-31T09:07:23Z</time>
      </trkpt>
      <trkpt lat="44.79084" lon="1.58583">
        <ele>114.05</ele>
        <time>2021-05-31T09:07:24Z</time>
      </trkpt>
      <trkpt lat="44.79078" lon="1.58574">
        <ele>114.05</ele>
        <time>2021-05-31T09:07:32Z</time>
      </trkpt>
      <trkpt lat="44.79074" lon="1.58556">
        <ele>113.57</ele>
        <time>2021-05-31T09:07:43Z</time>
      </trkpt>
      <trkpt lat="44.79072" lon="1.58553">
        <ele>113.57</ele>
        <time>2021-05-31T09:07:44Z</time>
      </trkpt>
      <trkpt lat="44.79069" lon="1.58546">
        <ele>113.57</ele>
        <time>2021-05-31T09:07:47Z</time>
      </trkpt>
      <trkpt lat="44.79067" lon="1.58543">
        <ele>113.57</ele>
        <time>2021-05-31T09:07:48Z</time>
      </trkpt>
      <trkpt lat="44.79066" lon="1.58524">
        <ele>113.57</ele>
        <time>2021-05-31T09:08:00Z</time>
      </trkpt>
      <trkpt lat="44.79066" lon="1.58516">
        <ele>113.57</ele>
        <time>2021-05-31T09:08:03Z</time>
      </trkpt>
      <trkpt lat="44.79068" lon="1.58499">
        <ele>113.57</ele>
        <time>2021-05-31T09:08:13Z</time>
      </trkpt>
      <trkpt lat="44.79069" lon="1.58498">
        <ele>113.57</ele>
        <time>2021-05-31T09:08:14Z</time>
      </trkpt>
      <trkpt lat="44.7907" lon="1.58481">
        <ele>113.57</ele>
        <time>2021-05-31T09:08:23Z</time>
      </trkpt>
      <trkpt lat="44.79072" lon="1.58478">
        <ele>113.57</ele>
        <time>2021-05-31T09:08:26Z</time>
      </trkpt>
      <trkpt lat="44.79064" lon="1.58461">
        <ele>113.57</ele>
        <time>2021-05-31T09:08:36Z</time>
      </trkpt>
      <trkpt lat="44.79046" lon="1.58456">
        <ele>114.53</ele>
        <time>2021-05-31T09:08:44Z</time>
      </trkpt>
      <trkpt lat="44.79034" lon="1.5845">
        <ele>115.01</ele>
        <time>2021-05-31T09:08:52Z</time>
      </trkpt>
      <trkpt lat="44.79034" lon="1.58452">
        <ele>115.01</ele>
        <time>2021-05-31T09:09:02Z</time>
      </trkpt>
      <trkpt lat="44.79035" lon="1.5846">
        <ele>114.05</ele>
        <time>2021-05-31T09:09:10Z</time>
      </trkpt>
      <trkpt lat="44.79029" lon="1.5846">
        <ele>114.05</ele>
        <time>2021-05-31T09:09:12Z</time>
      </trkpt>
      <trkpt lat="44.79003" lon="1.58455">
        <ele>114.05</ele>
        <time>2021-05-31T09:09:20Z</time>
      </trkpt>
      <trkpt lat="44.78934" lon="1.58442">
        <ele>114.05</ele>
        <time>2021-05-31T09:09:23Z</time>
      </trkpt>
      <trkpt lat="44.78954" lon="1.58432">
        <ele>115.5</ele>
        <time>2021-05-31T09:09:33Z</time>
      </trkpt>
      <trkpt lat="44.78958" lon="1.5843">
        <ele>115.98</ele>
        <time>2021-05-31T09:09:36Z</time>
      </trkpt>
      <trkpt lat="44.78965" lon="1.58426">
        <ele>115.98</ele>
        <time>2021-05-31T09:09:40Z</time>
      </trkpt>
      <trkpt lat="44.78969" lon="1.58422">
        <ele>114.53</ele>
        <time>2021-05-31T09:09:43Z</time>
      </trkpt>
      <trkpt lat="44.78978" lon="1.58415">
        <ele>114.53</ele>
        <time>2021-05-31T09:09:50Z</time>
      </trkpt>
      <trkpt lat="44.78983" lon="1.58408">
        <ele>114.53</ele>
        <time>2021-05-31T09:10:01Z</time>
      </trkpt>
      <trkpt lat="44.78979" lon="1.58394">
        <ele>115.01</ele>
        <time>2021-05-31T09:10:14Z</time>
      </trkpt>
      <trkpt lat="44.78976" lon="1.5838">
        <ele>116.94</ele>
        <time>2021-05-31T09:10:24Z</time>
      </trkpt>
      <trkpt lat="44.78977" lon="1.58359">
        <ele>118.86</ele>
        <time>2021-05-31T09:10:37Z</time>
      </trkpt>
      <trkpt lat="44.78972" lon="1.58343">
        <ele>119.82</ele>
        <time>2021-05-31T09:10:46Z</time>
      </trkpt>
      <trkpt lat="44.78978" lon="1.58328">
        <ele>121.26</ele>
        <time>2021-05-31T09:10:55Z</time>
      </trkpt>
      <trkpt lat="44.78979" lon="1.58326">
        <ele>121.26</ele>
        <time>2021-05-31T09:10:57Z</time>
      </trkpt>
      <trkpt lat="44.78989" lon="1.58308">
        <ele>122.71</ele>
        <time>2021-05-31T09:11:08Z</time>
      </trkpt>
      <trkpt lat="44.78991" lon="1.58294">
        <ele>124.15</ele>
        <time>2021-05-31T09:11:19Z</time>
      </trkpt>
      <trkpt lat="44.78993" lon="1.58278">
        <ele>126.07</ele>
        <time>2021-05-31T09:11:30Z</time>
      </trkpt>
      <trkpt lat="44.78995" lon="1.58259">
        <ele>126.07</ele>
        <time>2021-05-31T09:11:42Z</time>
      </trkpt>
      <trkpt lat="44.78994" lon="1.58245">
        <ele>126.07</ele>
        <time>2021-05-31T09:11:52Z</time>
      </trkpt>
      <trkpt lat="44.78995" lon="1.58245">
        <ele>126.07</ele>
        <time>2021-05-31T09:11:53Z</time>
      </trkpt>
      <trkpt lat="44.78997" lon="1.58241">
        <ele>126.07</ele>
        <time>2021-05-31T09:11:55Z</time>
      </trkpt>
      <trkpt lat="44.78998" lon="1.58236">
        <ele>124.63</ele>
        <time>2021-05-31T09:11:57Z</time>
      </trkpt>
      <trkpt lat="44.79001" lon="1.58234">
        <ele>124.63</ele>
        <time>2021-05-31T09:11:59Z</time>
      </trkpt>
      <trkpt lat="44.78997" lon="1.58226">
        <ele>124.15</ele>
        <time>2021-05-31T09:12:04Z</time>
      </trkpt>
      <trkpt lat="44.78993" lon="1.58214">
        <ele>123.67</ele>
        <time>2021-05-31T09:12:09Z</time>
      </trkpt>
      <trkpt lat="44.78992" lon="1.58199">
        <ele>122.71</ele>
        <time>2021-05-31T09:12:17Z</time>
      </trkpt>
      <trkpt lat="44.78987" lon="1.58192">
        <ele>122.71</ele>
        <time>2021-05-31T09:12:20Z</time>
      </trkpt>
      <trkpt lat="44.7899" lon="1.58191">
        <ele>122.71</ele>
        <time>2021-05-31T09:12:22Z</time>
      </trkpt>
      <trkpt lat="44.79011" lon="1.58181">
        <ele>122.22</ele>
        <time>2021-05-31T09:12:31Z</time>
      </trkpt>
      <trkpt lat="44.79016" lon="1.58169">
        <ele>122.22</ele>
        <time>2021-05-31T09:12:40Z</time>
      </trkpt>
      <trkpt lat="44.79006" lon="1.58147">
        <ele>122.22</ele>
        <time>2021-05-31T09:12:51Z</time>
      </trkpt>
      <trkpt lat="44.79005" lon="1.58139">
        <ele>122.22</ele>
        <time>2021-05-31T09:12:57Z</time>
      </trkpt>
      <trkpt lat="44.79005" lon="1.58128">
        <ele>122.22</ele>
        <time>2021-05-31T09:13:02Z</time>
      </trkpt>
      <trkpt lat="44.79009" lon="1.58111">
        <ele>121.74</ele>
        <time>2021-05-31T09:13:13Z</time>
      </trkpt>
      <trkpt lat="44.7901" lon="1.58095">
        <ele>121.26</ele>
        <time>2021-05-31T09:13:23Z</time>
      </trkpt>
      <trkpt lat="44.79006" lon="1.58084">
        <ele>121.26</ele>
        <time>2021-05-31T09:13:27Z</time>
      </trkpt>
      <trkpt lat="44.78983" lon="1.58062">
        <ele>120.78</ele>
        <time>2021-05-31T09:13:36Z</time>
      </trkpt>
      <trkpt lat="44.78978" lon="1.58043">
        <ele>120.3</ele>
        <time>2021-05-31T09:13:47Z</time>
      </trkpt>
      <trkpt lat="44.78972" lon="1.58021">
        <ele>119.82</ele>
        <time>2021-05-31T09:13:59Z</time>
      </trkpt>
      <trkpt lat="44.78968" lon="1.58003">
        <ele>118.86</ele>
        <time>2021-05-31T09:14:09Z</time>
      </trkpt>
      <trkpt lat="44.78964" lon="1.57983">
        <ele>117.42</ele>
        <time>2021-05-31T09:14:21Z</time>
      </trkpt>
      <trkpt lat="44.78964" lon="1.57967">
        <ele>115.5</ele>
        <time>2021-05-31T09:14:30Z</time>
      </trkpt>
      <trkpt lat="44.7896" lon="1.57955">
        <ele>114.05</ele>
        <time>2021-05-31T09:14:37Z</time>
      </trkpt>
      <trkpt lat="44.78959" lon="1.57947">
        <ele>113.57</ele>
        <time>2021-05-31T09:14:41Z</time>
      </trkpt>
      <trkpt lat="44.78965" lon="1.5793">
        <ele>112.61</ele>
        <time>2021-05-31T09:14:51Z</time>
      </trkpt>
      <trkpt lat="44.78954" lon="1.57903">
        <ele>111.65</ele>
        <time>2021-05-31T09:14:59Z</time>
      </trkpt>
      <trkpt lat="44.78955" lon="1.57883">
        <ele>110.21</ele>
        <time>2021-05-31T09:15:10Z</time>
      </trkpt>
      <trkpt lat="44.7895" lon="1.57865">
        <ele>109.73</ele>
        <time>2021-05-31T09:15:20Z</time>
      </trkpt>
      <trkpt lat="44.78973" lon="1.57856">
        <ele>109.73</ele>
        <time>2021-05-31T09:15:30Z</time>
      </trkpt>
      <trkpt lat="44.78982" lon="1.57844">
        <ele>109.73</ele>
        <time>2021-05-31T09:15:38Z</time>
      </trkpt>
      <trkpt lat="44.78993" lon="1.57831">
        <ele>109.73</ele>
        <time>2021-05-31T09:15:47Z</time>
      </trkpt>
      <trkpt lat="44.78981" lon="1.57808">
        <ele>109.73</ele>
        <time>2021-05-31T09:15:56Z</time>
      </trkpt>
      <trkpt lat="44.78977" lon="1.578">
        <ele>109.73</ele>
        <time>2021-05-31T09:15:59Z</time>
      </trkpt>
      <trkpt lat="44.78979" lon="1.57799">
        <ele>109.73</ele>
        <time>2021-05-31T09:16:00Z</time>
      </trkpt>
      <trkpt lat="44.78976" lon="1.57783">
        <ele>109.73</ele>
        <time>2021-05-31T09:16:09Z</time>
      </trkpt>
      <trkpt lat="44.78964" lon="1.57771">
        <ele>110.69</ele>
        <time>2021-05-31T09:16:14Z</time>
      </trkpt>
      <trkpt lat="44.78945" lon="1.57749">
        <ele>110.69</ele>
        <time>2021-05-31T09:16:22Z</time>
      </trkpt>
      <trkpt lat="44.78946" lon="1.57728">
        <ele>112.61</ele>
        <time>2021-05-31T09:16:34Z</time>
      </trkpt>
      <trkpt lat="44.78945" lon="1.5772">
        <ele>113.09</ele>
        <time>2021-05-31T09:16:38Z</time>
      </trkpt>
      <trkpt lat="44.78947" lon="1.57719">
        <ele>113.09</ele>
        <time>2021-05-31T09:16:39Z</time>
      </trkpt>
      <trkpt lat="44.78949" lon="1.57712">
        <ele>114.05</ele>
        <time>2021-05-31T09:16:43Z</time>
      </trkpt>
      <trkpt lat="44.78946" lon="1.57692">
        <ele>115.01</ele>
        <time>2021-05-31T09:16:54Z</time>
      </trkpt>
      <trkpt lat="44.78951" lon="1.57674">
        <ele>116.46</ele>
        <time>2021-05-31T09:17:05Z</time>
      </trkpt>
      <trkpt lat="44.78953" lon="1.57659">
        <ele>118.38</ele>
        <time>2021-05-31T09:17:16Z</time>
      </trkpt>
      <trkpt lat="44.78963" lon="1.57638">
        <ele>119.82</ele>
        <time>2021-05-31T09:17:30Z</time>
      </trkpt>
      <trkpt lat="44.78974" lon="1.57622">
        <ele>121.74</ele>
        <time>2021-05-31T09:17:42Z</time>
      </trkpt>
      <trkpt lat="44.78986" lon="1.57606">
        <ele>122.22</ele>
        <time>2021-05-31T09:17:54Z</time>
      </trkpt>
      <trkpt lat="44.78999" lon="1.57592">
        <ele>122.22</ele>
        <time>2021-05-31T09:18:05Z</time>
      </trkpt>
      <trkpt lat="44.79" lon="1.57589">
        <ele>122.22</ele>
        <time>2021-05-31T09:18:07Z</time>
      </trkpt>
      <trkpt lat="44.79" lon="1.57587">
        <ele>122.22</ele>
        <time>2021-05-31T09:18:08Z</time>
      </trkpt>
      <trkpt lat="44.79006" lon="1.57563">
        <ele>123.19</ele>
        <time>2021-05-31T09:18:22Z</time>
      </trkpt>
      <trkpt lat="44.79006" lon="1.5756">
        <ele>124.15</ele>
        <time>2021-05-31T09:18:24Z</time>
      </trkpt>
      <trkpt lat="44.7901" lon="1.57552">
        <ele>125.59</ele>
        <time>2021-05-31T09:18:30Z</time>
      </trkpt>
      <trkpt lat="44.7901" lon="1.57538">
        <ele>126.07</ele>
        <time>2021-05-31T09:18:40Z</time>
      </trkpt>
      <trkpt lat="44.79016" lon="1.57522">
        <ele>127.03</ele>
        <time>2021-05-31T09:18:50Z</time>
      </trkpt>
      <trkpt lat="44.79025" lon="1.5751">
        <ele>127.51</ele>
        <time>2021-05-31T09:19:00Z</time>
      </trkpt>
      <trkpt lat="44.79033" lon="1.57502">
        <ele>127.99</ele>
        <time>2021-05-31T09:19:06Z</time>
      </trkpt>
      <trkpt lat="44.79044" lon="1.57485">
        <ele>128.47</ele>
        <time>2021-05-31T09:19:18Z</time>
      </trkpt>
      <trkpt lat="44.79053" lon="1.57473">
        <ele>128.47</ele>
        <time>2021-05-31T09:19:27Z</time>
      </trkpt>
      <trkpt lat="44.79064" lon="1.57462">
        <ele>128.47</ele>
        <time>2021-05-31T09:19:36Z</time>
      </trkpt>
      <trkpt lat="44.79071" lon="1.57457">
        <ele>128.47</ele>
        <time>2021-05-31T09:19:41Z</time>
      </trkpt>
      <trkpt lat="44.79072" lon="1.57454">
        <ele>128.95</ele>
        <time>2021-05-31T09:19:43Z</time>
      </trkpt>
      <trkpt lat="44.79082" lon="1.5744">
        <ele>129.43</ele>
        <time>2021-05-31T09:19:53Z</time>
      </trkpt>
      <trkpt lat="44.79091" lon="1.57425">
        <ele>129.92</ele>
        <time>2021-05-31T09:20:05Z</time>
      </trkpt>
      <trkpt lat="44.791" lon="1.57412">
        <ele>130.4</ele>
        <time>2021-05-31T09:20:15Z</time>
      </trkpt>
      <trkpt lat="44.79102" lon="1.57402">
        <ele>130.4</ele>
        <time>2021-05-31T09:20:25Z</time>
      </trkpt>
      <trkpt lat="44.79104" lon="1.57394">
        <ele>130.4</ele>
        <time>2021-05-31T09:20:31Z</time>
      </trkpt>
      <trkpt lat="44.79121" lon="1.5738">
        <ele>130.4</ele>
        <time>2021-05-31T09:20:42Z</time>
      </trkpt>
      <trkpt lat="44.79132" lon="1.57371">
        <ele>130.4</ele>
        <time>2021-05-31T09:20:49Z</time>
      </trkpt>
      <trkpt lat="44.79136" lon="1.57364">
        <ele>129.43</ele>
        <time>2021-05-31T09:20:53Z</time>
      </trkpt>
      <trkpt lat="44.7914" lon="1.57355">
        <ele>129.43</ele>
        <time>2021-05-31T09:20:59Z</time>
      </trkpt>
      <trkpt lat="44.7915" lon="1.57344">
        <ele>128.95</ele>
        <time>2021-05-31T09:21:09Z</time>
      </trkpt>
      <trkpt lat="44.79154" lon="1.57333">
        <ele>128.95</ele>
        <time>2021-05-31T09:21:15Z</time>
      </trkpt>
      <trkpt lat="44.7916" lon="1.57312">
        <ele>128.47</ele>
        <time>2021-05-31T09:21:27Z</time>
      </trkpt>
      <trkpt lat="44.7916" lon="1.57288">
        <ele>127.99</ele>
        <time>2021-05-31T09:21:39Z</time>
      </trkpt>
      <trkpt lat="44.79159" lon="1.57278">
        <ele>127.99</ele>
        <time>2021-05-31T09:21:49Z</time>
      </trkpt>
      <trkpt lat="44.79159" lon="1.57272">
        <ele>127.99</ele>
        <time>2021-05-31T09:21:56Z</time>
      </trkpt>
      <trkpt lat="44.79158" lon="1.57265">
        <ele>127.99</ele>
        <time>2021-05-31T09:22:00Z</time>
      </trkpt>
      <trkpt lat="44.79159" lon="1.57248">
        <ele>127.99</ele>
        <time>2021-05-31T09:22:11Z</time>
      </trkpt>
      <trkpt lat="44.79157" lon="1.57235">
        <ele>127.99</ele>
        <time>2021-05-31T09:22:19Z</time>
      </trkpt>
      <trkpt lat="44.79154" lon="1.57215">
        <ele>127.99</ele>
        <time>2021-05-31T09:22:30Z</time>
      </trkpt>
      <trkpt lat="44.79154" lon="1.5721">
        <ele>127.51</ele>
        <time>2021-05-31T09:22:34Z</time>
      </trkpt>
      <trkpt lat="44.79158" lon="1.57201">
        <ele>127.03</ele>
        <time>2021-05-31T09:22:39Z</time>
      </trkpt>
      <trkpt lat="44.79155" lon="1.57176">
        <ele>127.03</ele>
        <time>2021-05-31T09:22:53Z</time>
      </trkpt>
      <trkpt lat="44.79153" lon="1.57169">
        <ele>127.03</ele>
        <time>2021-05-31T09:22:57Z</time>
      </trkpt>
      <trkpt lat="44.79144" lon="1.57149">
        <ele>127.03</ele>
        <time>2021-05-31T09:23:10Z</time>
      </trkpt>
      <trkpt lat="44.79137" lon="1.57131">
        <ele>127.03</ele>
        <time>2021-05-31T09:23:21Z</time>
      </trkpt>
      <trkpt lat="44.79132" lon="1.57124">
        <ele>127.03</ele>
        <time>2021-05-31T09:23:26Z</time>
      </trkpt>
      <trkpt lat="44.79121" lon="1.57111">
        <ele>125.59</ele>
        <time>2021-05-31T09:23:38Z</time>
      </trkpt>
      <trkpt lat="44.7911" lon="1.57104">
        <ele>123.67</ele>
        <time>2021-05-31T09:23:49Z</time>
      </trkpt>
      <trkpt lat="44.79099" lon="1.57097">
        <ele>122.22</ele>
        <time>2021-05-31T09:24:00Z</time>
      </trkpt>
      <trkpt lat="44.79093" lon="1.57096">
        <ele>121.74</ele>
        <time>2021-05-31T09:24:04Z</time>
      </trkpt>
      <trkpt lat="44.79079" lon="1.57082">
        <ele>121.74</ele>
        <time>2021-05-31T09:24:17Z</time>
      </trkpt>
      <trkpt lat="44.79072" lon="1.57073">
        <ele>121.74</ele>
        <time>2021-05-31T09:24:27Z</time>
      </trkpt>
      <trkpt lat="44.79068" lon="1.57063">
        <ele>122.71</ele>
        <time>2021-05-31T09:24:34Z</time>
      </trkpt>
      <trkpt lat="44.79066" lon="1.57047">
        <ele>122.71</ele>
        <time>2021-05-31T09:24:45Z</time>
      </trkpt>
      <trkpt lat="44.79068" lon="1.5704">
        <ele>121.26</ele>
        <time>2021-05-31T09:24:51Z</time>
      </trkpt>
      <trkpt lat="44.79078" lon="1.57031">
        <ele>119.34</ele>
        <time>2021-05-31T09:25:01Z</time>
      </trkpt>
      <trkpt lat="44.79083" lon="1.57028">
        <ele>118.86</ele>
        <time>2021-05-31T09:25:07Z</time>
      </trkpt>
      <trkpt lat="44.79088" lon="1.57022">
        <ele>118.38</ele>
        <time>2021-05-31T09:25:11Z</time>
      </trkpt>
      <trkpt lat="44.79097" lon="1.57007">
        <ele>116.46</ele>
        <time>2021-05-31T09:25:22Z</time>
      </trkpt>
      <trkpt lat="44.79096" lon="1.57004">
        <ele>116.46</ele>
        <time>2021-05-31T09:25:23Z</time>
      </trkpt>
      <trkpt lat="44.79095" lon="1.56981">
        <ele>115.01</ele>
        <time>2021-05-31T09:25:33Z</time>
      </trkpt>
      <trkpt lat="44.791" lon="1.56961">
        <ele>114.53</ele>
        <time>2021-05-31T09:25:43Z</time>
      </trkpt>
      <trkpt lat="44.79099" lon="1.56942">
        <ele>114.05</ele>
        <time>2021-05-31T09:25:54Z</time>
      </trkpt>
      <trkpt lat="44.79101" lon="1.56931">
        <ele>113.09</ele>
        <time>2021-05-31T09:26:01Z</time>
      </trkpt>
      <trkpt lat="44.79101" lon="1.56915">
        <ele>112.61</ele>
        <time>2021-05-31T09:26:11Z</time>
      </trkpt>
      <trkpt lat="44.79093" lon="1.56914">
        <ele>112.13</ele>
        <time>2021-05-31T09:26:21Z</time>
      </trkpt>
      <trkpt lat="44.79083" lon="1.56912">
        <ele>111.17</ele>
        <time>2021-05-31T09:26:31Z</time>
      </trkpt>
      <trkpt lat="44.79076" lon="1.56913">
        <ele>110.21</ele>
        <time>2021-05-31T09:26:41Z</time>
      </trkpt>
      <trkpt lat="44.7907" lon="1.56916">
        <ele>108.77</ele>
        <time>2021-05-31T09:26:51Z</time>
      </trkpt>
      <trkpt lat="44.79066" lon="1.56915">
        <ele>108.29</ele>
        <time>2021-05-31T09:26:59Z</time>
      </trkpt>
      <trkpt lat="44.79059" lon="1.56906">
        <ele>108.29</ele>
        <time>2021-05-31T09:27:12Z</time>
      </trkpt>
      <trkpt lat="44.79045" lon="1.56898">
        <ele>108.29</ele>
        <time>2021-05-31T09:27:31Z</time>
      </trkpt>
      <trkpt lat="44.79053" lon="1.56906">
        <ele>108.29</ele>
        <time>2021-05-31T09:27:41Z</time>
      </trkpt>
      <trkpt lat="44.79036" lon="1.56882">
        <ele>108.29</ele>
        <time>2021-05-31T09:28:02Z</time>
      </trkpt>
      <trkpt lat="44.79029" lon="1.56883">
        <ele>108.29</ele>
        <time>2021-05-31T09:28:24Z</time>
      </trkpt>
      <trkpt lat="44.79053" lon="1.56901">
        <ele>108.29</ele>
        <time>2021-05-31T09:28:47Z</time>
      </trkpt>
      <trkpt lat="44.79051" lon="1.56902">
        <ele>108.29</ele>
        <time>2021-05-31T09:29:03Z</time>
      </trkpt>
      <trkpt lat="44.79049" lon="1.56887">
        <ele>108.29</ele>
        <time>2021-05-31T09:29:29Z</time>
      </trkpt>
      <trkpt lat="44.79048" lon="1.56889">
        <ele>108.29</ele>
        <time>2021-05-31T09:29:48Z</time>
      </trkpt>
      <trkpt lat="44.79053" lon="1.5689">
        <ele>108.29</ele>
        <time>2021-05-31T09:30:02Z</time>
      </trkpt>
      <trkpt lat="44.79049" lon="1.56893">
        <ele>108.29</ele>
        <time>2021-05-31T09:30:20Z</time>
      </trkpt>
      <trkpt lat="44.7905" lon="1.56906">
        <ele>108.77</ele>
        <time>2021-05-31T09:30:38Z</time>
      </trkpt>
      <trkpt lat="44.79057" lon="1.569">
        <ele>108.77</ele>
        <time>2021-05-31T09:30:46Z</time>
      </trkpt>
      <trkpt lat="44.79068" lon="1.56897">
        <ele>108.77</ele>
        <time>2021-05-31T09:30:55Z</time>
      </trkpt>
      <trkpt lat="44.79075" lon="1.56891">
        <ele>108.77</ele>
        <time>2021-05-31T09:31:05Z</time>
      </trkpt>
      <trkpt lat="44.79081" lon="1.56886">
        <ele>108.77</ele>
        <time>2021-05-31T09:31:16Z</time>
      </trkpt>
      <trkpt lat="44.79082" lon="1.56881">
        <ele>108.77</ele>
        <time>2021-05-31T09:31:31Z</time>
      </trkpt>
      <trkpt lat="44.79084" lon="1.56878">
        <ele>108.77</ele>
        <time>2021-05-31T09:31:54Z</time>
      </trkpt>
      <trkpt lat="44.7908" lon="1.56879">
        <ele>108.77</ele>
        <time>2021-05-31T09:32:03Z</time>
      </trkpt>
      <trkpt lat="44.79077" lon="1.56882">
        <ele>108.77</ele>
        <time>2021-05-31T09:32:06Z</time>
      </trkpt>
      <trkpt lat="44.79074" lon="1.56884">
        <ele>108.77</ele>
        <time>2021-05-31T09:32:09Z</time>
      </trkpt>
      <trkpt lat="44.7907" lon="1.56898">
        <ele>109.73</ele>
        <time>2021-05-31T09:32:18Z</time>
      </trkpt>
      <trkpt lat="44.79069" lon="1.56902">
        <ele>112.13</ele>
        <time>2021-05-31T09:32:25Z</time>
      </trkpt>
      <trkpt lat="44.79079" lon="1.56908">
        <ele>113.09</ele>
        <time>2021-05-31T09:32:34Z</time>
      </trkpt>
      <trkpt lat="44.79088" lon="1.56905">
        <ele>113.09</ele>
        <time>2021-05-31T09:32:41Z</time>
      </trkpt>
      <trkpt lat="44.79098" lon="1.56916">
        <ele>113.09</ele>
        <time>2021-05-31T09:32:50Z</time>
      </trkpt>
      <trkpt lat="44.79102" lon="1.56931">
        <ele>113.09</ele>
        <time>2021-05-31T09:33:00Z</time>
      </trkpt>
      <trkpt lat="44.79101" lon="1.56933">
        <ele>113.57</ele>
        <time>2021-05-31T09:33:02Z</time>
      </trkpt>
      <trkpt lat="44.79099" lon="1.56938">
        <ele>113.57</ele>
        <time>2021-05-31T09:33:05Z</time>
      </trkpt>
      <trkpt lat="44.79099" lon="1.56957">
        <ele>114.53</ele>
        <time>2021-05-31T09:33:15Z</time>
      </trkpt>
      <trkpt lat="44.79096" lon="1.56973">
        <ele>115.5</ele>
        <time>2021-05-31T09:33:25Z</time>
      </trkpt>
      <trkpt lat="44.79096" lon="1.56975">
        <ele>115.5</ele>
        <time>2021-05-31T09:33:26Z</time>
      </trkpt>
      <trkpt lat="44.79095" lon="1.56987">
        <ele>115.98</ele>
        <time>2021-05-31T09:33:35Z</time>
      </trkpt>
      <trkpt lat="44.79098" lon="1.57006">
        <ele>117.42</ele>
        <time>2021-05-31T09:33:45Z</time>
      </trkpt>
      <trkpt lat="44.79093" lon="1.57021">
        <ele>117.9</ele>
        <time>2021-05-31T09:33:55Z</time>
      </trkpt>
      <trkpt lat="44.79082" lon="1.57031">
        <ele>119.82</ele>
        <time>2021-05-31T09:34:06Z</time>
      </trkpt>
      <trkpt lat="44.79074" lon="1.57035">
        <ele>121.26</ele>
        <time>2021-05-31T09:34:15Z</time>
      </trkpt>
      <trkpt lat="44.79071" lon="1.57039">
        <ele>121.26</ele>
        <time>2021-05-31T09:34:18Z</time>
      </trkpt>
      <trkpt lat="44.79067" lon="1.57052">
        <ele>122.22</ele>
        <time>2021-05-31T09:34:28Z</time>
      </trkpt>
      <trkpt lat="44.79068" lon="1.57058">
        <ele>123.19</ele>
        <time>2021-05-31T09:34:32Z</time>
      </trkpt>
      <trkpt lat="44.79076" lon="1.57068">
        <ele>122.71</ele>
        <time>2021-05-31T09:34:40Z</time>
      </trkpt>
      <trkpt lat="44.79082" lon="1.57083">
        <ele>121.74</ele>
        <time>2021-05-31T09:34:51Z</time>
      </trkpt>
      <trkpt lat="44.79089" lon="1.57089">
        <ele>121.74</ele>
        <time>2021-05-31T09:35:00Z</time>
      </trkpt>
      <trkpt lat="44.79091" lon="1.57089">
        <ele>121.74</ele>
        <time>2021-05-31T09:35:02Z</time>
      </trkpt>
      <trkpt lat="44.79096" lon="1.57093">
        <ele>121.74</ele>
        <time>2021-05-31T09:35:08Z</time>
      </trkpt>
      <trkpt lat="44.79111" lon="1.571">
        <ele>123.19</ele>
        <time>2021-05-31T09:35:19Z</time>
      </trkpt>
      <trkpt lat="44.79124" lon="1.57107">
        <ele>124.63</ele>
        <time>2021-05-31T09:35:31Z</time>
      </trkpt>
      <trkpt lat="44.79132" lon="1.57117">
        <ele>127.03</ele>
        <time>2021-05-31T09:35:42Z</time>
      </trkpt>
      <trkpt lat="44.79136" lon="1.57127">
        <ele>127.51</ele>
        <time>2021-05-31T09:35:50Z</time>
      </trkpt>
      <trkpt lat="44.79147" lon="1.57145">
        <ele>127.51</ele>
        <time>2021-05-31T09:36:01Z</time>
      </trkpt>
      <trkpt lat="44.79152" lon="1.57162">
        <ele>127.51</ele>
        <time>2021-05-31T09:36:12Z</time>
      </trkpt>
      <trkpt lat="44.79154" lon="1.57178">
        <ele>127.51</ele>
        <time>2021-05-31T09:36:22Z</time>
      </trkpt>
      <trkpt lat="44.79157" lon="1.57191">
        <ele>127.51</ele>
        <time>2021-05-31T09:36:31Z</time>
      </trkpt>
      <trkpt lat="44.79157" lon="1.57203">
        <ele>127.51</ele>
        <time>2021-05-31T09:36:37Z</time>
      </trkpt>
      <trkpt lat="44.79164" lon="1.57221">
        <ele>127.51</ele>
        <time>2021-05-31T09:36:45Z</time>
      </trkpt>
      <trkpt lat="44.79162" lon="1.57225">
        <ele>127.99</ele>
        <time>2021-05-31T09:36:48Z</time>
      </trkpt>
      <trkpt lat="44.79166" lon="1.57244">
        <ele>127.99</ele>
        <time>2021-05-31T09:36:57Z</time>
      </trkpt>
      <trkpt lat="44.79166" lon="1.5727">
        <ele>127.51</ele>
        <time>2021-05-31T09:37:11Z</time>
      </trkpt>
      <trkpt lat="44.79167" lon="1.57281">
        <ele>127.99</ele>
        <time>2021-05-31T09:37:17Z</time>
      </trkpt>
      <trkpt lat="44.79166" lon="1.57288">
        <ele>127.99</ele>
        <time>2021-05-31T09:37:21Z</time>
      </trkpt>
      <trkpt lat="44.79167" lon="1.57294">
        <ele>127.99</ele>
        <time>2021-05-31T09:37:25Z</time>
      </trkpt>
      <trkpt lat="44.79166" lon="1.57314">
        <ele>127.99</ele>
        <time>2021-05-31T09:37:36Z</time>
      </trkpt>
      <trkpt lat="44.79158" lon="1.57339">
        <ele>128.47</ele>
        <time>2021-05-31T09:37:50Z</time>
      </trkpt>
      <trkpt lat="44.79151" lon="1.57356">
        <ele>128.47</ele>
        <time>2021-05-31T09:38:00Z</time>
      </trkpt>
      <trkpt lat="44.79146" lon="1.57366">
        <ele>128.47</ele>
        <time>2021-05-31T09:38:07Z</time>
      </trkpt>
      <trkpt lat="44.79132" lon="1.57383">
        <ele>128.95</ele>
        <time>2021-05-31T09:38:20Z</time>
      </trkpt>
      <trkpt lat="44.79119" lon="1.57397">
        <ele>128.95</ele>
        <time>2021-05-31T09:38:33Z</time>
      </trkpt>
      <trkpt lat="44.79114" lon="1.57402">
        <ele>128.95</ele>
        <time>2021-05-31T09:38:39Z</time>
      </trkpt>
      <trkpt lat="44.79103" lon="1.57417">
        <ele>129.43</ele>
        <time>2021-05-31T09:38:51Z</time>
      </trkpt>
      <trkpt lat="44.79096" lon="1.57425">
        <ele>129.43</ele>
        <time>2021-05-31T09:38:58Z</time>
      </trkpt>
      <trkpt lat="44.79086" lon="1.57439">
        <ele>129.43</ele>
        <time>2021-05-31T09:39:08Z</time>
      </trkpt>
      <trkpt lat="44.79085" lon="1.5744">
        <ele>129.43</ele>
        <time>2021-05-31T09:39:09Z</time>
      </trkpt>
      <trkpt lat="44.79078" lon="1.57453">
        <ele>127.99</ele>
        <time>2021-05-31T09:39:16Z</time>
      </trkpt>
      <trkpt lat="44.79069" lon="1.57474">
        <ele>127.51</ele>
        <time>2021-05-31T09:39:28Z</time>
      </trkpt>
      <trkpt lat="44.7906" lon="1.57489">
        <ele>127.51</ele>
        <time>2021-05-31T09:39:39Z</time>
      </trkpt>
      <trkpt lat="44.79054" lon="1.57498">
        <ele>127.51</ele>
        <time>2021-05-31T09:39:47Z</time>
      </trkpt>
      <trkpt lat="44.79041" lon="1.57512">
        <ele>126.55</ele>
        <time>2021-05-31T09:40:00Z</time>
      </trkpt>
      <trkpt lat="44.79037" lon="1.5752">
        <ele>126.55</ele>
        <time>2021-05-31T09:40:06Z</time>
      </trkpt>
      <trkpt lat="44.7903" lon="1.57539">
        <ele>125.59</ele>
        <time>2021-05-31T09:40:16Z</time>
      </trkpt>
      <trkpt lat="44.79026" lon="1.57549">
        <ele>125.59</ele>
        <time>2021-05-31T09:40:22Z</time>
      </trkpt>
      <trkpt lat="44.7902" lon="1.57562">
        <ele>123.67</ele>
        <time>2021-05-31T09:40:31Z</time>
      </trkpt>
      <trkpt lat="44.79019" lon="1.57565">
        <ele>123.19</ele>
        <time>2021-05-31T09:40:33Z</time>
      </trkpt>
      <trkpt lat="44.79017" lon="1.57568">
        <ele>123.19</ele>
        <time>2021-05-31T09:40:35Z</time>
      </trkpt>
      <trkpt lat="44.79011" lon="1.5758">
        <ele>121.74</ele>
        <time>2021-05-31T09:40:44Z</time>
      </trkpt>
      <trkpt lat="44.7901" lon="1.57583">
        <ele>121.26</ele>
        <time>2021-05-31T09:40:46Z</time>
      </trkpt>
      <trkpt lat="44.79009" lon="1.57596">
        <ele>120.78</ele>
        <time>2021-05-31T09:40:53Z</time>
      </trkpt>
      <trkpt lat="44.79003" lon="1.57604">
        <ele>120.78</ele>
        <time>2021-05-31T09:40:58Z</time>
      </trkpt>
      <trkpt lat="44.7899" lon="1.57622">
        <ele>120.78</ele>
        <time>2021-05-31T09:41:10Z</time>
      </trkpt>
      <trkpt lat="44.78982" lon="1.57635">
        <ele>119.82</ele>
        <time>2021-05-31T09:41:20Z</time>
      </trkpt>
      <trkpt lat="44.78976" lon="1.57641">
        <ele>118.86</ele>
        <time>2021-05-31T09:41:26Z</time>
      </trkpt>
      <trkpt lat="44.78973" lon="1.57644">
        <ele>118.38</ele>
        <time>2021-05-31T09:41:29Z</time>
      </trkpt>
      <trkpt lat="44.78964" lon="1.57657">
        <ele>116.94</ele>
        <time>2021-05-31T09:41:38Z</time>
      </trkpt>
      <trkpt lat="44.78959" lon="1.57662">
        <ele>116.46</ele>
        <time>2021-05-31T09:41:42Z</time>
      </trkpt>
      <trkpt lat="44.78957" lon="1.57677">
        <ele>115.01</ele>
        <time>2021-05-31T09:41:51Z</time>
      </trkpt>
      <trkpt lat="44.78956" lon="1.57683">
        <ele>114.53</ele>
        <time>2021-05-31T09:41:53Z</time>
      </trkpt>
      <trkpt lat="44.78949" lon="1.57687">
        <ele>114.53</ele>
        <time>2021-05-31T09:41:57Z</time>
      </trkpt>
      <trkpt lat="44.78944" lon="1.57698">
        <ele>113.57</ele>
        <time>2021-05-31T09:42:05Z</time>
      </trkpt>
      <trkpt lat="44.78947" lon="1.57716">
        <ele>112.61</ele>
        <time>2021-05-31T09:42:13Z</time>
      </trkpt>
      <trkpt lat="44.78945" lon="1.57732">
        <ele>111.17</ele>
        <time>2021-05-31T09:42:22Z</time>
      </trkpt>
      <trkpt lat="44.7894" lon="1.57746">
        <ele>110.21</ele>
        <time>2021-05-31T09:42:33Z</time>
      </trkpt>
      <trkpt lat="44.78939" lon="1.57755">
        <ele>109.73</ele>
        <time>2021-05-31T09:42:36Z</time>
      </trkpt>
      <trkpt lat="44.78941" lon="1.57773">
        <ele>109.25</ele>
        <time>2021-05-31T09:42:46Z</time>
      </trkpt>
      <trkpt lat="44.78942" lon="1.5779">
        <ele>109.25</ele>
        <time>2021-05-31T09:42:56Z</time>
      </trkpt>
      <trkpt lat="44.78953" lon="1.57802">
        <ele>108.77</ele>
        <time>2021-05-31T09:43:05Z</time>
      </trkpt>
      <trkpt lat="44.78952" lon="1.57806">
        <ele>108.77</ele>
        <time>2021-05-31T09:43:07Z</time>
      </trkpt>
      <trkpt lat="44.78957" lon="1.5783">
        <ele>108.77</ele>
        <time>2021-05-31T09:43:16Z</time>
      </trkpt>
      <trkpt lat="44.78963" lon="1.57849">
        <ele>108.77</ele>
        <time>2021-05-31T09:43:26Z</time>
      </trkpt>
      <trkpt lat="44.78963" lon="1.57855">
        <ele>108.77</ele>
        <time>2021-05-31T09:43:30Z</time>
      </trkpt>
      <trkpt lat="44.78972" lon="1.57875">
        <ele>108.29</ele>
        <time>2021-05-31T09:43:41Z</time>
      </trkpt>
      <trkpt lat="44.78976" lon="1.57892">
        <ele>108.29</ele>
        <time>2021-05-31T09:43:51Z</time>
      </trkpt>
      <trkpt lat="44.78973" lon="1.5791">
        <ele>109.25</ele>
        <time>2021-05-31T09:44:00Z</time>
      </trkpt>
      <trkpt lat="44.7897" lon="1.57923">
        <ele>110.69</ele>
        <time>2021-05-31T09:44:10Z</time>
      </trkpt>
      <trkpt lat="44.78967" lon="1.57929">
        <ele>111.17</ele>
        <time>2021-05-31T09:44:15Z</time>
      </trkpt>
      <trkpt lat="44.78964" lon="1.57949">
        <ele>112.13</ele>
        <time>2021-05-31T09:44:25Z</time>
      </trkpt>
      <trkpt lat="44.78961" lon="1.57967">
        <ele>114.05</ele>
        <time>2021-05-31T09:44:35Z</time>
      </trkpt>
      <trkpt lat="44.78962" lon="1.57978">
        <ele>115.5</ele>
        <time>2021-05-31T09:44:45Z</time>
      </trkpt>
      <trkpt lat="44.78966" lon="1.57992">
        <ele>116.46</ele>
        <time>2021-05-31T09:44:55Z</time>
      </trkpt>
      <trkpt lat="44.78969" lon="1.58011">
        <ele>116.94</ele>
        <time>2021-05-31T09:45:05Z</time>
      </trkpt>
      <trkpt lat="44.78973" lon="1.58029">
        <ele>117.42</ele>
        <time>2021-05-31T09:45:15Z</time>
      </trkpt>
      <trkpt lat="44.78975" lon="1.5805">
        <ele>117.9</ele>
        <time>2021-05-31T09:45:27Z</time>
      </trkpt>
      <trkpt lat="44.78974" lon="1.58064">
        <ele>118.38</ele>
        <time>2021-05-31T09:45:38Z</time>
      </trkpt>
      <trkpt lat="44.78976" lon="1.58079">
        <ele>118.86</ele>
        <time>2021-05-31T09:45:48Z</time>
      </trkpt>
      <trkpt lat="44.7898" lon="1.58099">
        <ele>119.34</ele>
        <time>2021-05-31T09:46:00Z</time>
      </trkpt>
      <trkpt lat="44.78982" lon="1.58113">
        <ele>119.34</ele>
        <time>2021-05-31T09:46:10Z</time>
      </trkpt>
      <trkpt lat="44.78989" lon="1.58139">
        <ele>119.82</ele>
        <time>2021-05-31T09:46:20Z</time>
      </trkpt>
      <trkpt lat="44.78992" lon="1.58158">
        <ele>119.82</ele>
        <time>2021-05-31T09:46:30Z</time>
      </trkpt>
      <trkpt lat="44.78998" lon="1.58178">
        <ele>119.82</ele>
        <time>2021-05-31T09:46:40Z</time>
      </trkpt>
      <trkpt lat="44.79001" lon="1.58193">
        <ele>120.3</ele>
        <time>2021-05-31T09:46:50Z</time>
      </trkpt>
      <trkpt lat="44.79001" lon="1.58199">
        <ele>121.26</ele>
        <time>2021-05-31T09:46:53Z</time>
      </trkpt>
      <trkpt lat="44.79005" lon="1.58219">
        <ele>121.74</ele>
        <time>2021-05-31T09:47:04Z</time>
      </trkpt>
      <trkpt lat="44.79007" lon="1.58237">
        <ele>122.22</ele>
        <time>2021-05-31T09:47:15Z</time>
      </trkpt>
      <trkpt lat="44.79011" lon="1.5825">
        <ele>123.19</ele>
        <time>2021-05-31T09:47:24Z</time>
      </trkpt>
      <trkpt lat="44.79012" lon="1.58256">
        <ele>123.19</ele>
        <time>2021-05-31T09:47:27Z</time>
      </trkpt>
      <trkpt lat="44.79016" lon="1.58275">
        <ele>123.67</ele>
        <time>2021-05-31T09:47:39Z</time>
      </trkpt>
      <trkpt lat="44.7901" lon="1.58292">
        <ele>123.67</ele>
        <time>2021-05-31T09:47:48Z</time>
      </trkpt>
      <trkpt lat="44.79008" lon="1.58295">
        <ele>122.22</ele>
        <time>2021-05-31T09:47:49Z</time>
      </trkpt>
      <trkpt lat="44.79003" lon="1.58315">
        <ele>120.78</ele>
        <time>2021-05-31T09:48:01Z</time>
      </trkpt>
      <trkpt lat="44.78995" lon="1.58323">
        <ele>119.82</ele>
        <time>2021-05-31T09:48:09Z</time>
      </trkpt>
      <trkpt lat="44.78993" lon="1.58328">
        <ele>119.34</ele>
        <time>2021-05-31T09:48:13Z</time>
      </trkpt>
      <trkpt lat="44.78992" lon="1.58337">
        <ele>118.38</ele>
        <time>2021-05-31T09:48:19Z</time>
      </trkpt>
      <trkpt lat="44.78989" lon="1.58346">
        <ele>117.9</ele>
        <time>2021-05-31T09:48:25Z</time>
      </trkpt>
      <trkpt lat="44.7899" lon="1.58358">
        <ele>116.46</ele>
        <time>2021-05-31T09:48:32Z</time>
      </trkpt>
      <trkpt lat="44.7899" lon="1.58375">
        <ele>115.01</ele>
        <time>2021-05-31T09:48:41Z</time>
      </trkpt>
      <trkpt lat="44.78992" lon="1.58388">
        <ele>113.09</ele>
        <time>2021-05-31T09:48:50Z</time>
      </trkpt>
      <trkpt lat="44.78991" lon="1.58397">
        <ele>112.13</ele>
        <time>2021-05-31T09:48:56Z</time>
      </trkpt>
      <trkpt lat="44.78994" lon="1.58415">
        <ele>112.13</ele>
        <time>2021-05-31T09:49:05Z</time>
      </trkpt>
      <trkpt lat="44.78993" lon="1.58422">
        <ele>112.13</ele>
        <time>2021-05-31T09:49:10Z</time>
      </trkpt>
      <trkpt lat="44.78992" lon="1.58432">
        <ele>113.57</ele>
        <time>2021-05-31T09:49:16Z</time>
      </trkpt>
      <trkpt lat="44.78997" lon="1.58445">
        <ele>114.05</ele>
        <time>2021-05-31T09:49:25Z</time>
      </trkpt>
      <trkpt lat="44.79001" lon="1.5845">
        <ele>114.05</ele>
        <time>2021-05-31T09:49:28Z</time>
      </trkpt>
      <trkpt lat="44.79002" lon="1.58452">
        <ele>112.61</ele>
        <time>2021-05-31T09:49:30Z</time>
      </trkpt>
      <trkpt lat="44.79017" lon="1.58458">
        <ele>112.13</ele>
        <time>2021-05-31T09:49:40Z</time>
      </trkpt>
      <trkpt lat="44.7903" lon="1.58455">
        <ele>112.13</ele>
        <time>2021-05-31T09:49:48Z</time>
      </trkpt>
      <trkpt lat="44.79033" lon="1.58451">
        <ele>112.13</ele>
        <time>2021-05-31T09:49:51Z</time>
      </trkpt>
      <trkpt lat="44.79036" lon="1.58449">
        <ele>113.57</ele>
        <time>2021-05-31T09:49:55Z</time>
      </trkpt>
      <trkpt lat="44.79043" lon="1.58451">
        <ele>113.57</ele>
        <time>2021-05-31T09:50:02Z</time>
      </trkpt>
      <trkpt lat="44.79049" lon="1.58454">
        <ele>113.57</ele>
        <time>2021-05-31T09:50:07Z</time>
      </trkpt>
      <trkpt lat="44.79061" lon="1.58453">
        <ele>112.13</ele>
        <time>2021-05-31T09:50:16Z</time>
      </trkpt>
      <trkpt lat="44.79055" lon="1.58444">
        <ele>111.65</ele>
        <time>2021-05-31T09:50:28Z</time>
      </trkpt>
      <trkpt lat="44.79045" lon="1.58435">
        <ele>110.69</ele>
        <time>2021-05-31T09:50:39Z</time>
      </trkpt>
      <trkpt lat="44.79042" lon="1.58428">
        <ele>110.69</ele>
        <time>2021-05-31T09:50:46Z</time>
      </trkpt>
      <trkpt lat="44.79042" lon="1.58426">
        <ele>110.69</ele>
        <time>2021-05-31T09:50:48Z</time>
      </trkpt>
      <trkpt lat="44.7904" lon="1.58417">
        <ele>110.69</ele>
        <time>2021-05-31T09:50:52Z</time>
      </trkpt>
      <trkpt lat="44.7904" lon="1.58401">
        <ele>110.69</ele>
        <time>2021-05-31T09:50:57Z</time>
      </trkpt>
      <trkpt lat="44.79043" lon="1.58395">
        <ele>110.69</ele>
        <time>2021-05-31T09:51:01Z</time>
      </trkpt>
      <trkpt lat="44.79045" lon="1.58393">
        <ele>112.13</ele>
        <time>2021-05-31T09:51:05Z</time>
      </trkpt>
      <trkpt lat="44.79046" lon="1.58389">
        <ele>112.61</ele>
        <time>2021-05-31T09:51:08Z</time>
      </trkpt>
      <trkpt lat="44.79057" lon="1.5838">
        <ele>112.61</ele>
        <time>2021-05-31T09:51:19Z</time>
      </trkpt>
      <trkpt lat="44.79067" lon="1.58377">
        <ele>113.57</ele>
        <time>2021-05-31T09:51:27Z</time>
      </trkpt>
      <trkpt lat="44.79071" lon="1.58376">
        <ele>114.05</ele>
        <time>2021-05-31T09:51:30Z</time>
      </trkpt>
      <trkpt lat="44.79074" lon="1.58372">
        <ele>114.53</ele>
        <time>2021-05-31T09:51:34Z</time>
      </trkpt>
      <trkpt lat="44.79083" lon="1.58363">
        <ele>115.5</ele>
        <time>2021-05-31T09:51:44Z</time>
      </trkpt>
      <trkpt lat="44.79087" lon="1.58359">
        <ele>115.98</ele>
        <time>2021-05-31T09:51:53Z</time>
      </trkpt>
      <trkpt lat="44.79089" lon="1.58353">
        <ele>115.98</ele>
        <time>2021-05-31T09:51:58Z</time>
      </trkpt>
      <trkpt lat="44.79091" lon="1.5835">
        <ele>115.98</ele>
        <time>2021-05-31T09:52:01Z</time>
      </trkpt>
      <trkpt lat="44.79096" lon="1.58339">
        <ele>115.98</ele>
        <time>2021-05-31T09:52:11Z</time>
      </trkpt>
      <trkpt lat="44.79098" lon="1.58333">
        <ele>116.46</ele>
        <time>2021-05-31T09:52:20Z</time>
      </trkpt>
      <trkpt lat="44.79099" lon="1.58327">
        <ele>115.01</ele>
        <time>2021-05-31T09:52:24Z</time>
      </trkpt>
      <trkpt lat="44.791" lon="1.58322">
        <ele>115.01</ele>
        <time>2021-05-31T09:52:33Z</time>
      </trkpt>
      <trkpt lat="44.79102" lon="1.58329">
        <ele>114.05</ele>
        <time>2021-05-31T09:52:44Z</time>
      </trkpt>
      <trkpt lat="44.79102" lon="1.58337">
        <ele>115.5</ele>
        <time>2021-05-31T09:52:50Z</time>
      </trkpt>
      <trkpt lat="44.79101" lon="1.58345">
        <ele>115.98</ele>
        <time>2021-05-31T09:52:57Z</time>
      </trkpt>
      <trkpt lat="44.79094" lon="1.58359">
        <ele>115.98</ele>
        <time>2021-05-31T09:53:07Z</time>
      </trkpt>
      <trkpt lat="44.79087" lon="1.58369">
        <ele>115.98</ele>
        <time>2021-05-31T09:53:16Z</time>
      </trkpt>
      <trkpt lat="44.79078" lon="1.58375">
        <ele>115.98</ele>
        <time>2021-05-31T09:53:27Z</time>
      </trkpt>
      <trkpt lat="44.7907" lon="1.58383">
        <ele>113.57</ele>
        <time>2021-05-31T09:53:36Z</time>
      </trkpt>
      <trkpt lat="44.79059" lon="1.58383">
        <ele>111.65</ele>
        <time>2021-05-31T09:53:46Z</time>
      </trkpt>
      <trkpt lat="44.79055" lon="1.58381">
        <ele>110.69</ele>
        <time>2021-05-31T09:53:51Z</time>
      </trkpt>
      <trkpt lat="44.79055" lon="1.58377">
        <ele>110.21</ele>
        <time>2021-05-31T09:54:00Z</time>
      </trkpt>
      <trkpt lat="44.79065" lon="1.58371">
        <ele>109.73</ele>
        <time>2021-05-31T09:54:10Z</time>
      </trkpt>
      <trkpt lat="44.79075" lon="1.58364">
        <ele>109.73</ele>
        <time>2021-05-31T09:54:22Z</time>
      </trkpt>
      <trkpt lat="44.79083" lon="1.58358">
        <ele>109.73</ele>
        <time>2021-05-31T09:54:30Z</time>
      </trkpt>
      <trkpt lat="44.7908" lon="1.58348">
        <ele>109.25</ele>
        <time>2021-05-31T09:54:38Z</time>
      </trkpt>
      <trkpt lat="44.79078" lon="1.58344">
        <ele>108.29</ele>
        <time>2021-05-31T09:54:48Z</time>
      </trkpt>
      <trkpt lat="44.79076" lon="1.58341">
        <ele>108.77</ele>
        <time>2021-05-31T09:54:59Z</time>
      </trkpt>
      <trkpt lat="44.79081" lon="1.58347">
        <ele>108.77</ele>
        <time>2021-05-31T09:55:16Z</time>
      </trkpt>
      <trkpt lat="44.79083" lon="1.58343">
        <ele>107.32</ele>
        <time>2021-05-31T09:55:32Z</time>
      </trkpt>
      <trkpt lat="44.79084" lon="1.58344">
        <ele>108.77</ele>
        <time>2021-05-31T09:55:36Z</time>
      </trkpt>
      <trkpt lat="44.79079" lon="1.58348">
        <ele>107.32</ele>
        <time>2021-05-31T09:55:52Z</time>
      </trkpt>
      <trkpt lat="44.7908" lon="1.58344">
        <ele>107.32</ele>
        <time>2021-05-31T09:56:21Z</time>
      </trkpt>
      <trkpt lat="44.79077" lon="1.58348">
        <ele>107.32</ele>
        <time>2021-05-31T09:56:54Z</time>
      </trkpt>
      <trkpt lat="44.79076" lon="1.58348">
        <ele>107.81</ele>
        <time>2021-05-31T09:57:21Z</time>
      </trkpt>
      <trkpt lat="44.79082" lon="1.58352">
        <ele>107.32</ele>
        <time>2021-05-31T09:57:48Z</time>
      </trkpt>
      <trkpt lat="44.79079" lon="1.58348">
        <ele>107.32</ele>
        <time>2021-05-31T09:58:16Z</time>
      </trkpt>
      <trkpt lat="44.79082" lon="1.58351">
        <ele>107.32</ele>
        <time>2021-05-31T09:58:45Z</time>
      </trkpt>
      <trkpt lat="44.79082" lon="1.58352">
        <ele>107.32</ele>
        <time>2021-05-31T09:59:18Z</time>
      </trkpt>
      <trkpt lat="44.79082" lon="1.58354">
        <ele>107.32</ele>
        <time>2021-05-31T09:59:49Z</time>
      </trkpt>
      <trkpt lat="44.79082" lon="1.58351">
        <ele>106.84</ele>
        <time>2021-05-31T10:00:18Z</time>
      </trkpt>
      <trkpt lat="44.79083" lon="1.58349">
        <ele>106.84</ele>
        <time>2021-05-31T10:00:43Z</time>
      </trkpt>
      <trkpt lat="44.79082" lon="1.58344">
        <ele>107.32</ele>
        <time>2021-05-31T10:01:15Z</time>
      </trkpt>
      <trkpt lat="44.79085" lon="1.58346">
        <ele>107.32</ele>
        <time>2021-05-31T10:01:39Z</time>
      </trkpt>
      <trkpt lat="44.79085" lon="1.58349">
        <ele>107.32</ele>
        <time>2021-05-31T10:02:12Z</time>
      </trkpt>
      <trkpt lat="44.79086" lon="1.58345">
        <ele>107.32</ele>
        <time>2021-05-31T10:02:37Z</time>
      </trkpt>
      <trkpt lat="44.79085" lon="1.58348">
        <ele>107.32</ele>
        <time>2021-05-31T10:02:59Z</time>
      </trkpt>
      <trkpt lat="44.79085" lon="1.58349">
        <ele>107.32</ele>
        <time>2021-05-31T10:03:21Z</time>
      </trkpt>
      <trkpt lat="44.79079" lon="1.5835">
        <ele>107.32</ele>
        <time>2021-05-31T10:03:49Z</time>
      </trkpt>
      <trkpt lat="44.79078" lon="1.58351">
        <ele>107.32</ele>
        <time>2021-05-31T10:04:24Z</time>
      </trkpt>
      <trkpt lat="44.79079" lon="1.5835">
        <ele>107.81</ele>
        <time>2021-05-31T10:04:47Z</time>
      </trkpt>
      <trkpt lat="44.79075" lon="1.58354">
        <ele>107.81</ele>
        <time>2021-05-31T10:05:13Z</time>
      </trkpt>
      <trkpt lat="44.79064" lon="1.58351">
        <ele>108.77</ele>
        <time>2021-05-31T10:05:35Z</time>
      </trkpt>
      <trkpt lat="44.79073" lon="1.58346">
        <ele>108.77</ele>
        <time>2021-05-31T10:05:57Z</time>
      </trkpt>
      <trkpt lat="44.79078" lon="1.58347">
        <ele>109.25</ele>
        <time>2021-05-31T10:06:20Z</time>
      </trkpt>
      <trkpt lat="44.79088" lon="1.58348">
        <ele>109.25</ele>
        <time>2021-05-31T10:06:47Z</time>
      </trkpt>
      <trkpt lat="44.79079" lon="1.58346">
        <ele>109.25</ele>
        <time>2021-05-31T10:07:14Z</time>
      </trkpt>
      <trkpt lat="44.79076" lon="1.58349">
        <ele>109.25</ele>
        <time>2021-05-31T10:07:41Z</time>
      </trkpt>
      <trkpt lat="44.79075" lon="1.58349">
        <ele>109.25</ele>
        <time>2021-05-31T10:08:06Z</time>
      </trkpt>
      <trkpt lat="44.79077" lon="1.58346">
        <ele>109.25</ele>
        <time>2021-05-31T10:08:33Z</time>
      </trkpt>
      <trkpt lat="44.79081" lon="1.58349">
        <ele>109.25</ele>
        <time>2021-05-31T10:08:57Z</time>
      </trkpt>
      <trkpt lat="44.79078" lon="1.5835">
        <ele>109.25</ele>
        <time>2021-05-31T10:09:25Z</time>
      </trkpt>
      <trkpt lat="44.79077" lon="1.58349">
        <ele>109.25</ele>
        <time>2021-05-31T10:09:50Z</time>
      </trkpt>
      <trkpt lat="44.79081" lon="1.58348">
        <ele>109.25</ele>
        <time>2021-05-31T10:10:16Z</time>
      </trkpt>
      <trkpt lat="44.79088" lon="1.58349">
        <ele>109.25</ele>
        <time>2021-05-31T10:10:45Z</time>
      </trkpt>
      <trkpt lat="44.79079" lon="1.5835">
        <ele>109.25</ele>
        <time>2021-05-31T10:11:10Z</time>
      </trkpt>
      <trkpt lat="44.79085" lon="1.5835">
        <ele>109.73</ele>
        <time>2021-05-31T10:11:40Z</time>
      </trkpt>
      <trkpt lat="44.79087" lon="1.5835">
        <ele>109.73</ele>
        <time>2021-05-31T10:12:05Z</time>
      </trkpt>
      <trkpt lat="44.79077" lon="1.58345">
        <ele>109.73</ele>
        <time>2021-05-31T10:12:30Z</time>
      </trkpt>
      <trkpt lat="44.79081" lon="1.58348">
        <ele>109.73</ele>
        <time>2021-05-31T10:12:59Z</time>
      </trkpt>
      <trkpt lat="44.79083" lon="1.58347">
        <ele>109.73</ele>
        <time>2021-05-31T10:13:23Z</time>
      </trkpt>
      <trkpt lat="44.79085" lon="1.58344">
        <ele>109.73</ele>
        <time>2021-05-31T10:13:43Z</time>
      </trkpt>
      <trkpt lat="44.79092" lon="1.58347">
        <ele>109.73</ele>
        <time>2021-05-31T10:14:05Z</time>
      </trkpt>
      <trkpt lat="44.79086" lon="1.58344">
        <ele>110.21</ele>
        <time>2021-05-31T10:14:29Z</time>
      </trkpt>
      <trkpt lat="44.79085" lon="1.58345">
        <ele>110.21</ele>
        <time>2021-05-31T10:15:03Z</time>
      </trkpt>
      <trkpt lat="44.79082" lon="1.58345">
        <ele>110.69</ele>
        <time>2021-05-31T10:15:35Z</time>
      </trkpt>
      <trkpt lat="44.79083" lon="1.58342">
        <ele>109.25</ele>
        <time>2021-05-31T10:15:49Z</time>
      </trkpt>
      <trkpt lat="44.79083" lon="1.58342">
        <ele>109.25</ele>
        <time>2021-05-31T10:15:50Z</time>
      </trkpt>
      <trkpt lat="44.79085" lon="1.58343">
        <ele>109.25</ele>
        <time>2021-05-31T10:16:02Z</time>
      </trkpt>
      <trkpt lat="44.79082" lon="1.58345">
        <ele>109.25</ele>
        <time>2021-05-31T10:16:17Z</time>
      </trkpt>
      <trkpt lat="44.79081" lon="1.58348">
        <ele>108.77</ele>
        <time>2021-05-31T10:16:39Z</time>
      </trkpt>
      <trkpt lat="44.79081" lon="1.58345">
        <ele>109.25</ele>
        <time>2021-05-31T10:17:10Z</time>
      </trkpt>
      <trkpt lat="44.79081" lon="1.58348">
        <ele>109.25</ele>
        <time>2021-05-31T10:17:19Z</time>
      </trkpt>
      <trkpt lat="44.79084" lon="1.58347">
        <ele>110.21</ele>
        <time>2021-05-31T10:17:40Z</time>
      </trkpt>
      <trkpt lat="44.79084" lon="1.58353">
        <ele>110.21</ele>
        <time>2021-05-31T10:17:58Z</time>
      </trkpt>
      <trkpt lat="44.79081" lon="1.58353">
        <ele>110.69</ele>
        <time>2021-05-31T10:18:08Z</time>
      </trkpt>
      <trkpt lat="44.79073" lon="1.58353">
        <ele>111.17</ele>
        <time>2021-05-31T10:18:19Z</time>
      </trkpt>
      <trkpt lat="44.79065" lon="1.58357">
        <ele>111.17</ele>
        <time>2021-05-31T10:18:26Z</time>
      </trkpt>
      <trkpt lat="44.79053" lon="1.58363">
        <ele>111.17</ele>
        <time>2021-05-31T10:18:37Z</time>
      </trkpt>
      <trkpt lat="44.79046" lon="1.58366">
        <ele>111.17</ele>
        <time>2021-05-31T10:18:46Z</time>
      </trkpt>
      <trkpt lat="44.79037" lon="1.58372">
        <ele>111.17</ele>
        <time>2021-05-31T10:18:56Z</time>
      </trkpt>
      <trkpt lat="44.79033" lon="1.58387">
        <ele>111.17</ele>
        <time>2021-05-31T10:19:07Z</time>
      </trkpt>
      <trkpt lat="44.79041" lon="1.58392">
        <ele>111.17</ele>
        <time>2021-05-31T10:19:18Z</time>
      </trkpt>
      <trkpt lat="44.79042" lon="1.58393">
        <ele>112.61</ele>
        <time>2021-05-31T10:19:20Z</time>
      </trkpt>
      <trkpt lat="44.79049" lon="1.58399">
        <ele>113.57</ele>
        <time>2021-05-31T10:19:30Z</time>
      </trkpt>
      <trkpt lat="44.7905" lon="1.58401">
        <ele>113.57</ele>
        <time>2021-05-31T10:19:31Z</time>
      </trkpt>
      <trkpt lat="44.79052" lon="1.58407">
        <ele>114.53</ele>
        <time>2021-05-31T10:19:35Z</time>
      </trkpt>
      <trkpt lat="44.79062" lon="1.58414">
        <ele>115.01</ele>
        <time>2021-05-31T10:19:47Z</time>
      </trkpt>
      <trkpt lat="44.79073" lon="1.58422">
        <ele>115.98</ele>
        <time>2021-05-31T10:20:00Z</time>
      </trkpt>
      <trkpt lat="44.79082" lon="1.58426">
        <ele>116.94</ele>
        <time>2021-05-31T10:20:09Z</time>
      </trkpt>
      <trkpt lat="44.79086" lon="1.58429">
        <ele>118.38</ele>
        <time>2021-05-31T10:20:15Z</time>
      </trkpt>
      <trkpt lat="44.79089" lon="1.5843">
        <ele>116.94</ele>
        <time>2021-05-31T10:20:17Z</time>
      </trkpt>
      <trkpt lat="44.79092" lon="1.58431">
        <ele>118.86</ele>
        <time>2021-05-31T10:20:19Z</time>
      </trkpt>
      <trkpt lat="44.79106" lon="1.58444">
        <ele>120.3</ele>
        <time>2021-05-31T10:20:34Z</time>
      </trkpt>
      <trkpt lat="44.79118" lon="1.58455">
        <ele>122.71</ele>
        <time>2021-05-31T10:20:49Z</time>
      </trkpt>
      <trkpt lat="44.7913" lon="1.58466">
        <ele>125.59</ele>
        <time>2021-05-31T10:21:04Z</time>
      </trkpt>
      <trkpt lat="44.79137" lon="1.58474">
        <ele>127.03</ele>
        <time>2021-05-31T10:21:13Z</time>
      </trkpt>
      <trkpt lat="44.79138" lon="1.58475">
        <ele>126.07</ele>
        <time>2021-05-31T10:21:15Z</time>
      </trkpt>
      <trkpt lat="44.79141" lon="1.58477">
        <ele>127.99</ele>
        <time>2021-05-31T10:21:18Z</time>
      </trkpt>
      <trkpt lat="44.79142" lon="1.58481">
        <ele>126.55</ele>
        <time>2021-05-31T10:21:21Z</time>
      </trkpt>
      <trkpt lat="44.79144" lon="1.58484">
        <ele>128.47</ele>
        <time>2021-05-31T10:21:23Z</time>
      </trkpt>
      <trkpt lat="44.79144" lon="1.58487">
        <ele>127.51</ele>
        <time>2021-05-31T10:21:34Z</time>
      </trkpt>
      <trkpt lat="44.79145" lon="1.58488">
        <ele>127.51</ele>
        <time>2021-05-31T10:21:35Z</time>
      </trkpt>
      <trkpt lat="44.79145" lon="1.5849">
        <ele>127.51</ele>
        <time>2021-05-31T10:21:37Z</time>
      </trkpt>
      <trkpt lat="44.79152" lon="1.58505">
        <ele>128.95</ele>
        <time>2021-05-31T10:21:48Z</time>
      </trkpt>
      <trkpt lat="44.79156" lon="1.58512">
        <ele>129.92</ele>
        <time>2021-05-31T10:21:54Z</time>
      </trkpt>
      <trkpt lat="44.79161" lon="1.5852">
        <ele>130.4</ele>
        <time>2021-05-31T10:22:01Z</time>
      </trkpt>
      <trkpt lat="44.79167" lon="1.58529">
        <ele>131.36</ele>
        <time>2021-05-31T10:22:08Z</time>
      </trkpt>
      <trkpt lat="44.79176" lon="1.58542">
        <ele>132.32</ele>
        <time>2021-05-31T10:22:20Z</time>
      </trkpt>
      <trkpt lat="44.79183" lon="1.58547">
        <ele>133.28</ele>
        <time>2021-05-31T10:22:26Z</time>
      </trkpt>
      <trkpt lat="44.79187" lon="1.5855">
        <ele>133.76</ele>
        <time>2021-05-31T10:22:30Z</time>
      </trkpt>
      <trkpt lat="44.79199" lon="1.58556">
        <ele>134.72</ele>
        <time>2021-05-31T10:22:41Z</time>
      </trkpt>
      <trkpt lat="44.79211" lon="1.58565">
        <ele>136.16</ele>
        <time>2021-05-31T10:22:54Z</time>
      </trkpt>
      <trkpt lat="44.79216" lon="1.58571">
        <ele>137.13</ele>
        <time>2021-05-31T10:23:00Z</time>
      </trkpt>
      <trkpt lat="44.79221" lon="1.58579">
        <ele>138.09</ele>
        <time>2021-05-31T10:23:07Z</time>
      </trkpt>
      <trkpt lat="44.79231" lon="1.58591">
        <ele>140.01</ele>
        <time>2021-05-31T10:23:20Z</time>
      </trkpt>
      <trkpt lat="44.79232" lon="1.58587">
        <ele>140.97</ele>
        <time>2021-05-31T10:23:30Z</time>
      </trkpt>
      <trkpt lat="44.79231" lon="1.58583">
        <ele>141.93</ele>
        <time>2021-05-31T10:23:40Z</time>
      </trkpt>
      <trkpt lat="44.79229" lon="1.58583">
        <ele>141.93</ele>
        <time>2021-05-31T10:23:47Z</time>
      </trkpt>
      <trkpt lat="44.79224" lon="1.5857">
        <ele>140.49</ele>
        <time>2021-05-31T10:23:58Z</time>
      </trkpt>
      <trkpt lat="44.79214" lon="1.58552">
        <ele>140.49</ele>
        <time>2021-05-31T10:24:11Z</time>
      </trkpt>
      <trkpt lat="44.79207" lon="1.58537">
        <ele>140.49</ele>
        <time>2021-05-31T10:24:22Z</time>
      </trkpt>
      <trkpt lat="44.79198" lon="1.58513">
        <ele>140.49</ele>
        <time>2021-05-31T10:24:39Z</time>
      </trkpt>
      <trkpt lat="44.79196" lon="1.58503">
        <ele>140.01</ele>
        <time>2021-05-31T10:24:52Z</time>
      </trkpt>
      <trkpt lat="44.79196" lon="1.58503">
        <ele>140.01</ele>
        <time>2021-05-31T10:25:16Z</time>
      </trkpt>
      <trkpt lat="44.79196" lon="1.58501">
        <ele>140.01</ele>
        <time>2021-05-31T10:25:32Z</time>
      </trkpt>
      <trkpt lat="44.79197" lon="1.58509">
        <ele>140.01</ele>
        <time>2021-05-31T10:25:36Z</time>
      </trkpt>
      <trkpt lat="44.79204" lon="1.58527">
        <ele>140.97</ele>
        <time>2021-05-31T10:25:48Z</time>
      </trkpt>
      <trkpt lat="44.79208" lon="1.58538">
        <ele>141.45</ele>
        <time>2021-05-31T10:25:56Z</time>
      </trkpt>
      <trkpt lat="44.79212" lon="1.58545">
        <ele>141.93</ele>
        <time>2021-05-31T10:26:01Z</time>
      </trkpt>
      <trkpt lat="44.79222" lon="1.58564">
        <ele>141.45</ele>
        <time>2021-05-31T10:26:15Z</time>
      </trkpt>
      <trkpt lat="44.79229" lon="1.5858">
        <ele>141.93</ele>
        <time>2021-05-31T10:26:26Z</time>
      </trkpt>
      <trkpt lat="44.7923" lon="1.58581">
        <ele>141.93</ele>
        <time>2021-05-31T10:26:27Z</time>
      </trkpt>
      <trkpt lat="44.79235" lon="1.58597">
        <ele>141.93</ele>
        <time>2021-05-31T10:26:38Z</time>
      </trkpt>
      <trkpt lat="44.7924" lon="1.58613">
        <ele>142.41</ele>
        <time>2021-05-31T10:26:48Z</time>
      </trkpt>
      <trkpt lat="44.79242" lon="1.58619">
        <ele>140.97</ele>
        <time>2021-05-31T10:26:52Z</time>
      </trkpt>
      <trkpt lat="44.79242" lon="1.58623">
        <ele>143.85</ele>
        <time>2021-05-31T10:26:54Z</time>
      </trkpt>
      <trkpt lat="44.79242" lon="1.58627">
        <ele>143.85</ele>
        <time>2021-05-31T10:26:56Z</time>
      </trkpt>
      <trkpt lat="44.79247" lon="1.58651">
        <ele>143.85</ele>
        <time>2021-05-31T10:27:09Z</time>
      </trkpt>
      <trkpt lat="44.79251" lon="1.5867">
        <ele>144.34</ele>
        <time>2021-05-31T10:27:21Z</time>
      </trkpt>
      <trkpt lat="44.79255" lon="1.58691">
        <ele>145.3</ele>
        <time>2021-05-31T10:27:34Z</time>
      </trkpt>
      <trkpt lat="44.79257" lon="1.58695">
        <ele>145.3</ele>
        <time>2021-05-31T10:27:37Z</time>
      </trkpt>
      <trkpt lat="44.79258" lon="1.5871">
        <ele>145.78</ele>
        <time>2021-05-31T10:27:46Z</time>
      </trkpt>
      <trkpt lat="44.7926" lon="1.58729">
        <ele>146.26</ele>
        <time>2021-05-31T10:27:57Z</time>
      </trkpt>
      <trkpt lat="44.79262" lon="1.58745">
        <ele>147.22</ele>
        <time>2021-05-31T10:28:06Z</time>
      </trkpt>
      <trkpt lat="44.79262" lon="1.58749">
        <ele>147.22</ele>
        <time>2021-05-31T10:28:08Z</time>
      </trkpt>
      <trkpt lat="44.79264" lon="1.58758">
        <ele>147.7</ele>
        <time>2021-05-31T10:28:13Z</time>
      </trkpt>
      <trkpt lat="44.79267" lon="1.58779">
        <ele>148.66</ele>
        <time>2021-05-31T10:28:26Z</time>
      </trkpt>
      <trkpt lat="44.79268" lon="1.58796">
        <ele>149.14</ele>
        <time>2021-05-31T10:28:37Z</time>
      </trkpt>
      <trkpt lat="44.79271" lon="1.58817">
        <ele>150.1</ele>
        <time>2021-05-31T10:28:47Z</time>
      </trkpt>
      <trkpt lat="44.79273" lon="1.58835">
        <ele>150.58</ele>
        <time>2021-05-31T10:28:57Z</time>
      </trkpt>
      <trkpt lat="44.79275" lon="1.58856">
        <ele>152.03</ele>
        <time>2021-05-31T10:29:11Z</time>
      </trkpt>
      <trkpt lat="44.79274" lon="1.58856">
        <ele>152.51</ele>
        <time>2021-05-31T10:29:25Z</time>
      </trkpt>
      <trkpt lat="44.79276" lon="1.58862">
        <ele>152.51</ele>
        <time>2021-05-31T10:29:36Z</time>
      </trkpt>
      <trkpt lat="44.79276" lon="1.58875">
        <ele>152.99</ele>
        <time>2021-05-31T10:29:47Z</time>
      </trkpt>
      <trkpt lat="44.79273" lon="1.5888">
        <ele>152.99</ele>
        <time>2021-05-31T10:29:55Z</time>
      </trkpt>
      <trkpt lat="44.79274" lon="1.5889">
        <ele>153.47</ele>
        <time>2021-05-31T10:30:08Z</time>
      </trkpt>
      <trkpt lat="44.79274" lon="1.58897">
        <ele>154.91</ele>
        <time>2021-05-31T10:30:19Z</time>
      </trkpt>
      <trkpt lat="44.79274" lon="1.58902">
        <ele>154.43</ele>
        <time>2021-05-31T10:30:38Z</time>
      </trkpt>
      <trkpt lat="44.79274" lon="1.5892">
        <ele>155.39</ele>
        <time>2021-05-31T10:30:51Z</time>
      </trkpt>
      <trkpt lat="44.79274" lon="1.58923">
        <ele>155.39</ele>
        <time>2021-05-31T10:30:53Z</time>
      </trkpt>
      <trkpt lat="44.79273" lon="1.58934">
        <ele>155.39</ele>
        <time>2021-05-31T10:31:00Z</time>
      </trkpt>
      <trkpt lat="44.79275" lon="1.58956">
        <ele>157.31</ele>
        <time>2021-05-31T10:31:15Z</time>
      </trkpt>
      <trkpt lat="44.79275" lon="1.58962">
        <ele>157.31</ele>
        <time>2021-05-31T10:31:24Z</time>
      </trkpt>
      <trkpt lat="44.79276" lon="1.58965">
        <ele>158.75</ele>
        <time>2021-05-31T10:31:26Z</time>
      </trkpt>
      <trkpt lat="44.79276" lon="1.58969">
        <ele>155.39</ele>
        <time>2021-05-31T10:31:28Z</time>
      </trkpt>
      <trkpt lat="44.79276" lon="1.5897">
        <ele>158.27</ele>
        <time>2021-05-31T10:31:29Z</time>
      </trkpt>
      <trkpt lat="44.79279" lon="1.58989">
        <ele>157.79</ele>
        <time>2021-05-31T10:31:40Z</time>
      </trkpt>
      <trkpt lat="44.7928" lon="1.58994">
        <ele>159.24</ele>
        <time>2021-05-31T10:31:43Z</time>
      </trkpt>
      <trkpt lat="44.7928" lon="1.59017">
        <ele>160.2</ele>
        <time>2021-05-31T10:31:56Z</time>
      </trkpt>
      <trkpt lat="44.7928" lon="1.59025">
        <ele>160.2</ele>
        <time>2021-05-31T10:32:01Z</time>
      </trkpt>
      <trkpt lat="44.7928" lon="1.59047">
        <ele>160.68</ele>
        <time>2021-05-31T10:32:14Z</time>
      </trkpt>
      <trkpt lat="44.79279" lon="1.59071">
        <ele>161.64</ele>
        <time>2021-05-31T10:32:28Z</time>
      </trkpt>
      <trkpt lat="44.79278" lon="1.5909">
        <ele>162.12</ele>
        <time>2021-05-31T10:32:40Z</time>
      </trkpt>
      <trkpt lat="44.79278" lon="1.59108">
        <ele>163.08</ele>
        <time>2021-05-31T10:32:51Z</time>
      </trkpt>
      <trkpt lat="44.79282" lon="1.59131">
        <ele>164.52</ele>
        <time>2021-05-31T10:33:06Z</time>
      </trkpt>
      <trkpt lat="44.79283" lon="1.59135">
        <ele>165</ele>
        <time>2021-05-31T10:33:09Z</time>
      </trkpt>
      <trkpt lat="44.79283" lon="1.59139">
        <ele>165</ele>
        <time>2021-05-31T10:33:12Z</time>
      </trkpt>
      <trkpt lat="44.79284" lon="1.59155">
        <ele>165</ele>
        <time>2021-05-31T10:33:23Z</time>
      </trkpt>
      <trkpt lat="44.79285" lon="1.59156">
        <ele>165</ele>
        <time>2021-05-31T10:33:35Z</time>
      </trkpt>
      <trkpt lat="44.79285" lon="1.59156">
        <ele>165</ele>
        <time>2021-05-31T10:33:45Z</time>
      </trkpt>
      <trkpt lat="44.79285" lon="1.59146">
        <ele>165</ele>
        <time>2021-05-31T10:33:51Z</time>
      </trkpt>
      <trkpt lat="44.79287" lon="1.59132">
        <ele>165</ele>
        <time>2021-05-31T10:33:59Z</time>
      </trkpt>
      <trkpt lat="44.79295" lon="1.59113">
        <ele>165.96</ele>
        <time>2021-05-31T10:34:12Z</time>
      </trkpt>
      <trkpt lat="44.79306" lon="1.59096">
        <ele>166.93</ele>
        <time>2021-05-31T10:34:25Z</time>
      </trkpt>
      <trkpt lat="44.79314" lon="1.59076">
        <ele>168.37</ele>
        <time>2021-05-31T10:34:39Z</time>
      </trkpt>
      <trkpt lat="44.79314" lon="1.59075">
        <ele>168.37</ele>
        <time>2021-05-31T10:34:40Z</time>
      </trkpt>
      <trkpt lat="44.79324" lon="1.59061">
        <ele>169.81</ele>
        <time>2021-05-31T10:34:53Z</time>
      </trkpt>
      <trkpt lat="44.79332" lon="1.59051">
        <ele>170.29</ele>
        <time>2021-05-31T10:35:01Z</time>
      </trkpt>
      <trkpt lat="44.79337" lon="1.59045">
        <ele>170.77</ele>
        <time>2021-05-31T10:35:10Z</time>
      </trkpt>
      <trkpt lat="44.79339" lon="1.59045">
        <ele>170.77</ele>
        <time>2021-05-31T10:35:28Z</time>
      </trkpt>
      <trkpt lat="44.79349" lon="1.59035">
        <ele>169.33</ele>
        <time>2021-05-31T10:35:39Z</time>
      </trkpt>
      <trkpt lat="44.79359" lon="1.59024">
        <ele>168.37</ele>
        <time>2021-05-31T10:35:51Z</time>
      </trkpt>
      <trkpt lat="44.79365" lon="1.5902">
        <ele>168.37</ele>
        <time>2021-05-31T10:35:56Z</time>
      </trkpt>
      <trkpt lat="44.79382" lon="1.59011">
        <ele>167.41</ele>
        <time>2021-05-31T10:36:09Z</time>
      </trkpt>
      <trkpt lat="44.79386" lon="1.5901">
        <ele>167.41</ele>
        <time>2021-05-31T10:36:12Z</time>
      </trkpt>
      <trkpt lat="44.79402" lon="1.59009">
        <ele>165.48</ele>
        <time>2021-05-31T10:36:24Z</time>
      </trkpt>
      <trkpt lat="44.79416" lon="1.59009">
        <ele>164.04</ele>
        <time>2021-05-31T10:36:34Z</time>
      </trkpt>
      <trkpt lat="44.79421" lon="1.59009">
        <ele>163.08</ele>
        <time>2021-05-31T10:36:38Z</time>
      </trkpt>
      <trkpt lat="44.79439" lon="1.5901">
        <ele>162.12</ele>
        <time>2021-05-31T10:36:51Z</time>
      </trkpt>
      <trkpt lat="44.79456" lon="1.59013">
        <ele>161.64</ele>
        <time>2021-05-31T10:37:03Z</time>
      </trkpt>
      <trkpt lat="44.79471" lon="1.5902">
        <ele>160.68</ele>
        <time>2021-05-31T10:37:15Z</time>
      </trkpt>
      <trkpt lat="44.79474" lon="1.59022">
        <ele>160.68</ele>
        <time>2021-05-31T10:37:17Z</time>
      </trkpt>
      <trkpt lat="44.79489" lon="1.59028">
        <ele>158.75</ele>
        <time>2021-05-31T10:37:29Z</time>
      </trkpt>
      <trkpt lat="44.79499" lon="1.59029">
        <ele>157.79</ele>
        <time>2021-05-31T10:37:37Z</time>
      </trkpt>
      <trkpt lat="44.7951" lon="1.59024">
        <ele>156.35</ele>
        <time>2021-05-31T10:37:48Z</time>
      </trkpt>
      <trkpt lat="44.79514" lon="1.59021">
        <ele>155.87</ele>
        <time>2021-05-31T10:37:52Z</time>
      </trkpt>
      <trkpt lat="44.79523" lon="1.59012">
        <ele>154.43</ele>
        <time>2021-05-31T10:38:01Z</time>
      </trkpt>
      <trkpt lat="44.79526" lon="1.59005">
        <ele>154.43</ele>
        <time>2021-05-31T10:38:05Z</time>
      </trkpt>
      <trkpt lat="44.7953" lon="1.58988">
        <ele>153.95</ele>
        <time>2021-05-31T10:38:17Z</time>
      </trkpt>
      <trkpt lat="44.79532" lon="1.58982">
        <ele>153.95</ele>
        <time>2021-05-31T10:38:20Z</time>
      </trkpt>
      <trkpt lat="44.79535" lon="1.58963">
        <ele>153.47</ele>
        <time>2021-05-31T10:38:30Z</time>
      </trkpt>
      <trkpt lat="44.79539" lon="1.58952">
        <ele>152.99</ele>
        <time>2021-05-31T10:38:37Z</time>
      </trkpt>
      <trkpt lat="44.79543" lon="1.58946">
        <ele>152.03</ele>
        <time>2021-05-31T10:38:42Z</time>
      </trkpt>
      <trkpt lat="44.79546" lon="1.58937">
        <ele>152.03</ele>
        <time>2021-05-31T10:38:47Z</time>
      </trkpt>
      <trkpt lat="44.79549" lon="1.58946">
        <ele>149.14</ele>
        <time>2021-05-31T10:38:57Z</time>
      </trkpt>
      <trkpt lat="44.79548" lon="1.58955">
        <ele>148.18</ele>
        <time>2021-05-31T10:39:07Z</time>
      </trkpt>
      <trkpt lat="44.79547" lon="1.5896">
        <ele>146.74</ele>
        <time>2021-05-31T10:39:13Z</time>
      </trkpt>
      <trkpt lat="44.79549" lon="1.58969">
        <ele>144.82</ele>
        <time>2021-05-31T10:39:22Z</time>
      </trkpt>
      <trkpt lat="44.79548" lon="1.5898">
        <ele>142.41</ele>
        <time>2021-05-31T10:39:32Z</time>
      </trkpt>
      <trkpt lat="44.79552" lon="1.58993">
        <ele>140.01</ele>
        <time>2021-05-31T10:39:42Z</time>
      </trkpt>
      <trkpt lat="44.79552" lon="1.59005">
        <ele>137.61</ele>
        <time>2021-05-31T10:39:53Z</time>
      </trkpt>
      <trkpt lat="44.79551" lon="1.59019">
        <ele>135.2</ele>
        <time>2021-05-31T10:40:06Z</time>
      </trkpt>
      <trkpt lat="44.79552" lon="1.59024">
        <ele>133.28</ele>
        <time>2021-05-31T10:40:15Z</time>
      </trkpt>
      <trkpt lat="44.79551" lon="1.59038">
        <ele>131.36</ele>
        <time>2021-05-31T10:40:26Z</time>
      </trkpt>
      <trkpt lat="44.7955" lon="1.59052">
        <ele>129.43</ele>
        <time>2021-05-31T10:40:34Z</time>
      </trkpt>
      <trkpt lat="44.79547" lon="1.59065">
        <ele>128.47</ele>
        <time>2021-05-31T10:40:41Z</time>
      </trkpt>
      <trkpt lat="44.79545" lon="1.5907">
        <ele>127.99</ele>
        <time>2021-05-31T10:40:45Z</time>
      </trkpt>
      <trkpt lat="44.79538" lon="1.5909">
        <ele>125.59</ele>
        <time>2021-05-31T10:40:55Z</time>
      </trkpt>
      <trkpt lat="44.79539" lon="1.59093">
        <ele>125.11</ele>
        <time>2021-05-31T10:41:01Z</time>
      </trkpt>
      <trkpt lat="44.79548" lon="1.59084">
        <ele>125.11</ele>
        <time>2021-05-31T10:41:11Z</time>
      </trkpt>
      <trkpt lat="44.79554" lon="1.59063">
        <ele>125.11</ele>
        <time>2021-05-31T10:41:23Z</time>
      </trkpt>
      <trkpt lat="44.7956" lon="1.59049">
        <ele>125.11</ele>
        <time>2021-05-31T10:41:33Z</time>
      </trkpt>
      <trkpt lat="44.79562" lon="1.5904">
        <ele>126.07</ele>
        <time>2021-05-31T10:41:38Z</time>
      </trkpt>
      <trkpt lat="44.79568" lon="1.59027">
        <ele>126.55</ele>
        <time>2021-05-31T10:41:49Z</time>
      </trkpt>
      <trkpt lat="44.79568" lon="1.59014">
        <ele>126.55</ele>
        <time>2021-05-31T10:41:58Z</time>
      </trkpt>
      <trkpt lat="44.79571" lon="1.59009">
        <ele>125.11</ele>
        <time>2021-05-31T10:42:03Z</time>
      </trkpt>
      <trkpt lat="44.79575" lon="1.58995">
        <ele>125.11</ele>
        <time>2021-05-31T10:42:14Z</time>
      </trkpt>
      <trkpt lat="44.7958" lon="1.58976">
        <ele>124.15</ele>
        <time>2021-05-31T10:42:24Z</time>
      </trkpt>
      <trkpt lat="44.79586" lon="1.58966">
        <ele>123.67</ele>
        <time>2021-05-31T10:42:33Z</time>
      </trkpt>
      <trkpt lat="44.79596" lon="1.58961">
        <ele>122.22</ele>
        <time>2021-05-31T10:42:43Z</time>
      </trkpt>
      <trkpt lat="44.79605" lon="1.58958">
        <ele>121.74</ele>
        <time>2021-05-31T10:42:53Z</time>
      </trkpt>
      <trkpt lat="44.79612" lon="1.58958">
        <ele>121.26</ele>
        <time>2021-05-31T10:43:00Z</time>
      </trkpt>
      <trkpt lat="44.79634" lon="1.58955">
        <ele>120.3</ele>
        <time>2021-05-31T10:43:12Z</time>
      </trkpt>
      <trkpt lat="44.79652" lon="1.58953">
        <ele>120.3</ele>
        <time>2021-05-31T10:43:20Z</time>
      </trkpt>
      <trkpt lat="44.79656" lon="1.58952">
        <ele>120.3</ele>
        <time>2021-05-31T10:43:23Z</time>
      </trkpt>
      <trkpt lat="44.79674" lon="1.58951">
        <ele>120.3</ele>
        <time>2021-05-31T10:43:35Z</time>
      </trkpt>
      <trkpt lat="44.79684" lon="1.58959">
        <ele>121.26</ele>
        <time>2021-05-31T10:43:44Z</time>
      </trkpt>
      <trkpt lat="44.79687" lon="1.58962">
        <ele>121.26</ele>
        <time>2021-05-31T10:43:49Z</time>
      </trkpt>
      <trkpt lat="44.79703" lon="1.5897">
        <ele>119.82</ele>
        <time>2021-05-31T10:43:59Z</time>
      </trkpt>
      <trkpt lat="44.79715" lon="1.58972">
        <ele>119.34</ele>
        <time>2021-05-31T10:44:10Z</time>
      </trkpt>
      <trkpt lat="44.79718" lon="1.5897">
        <ele>119.34</ele>
        <time>2021-05-31T10:44:12Z</time>
      </trkpt>
      <trkpt lat="44.79727" lon="1.58968">
        <ele>119.34</ele>
        <time>2021-05-31T10:44:19Z</time>
      </trkpt>
      <trkpt lat="44.79742" lon="1.58955">
        <ele>119.34</ele>
        <time>2021-05-31T10:44:32Z</time>
      </trkpt>
      <trkpt lat="44.79753" lon="1.58946">
        <ele>120.78</ele>
        <time>2021-05-31T10:44:42Z</time>
      </trkpt>
      <trkpt lat="44.79763" lon="1.58944">
        <ele>119.34</ele>
        <time>2021-05-31T10:44:51Z</time>
      </trkpt>
      <trkpt lat="44.7977" lon="1.58947">
        <ele>118.86</ele>
        <time>2021-05-31T10:45:01Z</time>
      </trkpt>
      <trkpt lat="44.79777" lon="1.58955">
        <ele>118.86</ele>
        <time>2021-05-31T10:45:11Z</time>
      </trkpt>
      <trkpt lat="44.798" lon="1.58968">
        <ele>118.86</ele>
        <time>2021-05-31T10:45:24Z</time>
      </trkpt>
      <trkpt lat="44.79812" lon="1.58963">
        <ele>119.34</ele>
        <time>2021-05-31T10:45:35Z</time>
      </trkpt>
      <trkpt lat="44.79824" lon="1.58959">
        <ele>119.82</ele>
        <time>2021-05-31T10:45:45Z</time>
      </trkpt>
      <trkpt lat="44.79833" lon="1.58956">
        <ele>119.82</ele>
        <time>2021-05-31T10:45:55Z</time>
      </trkpt>
      <trkpt lat="44.79841" lon="1.58955">
        <ele>119.82</ele>
        <time>2021-05-31T10:46:05Z</time>
      </trkpt>
      <trkpt lat="44.7985" lon="1.58955">
        <ele>119.82</ele>
        <time>2021-05-31T10:46:15Z</time>
      </trkpt>
      <trkpt lat="44.79864" lon="1.58953">
        <ele>119.82</ele>
        <time>2021-05-31T10:46:27Z</time>
      </trkpt>
      <trkpt lat="44.7988" lon="1.58952">
        <ele>119.82</ele>
        <time>2021-05-31T10:46:37Z</time>
      </trkpt>
      <trkpt lat="44.79884" lon="1.58952">
        <ele>119.82</ele>
        <time>2021-05-31T10:46:40Z</time>
      </trkpt>
      <trkpt lat="44.79901" lon="1.58951">
        <ele>119.82</ele>
        <time>2021-05-31T10:46:50Z</time>
      </trkpt>
      <trkpt lat="44.79905" lon="1.58951">
        <ele>118.38</ele>
        <time>2021-05-31T10:46:53Z</time>
      </trkpt>
      <trkpt lat="44.79912" lon="1.58947">
        <ele>117.9</ele>
        <time>2021-05-31T10:47:02Z</time>
      </trkpt>
      <trkpt lat="44.79914" lon="1.58947">
        <ele>117.9</ele>
        <time>2021-05-31T10:47:03Z</time>
      </trkpt>
      <trkpt lat="44.7993" lon="1.58943">
        <ele>117.9</ele>
        <time>2021-05-31T10:47:14Z</time>
      </trkpt>
      <trkpt lat="44.79933" lon="1.58942">
        <ele>118.86</ele>
        <time>2021-05-31T10:47:17Z</time>
      </trkpt>
      <trkpt lat="44.79937" lon="1.5894">
        <ele>118.86</ele>
        <time>2021-05-31T10:47:21Z</time>
      </trkpt>
      <trkpt lat="44.79941" lon="1.58938">
        <ele>118.86</ele>
        <time>2021-05-31T10:47:23Z</time>
      </trkpt>
      <trkpt lat="44.79953" lon="1.58928">
        <ele>118.86</ele>
        <time>2021-05-31T10:47:33Z</time>
      </trkpt>
      <trkpt lat="44.79964" lon="1.58918">
        <ele>118.86</ele>
        <time>2021-05-31T10:47:42Z</time>
      </trkpt>
      <trkpt lat="44.79974" lon="1.58909">
        <ele>118.86</ele>
        <time>2021-05-31T10:47:52Z</time>
      </trkpt>
      <trkpt lat="44.79978" lon="1.58902">
        <ele>118.86</ele>
        <time>2021-05-31T10:47:56Z</time>
      </trkpt>
      <trkpt lat="44.79987" lon="1.58884">
        <ele>118.86</ele>
        <time>2021-05-31T10:48:08Z</time>
      </trkpt>
      <trkpt lat="44.79988" lon="1.58881">
        <ele>119.34</ele>
        <time>2021-05-31T10:48:11Z</time>
      </trkpt>
      <trkpt lat="44.7999" lon="1.58861">
        <ele>119.34</ele>
        <time>2021-05-31T10:48:23Z</time>
      </trkpt>
      <trkpt lat="44.7999" lon="1.58846">
        <ele>119.34</ele>
        <time>2021-05-31T10:48:33Z</time>
      </trkpt>
      <trkpt lat="44.79991" lon="1.5884">
        <ele>119.34</ele>
        <time>2021-05-31T10:48:36Z</time>
      </trkpt>
      <trkpt lat="44.79991" lon="1.58823">
        <ele>119.34</ele>
        <time>2021-05-31T10:48:46Z</time>
      </trkpt>
      <trkpt lat="44.79991" lon="1.58804">
        <ele>120.3</ele>
        <time>2021-05-31T10:48:57Z</time>
      </trkpt>
      <trkpt lat="44.79992" lon="1.58801">
        <ele>121.26</ele>
        <time>2021-05-31T10:49:05Z</time>
      </trkpt>
      <trkpt lat="44.79992" lon="1.58801">
        <ele>121.26</ele>
        <time>2021-05-31T10:49:13Z</time>
      </trkpt>
      <trkpt lat="44.79991" lon="1.58798">
        <ele>121.26</ele>
        <time>2021-05-31T10:49:16Z</time>
      </trkpt>
      <trkpt lat="44.79989" lon="1.58795">
        <ele>119.82</ele>
        <time>2021-05-31T10:49:22Z</time>
      </trkpt>
      <trkpt lat="44.79991" lon="1.58795">
        <ele>119.82</ele>
        <time>2021-05-31T10:49:33Z</time>
      </trkpt>
      <trkpt lat="44.79994" lon="1.58796">
        <ele>119.82</ele>
        <time>2021-05-31T10:49:46Z</time>
      </trkpt>
      <trkpt lat="44.79995" lon="1.58797">
        <ele>119.82</ele>
        <time>2021-05-31T10:49:48Z</time>
      </trkpt>
      <trkpt lat="44.8" lon="1.588">
        <ele>121.26</ele>
        <time>2021-05-31T10:49:53Z</time>
      </trkpt>
      <trkpt lat="44.80005" lon="1.58807">
        <ele>122.71</ele>
        <time>2021-05-31T10:50:00Z</time>
      </trkpt>
      <trkpt lat="44.80006" lon="1.58822">
        <ele>123.19</ele>
        <time>2021-05-31T10:50:10Z</time>
      </trkpt>
      <trkpt lat="44.80007" lon="1.58838">
        <ele>124.15</ele>
        <time>2021-05-31T10:50:21Z</time>
      </trkpt>
      <trkpt lat="44.80007" lon="1.58841">
        <ele>123.19</ele>
        <time>2021-05-31T10:50:23Z</time>
      </trkpt>
      <trkpt lat="44.8001" lon="1.58852">
        <ele>125.11</ele>
        <time>2021-05-31T10:50:34Z</time>
      </trkpt>
      <trkpt lat="44.80011" lon="1.58852">
        <ele>125.59</ele>
        <time>2021-05-31T10:50:55Z</time>
      </trkpt>
      <trkpt lat="44.80012" lon="1.58854">
        <ele>125.59</ele>
        <time>2021-05-31T10:50:59Z</time>
      </trkpt>
      <trkpt lat="44.80016" lon="1.58866">
        <ele>126.07</ele>
        <time>2021-05-31T10:51:10Z</time>
      </trkpt>
      <trkpt lat="44.80025" lon="1.58874">
        <ele>127.51</ele>
        <time>2021-05-31T10:51:21Z</time>
      </trkpt>
      <trkpt lat="44.80034" lon="1.58882">
        <ele>128.95</ele>
        <time>2021-05-31T10:51:32Z</time>
      </trkpt>
      <trkpt lat="44.80038" lon="1.58892">
        <ele>130.88</ele>
        <time>2021-05-31T10:51:43Z</time>
      </trkpt>
      <trkpt lat="44.80042" lon="1.589">
        <ele>132.32</ele>
        <time>2021-05-31T10:51:51Z</time>
      </trkpt>
      <trkpt lat="44.80048" lon="1.58908">
        <ele>133.76</ele>
        <time>2021-05-31T10:52:03Z</time>
      </trkpt>
      <trkpt lat="44.80055" lon="1.58918">
        <ele>135.68</ele>
        <time>2021-05-31T10:52:15Z</time>
      </trkpt>
      <trkpt lat="44.80056" lon="1.58918">
        <ele>135.68</ele>
        <time>2021-05-31T10:52:16Z</time>
      </trkpt>
      <trkpt lat="44.80061" lon="1.58924">
        <ele>137.61</ele>
        <time>2021-05-31T10:52:26Z</time>
      </trkpt>
      <trkpt lat="44.80066" lon="1.58928">
        <ele>139.05</ele>
        <time>2021-05-31T10:52:33Z</time>
      </trkpt>
      <trkpt lat="44.80076" lon="1.58941">
        <ele>140.97</ele>
        <time>2021-05-31T10:52:47Z</time>
      </trkpt>
      <trkpt lat="44.80081" lon="1.58944">
        <ele>142.41</ele>
        <time>2021-05-31T10:52:58Z</time>
      </trkpt>
      <trkpt lat="44.80085" lon="1.58949">
        <ele>142.89</ele>
        <time>2021-05-31T10:53:08Z</time>
      </trkpt>
      <trkpt lat="44.80095" lon="1.58953">
        <ele>144.82</ele>
        <time>2021-05-31T10:53:20Z</time>
      </trkpt>
      <trkpt lat="44.801" lon="1.58957">
        <ele>146.26</ele>
        <time>2021-05-31T10:53:28Z</time>
      </trkpt>
      <trkpt lat="44.80107" lon="1.58961">
        <ele>147.22</ele>
        <time>2021-05-31T10:53:36Z</time>
      </trkpt>
      <trkpt lat="44.80117" lon="1.58969">
        <ele>149.14</ele>
        <time>2021-05-31T10:53:48Z</time>
      </trkpt>
      <trkpt lat="44.8012" lon="1.58971">
        <ele>149.62</ele>
        <time>2021-05-31T10:53:58Z</time>
      </trkpt>
      <trkpt lat="44.80124" lon="1.58974">
        <ele>149.62</ele>
        <time>2021-05-31T10:54:11Z</time>
      </trkpt>
      <trkpt lat="44.80134" lon="1.58983">
        <ele>151.06</ele>
        <time>2021-05-31T10:54:25Z</time>
      </trkpt>
      <trkpt lat="44.80143" lon="1.5899">
        <ele>152.51</ele>
        <time>2021-05-31T10:54:36Z</time>
      </trkpt>
      <trkpt lat="44.80144" lon="1.58991">
        <ele>152.51</ele>
        <time>2021-05-31T10:54:37Z</time>
      </trkpt>
      <trkpt lat="44.80152" lon="1.58996">
        <ele>153.47</ele>
        <time>2021-05-31T10:54:48Z</time>
      </trkpt>
      <trkpt lat="44.8016" lon="1.58999">
        <ele>154.91</ele>
        <time>2021-05-31T10:54:57Z</time>
      </trkpt>
      <trkpt lat="44.80162" lon="1.59">
        <ele>155.39</ele>
        <time>2021-05-31T10:55:00Z</time>
      </trkpt>
      <trkpt lat="44.80172" lon="1.59004">
        <ele>157.79</ele>
        <time>2021-05-31T10:55:12Z</time>
      </trkpt>
      <trkpt lat="44.8018" lon="1.59007">
        <ele>159.24</ele>
        <time>2021-05-31T10:55:22Z</time>
      </trkpt>
      <trkpt lat="44.80182" lon="1.59008">
        <ele>160.2</ele>
        <time>2021-05-31T10:55:25Z</time>
      </trkpt>
      <trkpt lat="44.8019" lon="1.5901">
        <ele>161.64</ele>
        <time>2021-05-31T10:55:35Z</time>
      </trkpt>
      <trkpt lat="44.80199" lon="1.59014">
        <ele>163.56</ele>
        <time>2021-05-31T10:55:47Z</time>
      </trkpt>
      <trkpt lat="44.80206" lon="1.59019">
        <ele>165</ele>
        <time>2021-05-31T10:55:56Z</time>
      </trkpt>
      <trkpt lat="44.80215" lon="1.59027">
        <ele>165.96</ele>
        <time>2021-05-31T10:56:08Z</time>
      </trkpt>
      <trkpt lat="44.80224" lon="1.59035">
        <ele>166.45</ele>
        <time>2021-05-31T10:56:18Z</time>
      </trkpt>
      <trkpt lat="44.80233" lon="1.59049">
        <ele>166.93</ele>
        <time>2021-05-31T10:56:30Z</time>
      </trkpt>
      <trkpt lat="44.8024" lon="1.59059">
        <ele>167.41</ele>
        <time>2021-05-31T10:56:40Z</time>
      </trkpt>
      <trkpt lat="44.80252" lon="1.59074">
        <ele>169.33</ele>
        <time>2021-05-31T10:56:52Z</time>
      </trkpt>
      <trkpt lat="44.80261" lon="1.59083">
        <ele>171.25</ele>
        <time>2021-05-31T10:57:03Z</time>
      </trkpt>
      <trkpt lat="44.80273" lon="1.59091">
        <ele>172.69</ele>
        <time>2021-05-31T10:57:14Z</time>
      </trkpt>
      <trkpt lat="44.8028" lon="1.59096">
        <ele>174.62</ele>
        <time>2021-05-31T10:57:25Z</time>
      </trkpt>
      <trkpt lat="44.80288" lon="1.59101">
        <ele>176.06</ele>
        <time>2021-05-31T10:57:34Z</time>
      </trkpt>
      <trkpt lat="44.80292" lon="1.59099">
        <ele>177.5</ele>
        <time>2021-05-31T10:57:44Z</time>
      </trkpt>
      <trkpt lat="44.80292" lon="1.59099">
        <ele>176.06</ele>
        <time>2021-05-31T10:57:48Z</time>
      </trkpt>
      <trkpt lat="44.80293" lon="1.59099">
        <ele>178.46</ele>
        <time>2021-05-31T10:57:50Z</time>
      </trkpt>
      <trkpt lat="44.80298" lon="1.59103">
        <ele>178.94</ele>
        <time>2021-05-31T10:57:59Z</time>
      </trkpt>
      <trkpt lat="44.80304" lon="1.59108">
        <ele>180.38</ele>
        <time>2021-05-31T10:58:09Z</time>
      </trkpt>
      <trkpt lat="44.80315" lon="1.5911">
        <ele>181.83</ele>
        <time>2021-05-31T10:58:20Z</time>
      </trkpt>
      <trkpt lat="44.80323" lon="1.5911">
        <ele>184.23</ele>
        <time>2021-05-31T10:58:31Z</time>
      </trkpt>
      <trkpt lat="44.80325" lon="1.5911">
        <ele>183.75</ele>
        <time>2021-05-31T10:58:50Z</time>
      </trkpt>
      <trkpt lat="44.8033" lon="1.59111">
        <ele>184.71</ele>
        <time>2021-05-31T10:59:01Z</time>
      </trkpt>
      <trkpt lat="44.80335" lon="1.59111">
        <ele>186.15</ele>
        <time>2021-05-31T10:59:10Z</time>
      </trkpt>
      <trkpt lat="44.80342" lon="1.59109">
        <ele>187.59</ele>
        <time>2021-05-31T10:59:19Z</time>
      </trkpt>
      <trkpt lat="44.8035" lon="1.59108">
        <ele>190</ele>
        <time>2021-05-31T10:59:31Z</time>
      </trkpt>
      <trkpt lat="44.80356" lon="1.59107">
        <ele>191.44</ele>
        <time>2021-05-31T10:59:41Z</time>
      </trkpt>
      <trkpt lat="44.80364" lon="1.59106">
        <ele>193.36</ele>
        <time>2021-05-31T10:59:51Z</time>
      </trkpt>
      <trkpt lat="44.80367" lon="1.59105">
        <ele>193.84</ele>
        <time>2021-05-31T10:59:55Z</time>
      </trkpt>
      <trkpt lat="44.80369" lon="1.59105">
        <ele>193.84</ele>
        <time>2021-05-31T10:59:57Z</time>
      </trkpt>
      <trkpt lat="44.80372" lon="1.59105">
        <ele>194.32</ele>
        <time>2021-05-31T11:00:09Z</time>
      </trkpt>
      <trkpt lat="44.8038" lon="1.59104">
        <ele>196.25</ele>
        <time>2021-05-31T11:00:18Z</time>
      </trkpt>
      <trkpt lat="44.80384" lon="1.59105">
        <ele>196.25</ele>
        <time>2021-05-31T11:00:23Z</time>
      </trkpt>
      <trkpt lat="44.80391" lon="1.59107">
        <ele>197.69</ele>
        <time>2021-05-31T11:00:33Z</time>
      </trkpt>
      <trkpt lat="44.80399" lon="1.59106">
        <ele>199.13</ele>
        <time>2021-05-31T11:00:40Z</time>
      </trkpt>
      <trkpt lat="44.8041" lon="1.59109">
        <ele>200.57</ele>
        <time>2021-05-31T11:00:51Z</time>
      </trkpt>
      <trkpt lat="44.80417" lon="1.59104">
        <ele>202.01</ele>
        <time>2021-05-31T11:01:01Z</time>
      </trkpt>
      <trkpt lat="44.80413" lon="1.59094">
        <ele>203.46</ele>
        <time>2021-05-31T11:01:11Z</time>
      </trkpt>
      <trkpt lat="44.8041" lon="1.59091">
        <ele>203.46</ele>
        <time>2021-05-31T11:01:16Z</time>
      </trkpt>
      <trkpt lat="44.80401" lon="1.59082">
        <ele>204.9</ele>
        <time>2021-05-31T11:01:27Z</time>
      </trkpt>
      <trkpt lat="44.80399" lon="1.59083">
        <ele>205.86</ele>
        <time>2021-05-31T11:01:40Z</time>
      </trkpt>
      <trkpt lat="44.80399" lon="1.59081">
        <ele>206.34</ele>
        <time>2021-05-31T11:01:58Z</time>
      </trkpt>
      <trkpt lat="44.80399" lon="1.59081">
        <ele>206.34</ele>
        <time>2021-05-31T11:01:59Z</time>
      </trkpt>
      <trkpt lat="44.80399" lon="1.59081">
        <ele>206.34</ele>
        <time>2021-05-31T11:02:06Z</time>
      </trkpt>
      <trkpt lat="44.80399" lon="1.5908">
        <ele>205.38</ele>
        <time>2021-05-31T11:02:08Z</time>
      </trkpt>
      <trkpt lat="44.80399" lon="1.59079">
        <ele>204.9</ele>
        <time>2021-05-31T11:02:35Z</time>
      </trkpt>
      <trkpt lat="44.80398" lon="1.59078">
        <ele>204.9</ele>
        <time>2021-05-31T11:03:02Z</time>
      </trkpt>
      <trkpt lat="44.80398" lon="1.59077">
        <ele>204.9</ele>
        <time>2021-05-31T11:03:25Z</time>
      </trkpt>
      <trkpt lat="44.80398" lon="1.59078">
        <ele>206.34</ele>
        <time>2021-05-31T11:03:45Z</time>
      </trkpt>
      <trkpt lat="44.80403" lon="1.5908">
        <ele>206.34</ele>
        <time>2021-05-31T11:04:10Z</time>
      </trkpt>
      <trkpt lat="44.80402" lon="1.59081">
        <ele>206.34</ele>
        <time>2021-05-31T11:04:25Z</time>
      </trkpt>
      <trkpt lat="44.80403" lon="1.59082">
        <ele>206.34</ele>
        <time>2021-05-31T11:04:37Z</time>
      </trkpt>
      <trkpt lat="44.804" lon="1.59083">
        <ele>206.34</ele>
        <time>2021-05-31T11:04:54Z</time>
      </trkpt>
      <trkpt lat="44.80398" lon="1.59083">
        <ele>206.82</ele>
        <time>2021-05-31T11:05:12Z</time>
      </trkpt>
      <trkpt lat="44.80396" lon="1.59078">
        <ele>206.34</ele>
        <time>2021-05-31T11:05:27Z</time>
      </trkpt>
      <trkpt lat="44.80392" lon="1.59074">
        <ele>207.78</ele>
        <time>2021-05-31T11:05:34Z</time>
      </trkpt>
      <trkpt lat="44.80386" lon="1.59067">
        <ele>209.22</ele>
        <time>2021-05-31T11:05:45Z</time>
      </trkpt>
      <trkpt lat="44.80379" lon="1.59059">
        <ele>210.19</ele>
        <time>2021-05-31T11:05:56Z</time>
      </trkpt>
      <trkpt lat="44.80372" lon="1.5905">
        <ele>211.63</ele>
        <time>2021-05-31T11:06:07Z</time>
      </trkpt>
      <trkpt lat="44.80366" lon="1.5904">
        <ele>212.59</ele>
        <time>2021-05-31T11:06:18Z</time>
      </trkpt>
      <trkpt lat="44.80364" lon="1.59029">
        <ele>214.03</ele>
        <time>2021-05-31T11:06:28Z</time>
      </trkpt>
      <trkpt lat="44.80361" lon="1.59026">
        <ele>214.51</ele>
        <time>2021-05-31T11:06:39Z</time>
      </trkpt>
      <trkpt lat="44.80368" lon="1.59025">
        <ele>214.99</ele>
        <time>2021-05-31T11:06:47Z</time>
      </trkpt>
      <trkpt lat="44.80382" lon="1.59026">
        <ele>216.91</ele>
        <time>2021-05-31T11:07:00Z</time>
      </trkpt>
      <trkpt lat="44.80395" lon="1.59032">
        <ele>217.88</ele>
        <time>2021-05-31T11:07:12Z</time>
      </trkpt>
      <trkpt lat="44.80399" lon="1.59033">
        <ele>217.88</ele>
        <time>2021-05-31T11:07:16Z</time>
      </trkpt>
      <trkpt lat="44.80411" lon="1.59042">
        <ele>218.84</ele>
        <time>2021-05-31T11:07:28Z</time>
      </trkpt>
      <trkpt lat="44.80422" lon="1.59049">
        <ele>219.32</ele>
        <time>2021-05-31T11:07:40Z</time>
      </trkpt>
      <trkpt lat="44.80432" lon="1.59054">
        <ele>219.8</ele>
        <time>2021-05-31T11:07:50Z</time>
      </trkpt>
      <trkpt lat="44.80437" lon="1.59057">
        <ele>220.76</ele>
        <time>2021-05-31T11:07:54Z</time>
      </trkpt>
      <trkpt lat="44.8045" lon="1.59065">
        <ele>221.72</ele>
        <time>2021-05-31T11:08:07Z</time>
      </trkpt>
      <trkpt lat="44.80461" lon="1.59069">
        <ele>223.16</ele>
        <time>2021-05-31T11:08:18Z</time>
      </trkpt>
      <trkpt lat="44.80472" lon="1.59073">
        <ele>224.61</ele>
        <time>2021-05-31T11:08:29Z</time>
      </trkpt>
      <trkpt lat="44.80488" lon="1.59073">
        <ele>225.57</ele>
        <time>2021-05-31T11:08:43Z</time>
      </trkpt>
      <trkpt lat="44.80503" lon="1.59072">
        <ele>226.53</ele>
        <time>2021-05-31T11:08:56Z</time>
      </trkpt>
      <trkpt lat="44.80514" lon="1.59072">
        <ele>227.01</ele>
        <time>2021-05-31T11:09:06Z</time>
      </trkpt>
      <trkpt lat="44.80523" lon="1.59074">
        <ele>227.49</ele>
        <time>2021-05-31T11:09:15Z</time>
      </trkpt>
      <trkpt lat="44.80534" lon="1.59076">
        <ele>227.97</ele>
        <time>2021-05-31T11:09:26Z</time>
      </trkpt>
      <trkpt lat="44.80546" lon="1.59078">
        <ele>228.93</ele>
        <time>2021-05-31T11:09:36Z</time>
      </trkpt>
      <trkpt lat="44.80558" lon="1.59081">
        <ele>228.93</ele>
        <time>2021-05-31T11:09:46Z</time>
      </trkpt>
      <trkpt lat="44.80568" lon="1.59085">
        <ele>230.37</ele>
        <time>2021-05-31T11:09:55Z</time>
      </trkpt>
      <trkpt lat="44.80571" lon="1.59086">
        <ele>229.41</ele>
        <time>2021-05-31T11:09:57Z</time>
      </trkpt>
      <trkpt lat="44.80587" lon="1.59092">
        <ele>229.41</ele>
        <time>2021-05-31T11:10:10Z</time>
      </trkpt>
      <trkpt lat="44.80601" lon="1.59104">
        <ele>229.41</ele>
        <time>2021-05-31T11:10:23Z</time>
      </trkpt>
      <trkpt lat="44.80605" lon="1.59104">
        <ele>229.41</ele>
        <time>2021-05-31T11:10:32Z</time>
      </trkpt>
      <trkpt lat="44.80605" lon="1.59103">
        <ele>228.45</ele>
        <time>2021-05-31T11:10:42Z</time>
      </trkpt>
      <trkpt lat="44.80605" lon="1.59105">
        <ele>228.45</ele>
        <time>2021-05-31T11:10:55Z</time>
      </trkpt>
      <trkpt lat="44.80604" lon="1.59111">
        <ele>228.45</ele>
        <time>2021-05-31T11:11:01Z</time>
      </trkpt>
      <trkpt lat="44.80605" lon="1.59125">
        <ele>230.85</ele>
        <time>2021-05-31T11:11:12Z</time>
      </trkpt>
      <trkpt lat="44.80605" lon="1.59126">
        <ele>231.33</ele>
        <time>2021-05-31T11:11:13Z</time>
      </trkpt>
      <trkpt lat="44.80605" lon="1.59138">
        <ele>232.78</ele>
        <time>2021-05-31T11:11:23Z</time>
      </trkpt>
      <trkpt lat="44.80606" lon="1.59151">
        <ele>233.74</ele>
        <time>2021-05-31T11:11:31Z</time>
      </trkpt>
      <trkpt lat="44.80605" lon="1.59165">
        <ele>235.18</ele>
        <time>2021-05-31T11:11:42Z</time>
      </trkpt>
      <trkpt lat="44.80601" lon="1.59183">
        <ele>236.62</ele>
        <time>2021-05-31T11:11:55Z</time>
      </trkpt>
      <trkpt lat="44.80597" lon="1.59196">
        <ele>237.58</ele>
        <time>2021-05-31T11:12:05Z</time>
      </trkpt>
      <trkpt lat="44.80597" lon="1.59199">
        <ele>238.06</ele>
        <time>2021-05-31T11:12:07Z</time>
      </trkpt>
      <trkpt lat="44.80594" lon="1.59216">
        <ele>239.02</ele>
        <time>2021-05-31T11:12:18Z</time>
      </trkpt>
      <trkpt lat="44.80592" lon="1.5923">
        <ele>239.99</ele>
        <time>2021-05-31T11:12:28Z</time>
      </trkpt>
      <trkpt lat="44.80591" lon="1.59235">
        <ele>240.47</ele>
        <time>2021-05-31T11:12:32Z</time>
      </trkpt>
      <trkpt lat="44.80588" lon="1.59255">
        <ele>241.91</ele>
        <time>2021-05-31T11:12:45Z</time>
      </trkpt>
      <trkpt lat="44.80586" lon="1.59265">
        <ele>242.39</ele>
        <time>2021-05-31T11:12:52Z</time>
      </trkpt>
      <trkpt lat="44.80583" lon="1.59287">
        <ele>243.83</ele>
        <time>2021-05-31T11:13:06Z</time>
      </trkpt>
      <trkpt lat="44.80582" lon="1.59291">
        <ele>243.83</ele>
        <time>2021-05-31T11:13:09Z</time>
      </trkpt>
      <trkpt lat="44.8058" lon="1.59307">
        <ele>244.79</ele>
        <time>2021-05-31T11:13:20Z</time>
      </trkpt>
      <trkpt lat="44.80576" lon="1.59325">
        <ele>246.23</ele>
        <time>2021-05-31T11:13:32Z</time>
      </trkpt>
      <trkpt lat="44.80575" lon="1.59327">
        <ele>246.72</ele>
        <time>2021-05-31T11:13:43Z</time>
      </trkpt>
      <trkpt lat="44.80572" lon="1.5934">
        <ele>246.72</ele>
        <time>2021-05-31T11:13:54Z</time>
      </trkpt>
      <trkpt lat="44.80572" lon="1.59341">
        <ele>246.72</ele>
        <time>2021-05-31T11:13:55Z</time>
      </trkpt>
      <trkpt lat="44.80571" lon="1.59358">
        <ele>247.68</ele>
        <time>2021-05-31T11:14:06Z</time>
      </trkpt>
      <trkpt lat="44.8056" lon="1.59378">
        <ele>248.64</ele>
        <time>2021-05-31T11:14:20Z</time>
      </trkpt>
      <trkpt lat="44.80551" lon="1.59389">
        <ele>249.6</ele>
        <time>2021-05-31T11:14:31Z</time>
      </trkpt>
      <trkpt lat="44.80541" lon="1.5941">
        <ele>250.08</ele>
        <time>2021-05-31T11:14:45Z</time>
      </trkpt>
      <trkpt lat="44.80532" lon="1.59427">
        <ele>251.04</ele>
        <time>2021-05-31T11:14:58Z</time>
      </trkpt>
      <trkpt lat="44.80521" lon="1.59444">
        <ele>252.48</ele>
        <time>2021-05-31T11:15:11Z</time>
      </trkpt>
      <trkpt lat="44.80512" lon="1.59458">
        <ele>252.96</ele>
        <time>2021-05-31T11:15:23Z</time>
      </trkpt>
      <trkpt lat="44.80501" lon="1.59472">
        <ele>253.93</ele>
        <time>2021-05-31T11:15:35Z</time>
      </trkpt>
      <trkpt lat="44.80489" lon="1.59484">
        <ele>255.37</ele>
        <time>2021-05-31T11:15:48Z</time>
      </trkpt>
      <trkpt lat="44.80477" lon="1.59494">
        <ele>255.85</ele>
        <time>2021-05-31T11:16:02Z</time>
      </trkpt>
      <trkpt lat="44.80464" lon="1.59505">
        <ele>256.33</ele>
        <time>2021-05-31T11:16:14Z</time>
      </trkpt>
      <trkpt lat="44.80451" lon="1.59518">
        <ele>257.29</ele>
        <time>2021-05-31T11:16:26Z</time>
      </trkpt>
      <trkpt lat="44.80438" lon="1.59534">
        <ele>259.69</ele>
        <time>2021-05-31T11:16:40Z</time>
      </trkpt>
      <trkpt lat="44.80437" lon="1.59535">
        <ele>258.25</ele>
        <time>2021-05-31T11:16:41Z</time>
      </trkpt>
      <trkpt lat="44.80426" lon="1.5955">
        <ele>257.29</ele>
        <time>2021-05-31T11:16:53Z</time>
      </trkpt>
      <trkpt lat="44.80423" lon="1.59552">
        <ele>257.77</ele>
        <time>2021-05-31T11:17:05Z</time>
      </trkpt>
      <trkpt lat="44.80422" lon="1.59552">
        <ele>257.77</ele>
        <time>2021-05-31T11:17:13Z</time>
      </trkpt>
      <trkpt lat="44.8043" lon="1.59552">
        <ele>257.77</ele>
        <time>2021-05-31T11:17:20Z</time>
      </trkpt>
      <trkpt lat="44.80433" lon="1.59557">
        <ele>257.77</ele>
        <time>2021-05-31T11:17:25Z</time>
      </trkpt>
      <trkpt lat="44.80434" lon="1.59567">
        <ele>257.77</ele>
        <time>2021-05-31T11:17:32Z</time>
      </trkpt>
      <trkpt lat="44.80434" lon="1.5958">
        <ele>258.73</ele>
        <time>2021-05-31T11:17:40Z</time>
      </trkpt>
      <trkpt lat="44.80433" lon="1.59604">
        <ele>259.21</ele>
        <time>2021-05-31T11:17:53Z</time>
      </trkpt>
      <trkpt lat="44.80433" lon="1.59615">
        <ele>259.69</ele>
        <time>2021-05-31T11:17:59Z</time>
      </trkpt>
      <trkpt lat="44.80433" lon="1.59629">
        <ele>260.65</ele>
        <time>2021-05-31T11:18:08Z</time>
      </trkpt>
      <trkpt lat="44.80431" lon="1.59648">
        <ele>260.65</ele>
        <time>2021-05-31T11:18:20Z</time>
      </trkpt>
      <trkpt lat="44.80427" lon="1.59673">
        <ele>261.14</ele>
        <time>2021-05-31T11:18:34Z</time>
      </trkpt>
      <trkpt lat="44.80425" lon="1.59698">
        <ele>261.62</ele>
        <time>2021-05-31T11:18:47Z</time>
      </trkpt>
      <trkpt lat="44.80424" lon="1.59726">
        <ele>262.1</ele>
        <time>2021-05-31T11:19:02Z</time>
      </trkpt>
      <trkpt lat="44.80422" lon="1.5975">
        <ele>262.1</ele>
        <time>2021-05-31T11:19:16Z</time>
      </trkpt>
      <trkpt lat="44.80419" lon="1.59778">
        <ele>262.1</ele>
        <time>2021-05-31T11:19:33Z</time>
      </trkpt>
      <trkpt lat="44.80412" lon="1.59801">
        <ele>262.1</ele>
        <time>2021-05-31T11:19:48Z</time>
      </trkpt>
      <trkpt lat="44.80403" lon="1.5982">
        <ele>261.14</ele>
        <time>2021-05-31T11:20:01Z</time>
      </trkpt>
      <trkpt lat="44.80403" lon="1.59825">
        <ele>261.14</ele>
        <time>2021-05-31T11:20:04Z</time>
      </trkpt>
      <trkpt lat="44.80413" lon="1.59833">
        <ele>261.14</ele>
        <time>2021-05-31T11:20:14Z</time>
      </trkpt>
      <trkpt lat="44.80425" lon="1.59834">
        <ele>262.58</ele>
        <time>2021-05-31T11:20:24Z</time>
      </trkpt>
      <trkpt lat="44.80443" lon="1.59836">
        <ele>263.54</ele>
        <time>2021-05-31T11:20:38Z</time>
      </trkpt>
      <trkpt lat="44.80458" lon="1.59838">
        <ele>264.5</ele>
        <time>2021-05-31T11:20:51Z</time>
      </trkpt>
      <trkpt lat="44.80475" lon="1.5984">
        <ele>264.98</ele>
        <time>2021-05-31T11:21:05Z</time>
      </trkpt>
      <trkpt lat="44.80494" lon="1.59843">
        <ele>265.94</ele>
        <time>2021-05-31T11:21:19Z</time>
      </trkpt>
      <trkpt lat="44.80512" lon="1.59844">
        <ele>266.9</ele>
        <time>2021-05-31T11:21:33Z</time>
      </trkpt>
      <trkpt lat="44.80527" lon="1.59848">
        <ele>267.38</ele>
        <time>2021-05-31T11:21:45Z</time>
      </trkpt>
      <trkpt lat="44.80535" lon="1.5985">
        <ele>267.38</ele>
        <time>2021-05-31T11:21:56Z</time>
      </trkpt>
      <trkpt lat="44.80535" lon="1.5985">
        <ele>267.86</ele>
        <time>2021-05-31T11:22:11Z</time>
      </trkpt>
      <trkpt lat="44.80535" lon="1.5985">
        <ele>267.86</ele>
        <time>2021-05-31T11:22:27Z</time>
      </trkpt>
      <trkpt lat="44.80536" lon="1.5985">
        <ele>267.86</ele>
        <time>2021-05-31T11:22:51Z</time>
      </trkpt>
      <trkpt lat="44.80536" lon="1.59849">
        <ele>267.86</ele>
        <time>2021-05-31T11:23:05Z</time>
      </trkpt>
      <trkpt lat="44.80536" lon="1.5985">
        <ele>266.9</ele>
        <time>2021-05-31T11:23:29Z</time>
      </trkpt>
      <trkpt lat="44.80536" lon="1.59852">
        <ele>266.9</ele>
        <time>2021-05-31T11:23:42Z</time>
      </trkpt>
      <trkpt lat="44.80536" lon="1.59854">
        <ele>266.9</ele>
        <time>2021-05-31T11:23:44Z</time>
      </trkpt>
      <trkpt lat="44.80537" lon="1.59865">
        <ele>266.9</ele>
        <time>2021-05-31T11:23:56Z</time>
      </trkpt>
      <trkpt lat="44.80537" lon="1.59866">
        <ele>266.9</ele>
        <time>2021-05-31T11:24:11Z</time>
      </trkpt>
      <trkpt lat="44.80538" lon="1.59881">
        <ele>267.38</ele>
        <time>2021-05-31T11:24:21Z</time>
      </trkpt>
      <trkpt lat="44.80537" lon="1.599">
        <ele>268.35</ele>
        <time>2021-05-31T11:24:32Z</time>
      </trkpt>
      <trkpt lat="44.80537" lon="1.59921">
        <ele>268.83</ele>
        <time>2021-05-31T11:24:44Z</time>
      </trkpt>
      <trkpt lat="44.80537" lon="1.59944">
        <ele>269.31</ele>
        <time>2021-05-31T11:24:57Z</time>
      </trkpt>
      <trkpt lat="44.80536" lon="1.59969">
        <ele>269.31</ele>
        <time>2021-05-31T11:25:10Z</time>
      </trkpt>
      <trkpt lat="44.80535" lon="1.59994">
        <ele>270.27</ele>
        <time>2021-05-31T11:25:24Z</time>
      </trkpt>
      <trkpt lat="44.80535" lon="1.60019">
        <ele>270.75</ele>
        <time>2021-05-31T11:25:39Z</time>
      </trkpt>
      <trkpt lat="44.80535" lon="1.60048">
        <ele>270.75</ele>
        <time>2021-05-31T11:25:53Z</time>
      </trkpt>
      <trkpt lat="44.80534" lon="1.6006">
        <ele>270.75</ele>
        <time>2021-05-31T11:26:01Z</time>
      </trkpt>
      <trkpt lat="44.80531" lon="1.60092">
        <ele>270.75</ele>
        <time>2021-05-31T11:26:15Z</time>
      </trkpt>
      <trkpt lat="44.8053" lon="1.60115">
        <ele>271.23</ele>
        <time>2021-05-31T11:26:29Z</time>
      </trkpt>
      <trkpt lat="44.80528" lon="1.60142">
        <ele>271.23</ele>
        <time>2021-05-31T11:26:43Z</time>
      </trkpt>
      <trkpt lat="44.80524" lon="1.60157">
        <ele>271.71</ele>
        <time>2021-05-31T11:26:56Z</time>
      </trkpt>
      <trkpt lat="44.80524" lon="1.60158">
        <ele>271.71</ele>
        <time>2021-05-31T11:27:00Z</time>
      </trkpt>
      <trkpt lat="44.80525" lon="1.6017">
        <ele>271.71</ele>
        <time>2021-05-31T11:27:08Z</time>
      </trkpt>
      <trkpt lat="44.80523" lon="1.60208">
        <ele>272.19</ele>
        <time>2021-05-31T11:27:26Z</time>
      </trkpt>
      <trkpt lat="44.80522" lon="1.60234">
        <ele>272.19</ele>
        <time>2021-05-31T11:27:41Z</time>
      </trkpt>
      <trkpt lat="44.80519" lon="1.6026">
        <ele>272.19</ele>
        <time>2021-05-31T11:27:53Z</time>
      </trkpt>
      <trkpt lat="44.80519" lon="1.60283">
        <ele>272.19</ele>
        <time>2021-05-31T11:28:06Z</time>
      </trkpt>
      <trkpt lat="44.80517" lon="1.60296">
        <ele>270.75</ele>
        <time>2021-05-31T11:28:13Z</time>
      </trkpt>
      <trkpt lat="44.80514" lon="1.60317">
        <ele>270.27</ele>
        <time>2021-05-31T11:28:25Z</time>
      </trkpt>
      <trkpt lat="44.80513" lon="1.60336">
        <ele>269.31</ele>
        <time>2021-05-31T11:28:36Z</time>
      </trkpt>
      <trkpt lat="44.80508" lon="1.60367">
        <ele>268.83</ele>
        <time>2021-05-31T11:28:53Z</time>
      </trkpt>
      <trkpt lat="44.80503" lon="1.60392">
        <ele>267.38</ele>
        <time>2021-05-31T11:29:09Z</time>
      </trkpt>
      <trkpt lat="44.80498" lon="1.60416">
        <ele>266.42</ele>
        <time>2021-05-31T11:29:22Z</time>
      </trkpt>
      <trkpt lat="44.80495" lon="1.6044">
        <ele>264.5</ele>
        <time>2021-05-31T11:29:36Z</time>
      </trkpt>
      <trkpt lat="44.80493" lon="1.60465">
        <ele>262.58</ele>
        <time>2021-05-31T11:29:50Z</time>
      </trkpt>
      <trkpt lat="44.80495" lon="1.60489">
        <ele>261.62</ele>
        <time>2021-05-31T11:30:03Z</time>
      </trkpt>
      <trkpt lat="44.80497" lon="1.60501">
        <ele>261.62</ele>
        <time>2021-05-31T11:30:10Z</time>
      </trkpt>
      <trkpt lat="44.80499" lon="1.60528">
        <ele>259.21</ele>
        <time>2021-05-31T11:30:25Z</time>
      </trkpt>
      <trkpt lat="44.8049" lon="1.60551">
        <ele>258.73</ele>
        <time>2021-05-31T11:30:39Z</time>
      </trkpt>
      <trkpt lat="44.80482" lon="1.60569">
        <ele>258.73</ele>
        <time>2021-05-31T11:30:51Z</time>
      </trkpt>
      <trkpt lat="44.80472" lon="1.60589">
        <ele>258.73</ele>
        <time>2021-05-31T11:31:03Z</time>
      </trkpt>
      <trkpt lat="44.80468" lon="1.60606">
        <ele>258.73</ele>
        <time>2021-05-31T11:31:12Z</time>
      </trkpt>
      <trkpt lat="44.80461" lon="1.60629">
        <ele>258.73</ele>
        <time>2021-05-31T11:31:26Z</time>
      </trkpt>
      <trkpt lat="44.80455" lon="1.60637">
        <ele>258.73</ele>
        <time>2021-05-31T11:31:32Z</time>
      </trkpt>
      <trkpt lat="44.80445" lon="1.6065">
        <ele>258.73</ele>
        <time>2021-05-31T11:31:44Z</time>
      </trkpt>
      <trkpt lat="44.80427" lon="1.6066">
        <ele>259.21</ele>
        <time>2021-05-31T11:31:59Z</time>
      </trkpt>
      <trkpt lat="44.80421" lon="1.60665">
        <ele>259.69</ele>
        <time>2021-05-31T11:32:05Z</time>
      </trkpt>
      <trkpt lat="44.80406" lon="1.60681">
        <ele>259.69</ele>
        <time>2021-05-31T11:32:19Z</time>
      </trkpt>
      <trkpt lat="44.80403" lon="1.60683">
        <ele>260.17</ele>
        <time>2021-05-31T11:32:22Z</time>
      </trkpt>
      <trkpt lat="44.8039" lon="1.607">
        <ele>261.14</ele>
        <time>2021-05-31T11:32:36Z</time>
      </trkpt>
      <trkpt lat="44.80381" lon="1.60719">
        <ele>262.1</ele>
        <time>2021-05-31T11:32:48Z</time>
      </trkpt>
      <trkpt lat="44.80383" lon="1.60742">
        <ele>263.06</ele>
        <time>2021-05-31T11:33:01Z</time>
      </trkpt>
      <trkpt lat="44.80384" lon="1.60763">
        <ele>263.54</ele>
        <time>2021-05-31T11:33:12Z</time>
      </trkpt>
      <trkpt lat="44.80384" lon="1.60775">
        <ele>264.02</ele>
        <time>2021-05-31T11:33:23Z</time>
      </trkpt>
      <trkpt lat="44.80385" lon="1.60777">
        <ele>264.5</ele>
        <time>2021-05-31T11:33:33Z</time>
      </trkpt>
      <trkpt lat="44.80386" lon="1.60785">
        <ele>264.5</ele>
        <time>2021-05-31T11:33:38Z</time>
      </trkpt>
      <trkpt lat="44.80384" lon="1.60809">
        <ele>264.5</ele>
        <time>2021-05-31T11:33:52Z</time>
      </trkpt>
      <trkpt lat="44.80382" lon="1.60833">
        <ele>264.5</ele>
        <time>2021-05-31T11:34:05Z</time>
      </trkpt>
      <trkpt lat="44.80381" lon="1.60856">
        <ele>264.5</ele>
        <time>2021-05-31T11:34:18Z</time>
      </trkpt>
      <trkpt lat="44.80379" lon="1.60876">
        <ele>263.54</ele>
        <time>2021-05-31T11:34:29Z</time>
      </trkpt>
      <trkpt lat="44.80376" lon="1.609">
        <ele>263.54</ele>
        <time>2021-05-31T11:34:41Z</time>
      </trkpt>
      <trkpt lat="44.80375" lon="1.60918">
        <ele>263.54</ele>
        <time>2021-05-31T11:34:53Z</time>
      </trkpt>
      <trkpt lat="44.80376" lon="1.60922">
        <ele>263.54</ele>
        <time>2021-05-31T11:34:56Z</time>
      </trkpt>
      <trkpt lat="44.80376" lon="1.60945">
        <ele>263.54</ele>
        <time>2021-05-31T11:35:08Z</time>
      </trkpt>
      <trkpt lat="44.80376" lon="1.60952">
        <ele>264.02</ele>
        <time>2021-05-31T11:35:15Z</time>
      </trkpt>
      <trkpt lat="44.80378" lon="1.60968">
        <ele>264.02</ele>
        <time>2021-05-31T11:35:24Z</time>
      </trkpt>
      <trkpt lat="44.80379" lon="1.60972">
        <ele>262.58</ele>
        <time>2021-05-31T11:35:27Z</time>
      </trkpt>
      <trkpt lat="44.80385" lon="1.60996">
        <ele>262.58</ele>
        <time>2021-05-31T11:35:39Z</time>
      </trkpt>
      <trkpt lat="44.80386" lon="1.61">
        <ele>262.58</ele>
        <time>2021-05-31T11:35:41Z</time>
      </trkpt>
      <trkpt lat="44.80387" lon="1.6102">
        <ele>262.58</ele>
        <time>2021-05-31T11:35:52Z</time>
      </trkpt>
      <trkpt lat="44.80389" lon="1.61028">
        <ele>262.58</ele>
        <time>2021-05-31T11:35:57Z</time>
      </trkpt>
      <trkpt lat="44.80397" lon="1.61054">
        <ele>262.58</ele>
        <time>2021-05-31T11:36:11Z</time>
      </trkpt>
      <trkpt lat="44.80403" lon="1.61066">
        <ele>262.58</ele>
        <time>2021-05-31T11:36:20Z</time>
      </trkpt>
      <trkpt lat="44.80407" lon="1.61073">
        <ele>262.58</ele>
        <time>2021-05-31T11:36:24Z</time>
      </trkpt>
      <trkpt lat="44.80415" lon="1.61096">
        <ele>262.58</ele>
        <time>2021-05-31T11:36:38Z</time>
      </trkpt>
      <trkpt lat="44.80417" lon="1.61101">
        <ele>262.58</ele>
        <time>2021-05-31T11:36:42Z</time>
      </trkpt>
      <trkpt lat="44.80428" lon="1.61117">
        <ele>264.02</ele>
        <time>2021-05-31T11:36:53Z</time>
      </trkpt>
      <trkpt lat="44.80436" lon="1.61135">
        <ele>264.5</ele>
        <time>2021-05-31T11:37:05Z</time>
      </trkpt>
      <trkpt lat="44.80443" lon="1.61154">
        <ele>265.46</ele>
        <time>2021-05-31T11:37:17Z</time>
      </trkpt>
      <trkpt lat="44.80444" lon="1.61163">
        <ele>266.9</ele>
        <time>2021-05-31T11:37:21Z</time>
      </trkpt>
      <trkpt lat="44.80447" lon="1.61187">
        <ele>266.42</ele>
        <time>2021-05-31T11:37:32Z</time>
      </trkpt>
      <trkpt lat="44.8045" lon="1.6121">
        <ele>266.42</ele>
        <time>2021-05-31T11:37:45Z</time>
      </trkpt>
      <trkpt lat="44.8045" lon="1.61236">
        <ele>266.9</ele>
        <time>2021-05-31T11:37:59Z</time>
      </trkpt>
      <trkpt lat="44.80448" lon="1.61249">
        <ele>267.38</ele>
        <time>2021-05-31T11:38:07Z</time>
      </trkpt>
      <trkpt lat="44.80438" lon="1.61266">
        <ele>267.38</ele>
        <time>2021-05-31T11:38:22Z</time>
      </trkpt>
      <trkpt lat="44.80435" lon="1.61269">
        <ele>267.38</ele>
        <time>2021-05-31T11:38:26Z</time>
      </trkpt>
      <trkpt lat="44.80431" lon="1.61273">
        <ele>267.38</ele>
        <time>2021-05-31T11:38:30Z</time>
      </trkpt>
      <trkpt lat="44.80416" lon="1.61289">
        <ele>267.38</ele>
        <time>2021-05-31T11:38:45Z</time>
      </trkpt>
      <trkpt lat="44.80405" lon="1.613">
        <ele>267.38</ele>
        <time>2021-05-31T11:38:56Z</time>
      </trkpt>
      <trkpt lat="44.80388" lon="1.61318">
        <ele>267.38</ele>
        <time>2021-05-31T11:39:12Z</time>
      </trkpt>
      <trkpt lat="44.80374" lon="1.61332">
        <ele>267.38</ele>
        <time>2021-05-31T11:39:25Z</time>
      </trkpt>
      <trkpt lat="44.80361" lon="1.61348">
        <ele>267.38</ele>
        <time>2021-05-31T11:39:38Z</time>
      </trkpt>
      <trkpt lat="44.8036" lon="1.61349">
        <ele>267.38</ele>
        <time>2021-05-31T11:39:39Z</time>
      </trkpt>
      <trkpt lat="44.80349" lon="1.61365">
        <ele>267.38</ele>
        <time>2021-05-31T11:39:51Z</time>
      </trkpt>
      <trkpt lat="44.80337" lon="1.61385">
        <ele>267.38</ele>
        <time>2021-05-31T11:40:05Z</time>
      </trkpt>
      <trkpt lat="44.80328" lon="1.61401">
        <ele>267.38</ele>
        <time>2021-05-31T11:40:16Z</time>
      </trkpt>
      <trkpt lat="44.80316" lon="1.61423">
        <ele>267.38</ele>
        <time>2021-05-31T11:40:30Z</time>
      </trkpt>
      <trkpt lat="44.80303" lon="1.61449">
        <ele>267.38</ele>
        <time>2021-05-31T11:40:47Z</time>
      </trkpt>
      <trkpt lat="44.80294" lon="1.61466">
        <ele>266.42</ele>
        <time>2021-05-31T11:40:59Z</time>
      </trkpt>
      <trkpt lat="44.80283" lon="1.61487">
        <ele>265.94</ele>
        <time>2021-05-31T11:41:13Z</time>
      </trkpt>
      <trkpt lat="44.80275" lon="1.61507">
        <ele>265.46</ele>
        <time>2021-05-31T11:41:24Z</time>
      </trkpt>
      <trkpt lat="44.80265" lon="1.61528">
        <ele>265.46</ele>
        <time>2021-05-31T11:41:37Z</time>
      </trkpt>
      <trkpt lat="44.80256" lon="1.61547">
        <ele>264.5</ele>
        <time>2021-05-31T11:41:50Z</time>
      </trkpt>
      <trkpt lat="44.80245" lon="1.6157">
        <ele>263.54</ele>
        <time>2021-05-31T11:42:04Z</time>
      </trkpt>
      <trkpt lat="44.80242" lon="1.61576">
        <ele>263.06</ele>
        <time>2021-05-31T11:42:08Z</time>
      </trkpt>
      <trkpt lat="44.80235" lon="1.616">
        <ele>263.06</ele>
        <time>2021-05-31T11:42:22Z</time>
      </trkpt>
      <trkpt lat="44.80229" lon="1.61619">
        <ele>263.06</ele>
        <time>2021-05-31T11:42:34Z</time>
      </trkpt>
      <trkpt lat="44.80221" lon="1.61634">
        <ele>263.06</ele>
        <time>2021-05-31T11:42:46Z</time>
      </trkpt>
      <trkpt lat="44.80216" lon="1.61629">
        <ele>262.58</ele>
        <time>2021-05-31T11:42:51Z</time>
      </trkpt>
      <trkpt lat="44.80207" lon="1.61642">
        <ele>261.62</ele>
        <time>2021-05-31T11:43:02Z</time>
      </trkpt>
      <trkpt lat="44.80193" lon="1.61655">
        <ele>261.62</ele>
        <time>2021-05-31T11:43:15Z</time>
      </trkpt>
      <trkpt lat="44.80182" lon="1.61661">
        <ele>261.62</ele>
        <time>2021-05-31T11:43:26Z</time>
      </trkpt>
      <trkpt lat="44.80171" lon="1.61677">
        <ele>261.14</ele>
        <time>2021-05-31T11:43:37Z</time>
      </trkpt>
      <trkpt lat="44.80169" lon="1.6168">
        <ele>261.14</ele>
        <time>2021-05-31T11:43:39Z</time>
      </trkpt>
      <trkpt lat="44.80164" lon="1.61687">
        <ele>261.14</ele>
        <time>2021-05-31T11:43:43Z</time>
      </trkpt>
      <trkpt lat="44.80156" lon="1.61692">
        <ele>261.14</ele>
        <time>2021-05-31T11:43:51Z</time>
      </trkpt>
      <trkpt lat="44.8015" lon="1.61689">
        <ele>261.14</ele>
        <time>2021-05-31T11:43:57Z</time>
      </trkpt>
      <trkpt lat="44.80145" lon="1.61683">
        <ele>261.14</ele>
        <time>2021-05-31T11:44:02Z</time>
      </trkpt>
      <trkpt lat="44.80137" lon="1.61675">
        <ele>260.17</ele>
        <time>2021-05-31T11:44:10Z</time>
      </trkpt>
      <trkpt lat="44.80132" lon="1.61673">
        <ele>260.17</ele>
        <time>2021-05-31T11:44:14Z</time>
      </trkpt>
      <trkpt lat="44.80115" lon="1.61665">
        <ele>260.17</ele>
        <time>2021-05-31T11:44:26Z</time>
      </trkpt>
      <trkpt lat="44.80095" lon="1.61659">
        <ele>259.21</ele>
        <time>2021-05-31T11:44:41Z</time>
      </trkpt>
      <trkpt lat="44.80079" lon="1.61654">
        <ele>258.73</ele>
        <time>2021-05-31T11:44:53Z</time>
      </trkpt>
      <trkpt lat="44.80069" lon="1.61651">
        <ele>258.25</ele>
        <time>2021-05-31T11:45:07Z</time>
      </trkpt>
      <trkpt lat="44.80064" lon="1.61653">
        <ele>257.77</ele>
        <time>2021-05-31T11:45:16Z</time>
      </trkpt>
      <trkpt lat="44.80049" lon="1.61654">
        <ele>257.29</ele>
        <time>2021-05-31T11:45:28Z</time>
      </trkpt>
      <trkpt lat="44.8003" lon="1.61654">
        <ele>256.81</ele>
        <time>2021-05-31T11:45:41Z</time>
      </trkpt>
      <trkpt lat="44.80015" lon="1.61656">
        <ele>256.33</ele>
        <time>2021-05-31T11:45:53Z</time>
      </trkpt>
      <trkpt lat="44.8" lon="1.61661">
        <ele>255.85</ele>
        <time>2021-05-31T11:46:05Z</time>
      </trkpt>
      <trkpt lat="44.8" lon="1.61662">
        <ele>255.85</ele>
        <time>2021-05-31T11:46:15Z</time>
      </trkpt>
      <trkpt lat="44.80004" lon="1.61662">
        <ele>255.85</ele>
        <time>2021-05-31T11:46:19Z</time>
      </trkpt>
      <trkpt lat="44.80019" lon="1.61662">
        <ele>255.85</ele>
        <time>2021-05-31T11:46:31Z</time>
      </trkpt>
      <trkpt lat="44.80031" lon="1.6166">
        <ele>255.85</ele>
        <time>2021-05-31T11:46:41Z</time>
      </trkpt>
      <trkpt lat="44.80044" lon="1.61665">
        <ele>255.85</ele>
        <time>2021-05-31T11:46:51Z</time>
      </trkpt>
      <trkpt lat="44.80045" lon="1.61669">
        <ele>255.85</ele>
        <time>2021-05-31T11:46:58Z</time>
      </trkpt>
      <trkpt lat="44.80033" lon="1.61669">
        <ele>254.41</ele>
        <time>2021-05-31T11:47:09Z</time>
      </trkpt>
      <trkpt lat="44.8002" lon="1.61672">
        <ele>251.52</ele>
        <time>2021-05-31T11:47:19Z</time>
      </trkpt>
      <trkpt lat="44.80015" lon="1.61683">
        <ele>250.08</ele>
        <time>2021-05-31T11:47:31Z</time>
      </trkpt>
      <trkpt lat="44.80016" lon="1.61683">
        <ele>249.12</ele>
        <time>2021-05-31T11:47:34Z</time>
      </trkpt>
      <trkpt lat="44.80023" lon="1.6168">
        <ele>247.2</ele>
        <time>2021-05-31T11:47:44Z</time>
      </trkpt>
      <trkpt lat="44.80033" lon="1.61675">
        <ele>244.31</ele>
        <time>2021-05-31T11:47:55Z</time>
      </trkpt>
      <trkpt lat="44.80035" lon="1.61676">
        <ele>244.31</ele>
        <time>2021-05-31T11:47:57Z</time>
      </trkpt>
      <trkpt lat="44.80049" lon="1.61686">
        <ele>243.83</ele>
        <time>2021-05-31T11:48:09Z</time>
      </trkpt>
      <trkpt lat="44.8005" lon="1.6169">
        <ele>242.87</ele>
        <time>2021-05-31T11:48:19Z</time>
      </trkpt>
      <trkpt lat="44.80045" lon="1.61685">
        <ele>241.43</ele>
        <time>2021-05-31T11:48:25Z</time>
      </trkpt>
      <trkpt lat="44.80037" lon="1.61679">
        <ele>240.95</ele>
        <time>2021-05-31T11:48:33Z</time>
      </trkpt>
      <trkpt lat="44.80042" lon="1.6169">
        <ele>238.54</ele>
        <time>2021-05-31T11:48:44Z</time>
      </trkpt>
      <trkpt lat="44.80046" lon="1.61698">
        <ele>237.58</ele>
        <time>2021-05-31T11:48:55Z</time>
      </trkpt>
      <trkpt lat="44.8004" lon="1.617">
        <ele>235.18</ele>
        <time>2021-05-31T11:49:06Z</time>
      </trkpt>
      <trkpt lat="44.8003" lon="1.61688">
        <ele>233.74</ele>
        <time>2021-05-31T11:49:17Z</time>
      </trkpt>
      <trkpt lat="44.80029" lon="1.61691">
        <ele>232.3</ele>
        <time>2021-05-31T11:49:23Z</time>
      </trkpt>
      <trkpt lat="44.80031" lon="1.61698">
        <ele>231.81</ele>
        <time>2021-05-31T11:49:29Z</time>
      </trkpt>
      <trkpt lat="44.80036" lon="1.6171">
        <ele>230.85</ele>
        <time>2021-05-31T11:49:39Z</time>
      </trkpt>
      <trkpt lat="44.80033" lon="1.61713">
        <ele>230.37</ele>
        <time>2021-05-31T11:49:44Z</time>
      </trkpt>
      <trkpt lat="44.80033" lon="1.61711">
        <ele>229.89</ele>
        <time>2021-05-31T11:49:46Z</time>
      </trkpt>
      <trkpt lat="44.80029" lon="1.61706">
        <ele>228.93</ele>
        <time>2021-05-31T11:49:52Z</time>
      </trkpt>
      <trkpt lat="44.80026" lon="1.61708">
        <ele>228.45</ele>
        <time>2021-05-31T11:49:55Z</time>
      </trkpt>
      <trkpt lat="44.80016" lon="1.61705">
        <ele>227.49</ele>
        <time>2021-05-31T11:50:02Z</time>
      </trkpt>
      <trkpt lat="44.80012" lon="1.61707">
        <ele>227.49</ele>
        <time>2021-05-31T11:50:05Z</time>
      </trkpt>
      <trkpt lat="44.80001" lon="1.61711">
        <ele>226.53</ele>
        <time>2021-05-31T11:50:12Z</time>
      </trkpt>
      <trkpt lat="44.79991" lon="1.61725">
        <ele>225.09</ele>
        <time>2021-05-31T11:50:26Z</time>
      </trkpt>
      <trkpt lat="44.79995" lon="1.6172">
        <ele>222.2</ele>
        <time>2021-05-31T11:50:38Z</time>
      </trkpt>
      <trkpt lat="44.80007" lon="1.61722">
        <ele>220.28</ele>
        <time>2021-05-31T11:50:48Z</time>
      </trkpt>
      <trkpt lat="44.79997" lon="1.61722">
        <ele>218.36</ele>
        <time>2021-05-31T11:50:59Z</time>
      </trkpt>
      <trkpt lat="44.79993" lon="1.6173">
        <ele>217.4</ele>
        <time>2021-05-31T11:51:05Z</time>
      </trkpt>
      <trkpt lat="44.7999" lon="1.61739">
        <ele>216.43</ele>
        <time>2021-05-31T11:51:13Z</time>
      </trkpt>
      <trkpt lat="44.79994" lon="1.61734">
        <ele>214.99</ele>
        <time>2021-05-31T11:51:18Z</time>
      </trkpt>
      <trkpt lat="44.80004" lon="1.61737">
        <ele>212.59</ele>
        <time>2021-05-31T11:51:32Z</time>
      </trkpt>
      <trkpt lat="44.8" lon="1.61737">
        <ele>211.15</ele>
        <time>2021-05-31T11:51:40Z</time>
      </trkpt>
      <trkpt lat="44.79996" lon="1.61738">
        <ele>209.7</ele>
        <time>2021-05-31T11:51:50Z</time>
      </trkpt>
      <trkpt lat="44.80003" lon="1.6174">
        <ele>207.78</ele>
        <time>2021-05-31T11:52:00Z</time>
      </trkpt>
      <trkpt lat="44.80005" lon="1.61743">
        <ele>207.3</ele>
        <time>2021-05-31T11:52:02Z</time>
      </trkpt>
      <trkpt lat="44.80008" lon="1.61755">
        <ele>205.86</ele>
        <time>2021-05-31T11:52:10Z</time>
      </trkpt>
      <trkpt lat="44.80005" lon="1.61755">
        <ele>204.9</ele>
        <time>2021-05-31T11:52:15Z</time>
      </trkpt>
      <trkpt lat="44.80003" lon="1.61753">
        <ele>203.94</ele>
        <time>2021-05-31T11:52:17Z</time>
      </trkpt>
      <trkpt lat="44.79996" lon="1.61751">
        <ele>202.49</ele>
        <time>2021-05-31T11:52:25Z</time>
      </trkpt>
      <trkpt lat="44.79985" lon="1.6175">
        <ele>202.01</ele>
        <time>2021-05-31T11:52:35Z</time>
      </trkpt>
      <trkpt lat="44.79982" lon="1.61751">
        <ele>202.01</ele>
        <time>2021-05-31T11:52:37Z</time>
      </trkpt>
      <trkpt lat="44.79959" lon="1.61757">
        <ele>202.01</ele>
        <time>2021-05-31T11:52:47Z</time>
      </trkpt>
      <trkpt lat="44.7996" lon="1.61727">
        <ele>200.57</ele>
        <time>2021-05-31T11:53:14Z</time>
      </trkpt>
      <trkpt lat="44.79955" lon="1.61729">
        <ele>197.69</ele>
        <time>2021-05-31T11:53:23Z</time>
      </trkpt>
      <trkpt lat="44.79936" lon="1.61736">
        <ele>194.32</ele>
        <time>2021-05-31T11:53:35Z</time>
      </trkpt>
      <trkpt lat="44.79929" lon="1.61738">
        <ele>193.36</ele>
        <time>2021-05-31T11:53:37Z</time>
      </trkpt>
      <trkpt lat="44.79911" lon="1.61751">
        <ele>191.92</ele>
        <time>2021-05-31T11:53:46Z</time>
      </trkpt>
      <trkpt lat="44.79907" lon="1.61755">
        <ele>190.96</ele>
        <time>2021-05-31T11:53:55Z</time>
      </trkpt>
      <trkpt lat="44.79907" lon="1.6176">
        <ele>189.52</ele>
        <time>2021-05-31T11:54:04Z</time>
      </trkpt>
      <trkpt lat="44.79914" lon="1.61757">
        <ele>189.04</ele>
        <time>2021-05-31T11:54:11Z</time>
      </trkpt>
      <trkpt lat="44.79917" lon="1.61758">
        <ele>188.56</ele>
        <time>2021-05-31T11:54:13Z</time>
      </trkpt>
      <trkpt lat="44.79921" lon="1.61766">
        <ele>185.67</ele>
        <time>2021-05-31T11:54:21Z</time>
      </trkpt>
      <trkpt lat="44.7992" lon="1.61772">
        <ele>183.75</ele>
        <time>2021-05-31T11:54:28Z</time>
      </trkpt>
      <trkpt lat="44.79913" lon="1.61774">
        <ele>181.35</ele>
        <time>2021-05-31T11:54:37Z</time>
      </trkpt>
      <trkpt lat="44.79907" lon="1.61771">
        <ele>177.98</ele>
        <time>2021-05-31T11:54:48Z</time>
      </trkpt>
      <trkpt lat="44.79901" lon="1.61772">
        <ele>174.62</ele>
        <time>2021-05-31T11:54:59Z</time>
      </trkpt>
      <trkpt lat="44.79893" lon="1.61771">
        <ele>171.25</ele>
        <time>2021-05-31T11:55:12Z</time>
      </trkpt>
      <trkpt lat="44.79888" lon="1.61769">
        <ele>169.33</ele>
        <time>2021-05-31T11:55:21Z</time>
      </trkpt>
      <trkpt lat="44.79887" lon="1.61774">
        <ele>166.93</ele>
        <time>2021-05-31T11:55:31Z</time>
      </trkpt>
      <trkpt lat="44.79891" lon="1.61781">
        <ele>166.93</ele>
        <time>2021-05-31T11:55:42Z</time>
      </trkpt>
      <trkpt lat="44.79904" lon="1.61787">
        <ele>166.93</ele>
        <time>2021-05-31T11:55:52Z</time>
      </trkpt>
      <trkpt lat="44.79911" lon="1.61791">
        <ele>166.93</ele>
        <time>2021-05-31T11:55:57Z</time>
      </trkpt>
      <trkpt lat="44.79915" lon="1.61791">
        <ele>166.93</ele>
        <time>2021-05-31T11:56:00Z</time>
      </trkpt>
      <trkpt lat="44.7994" lon="1.61796">
        <ele>166.93</ele>
        <time>2021-05-31T11:56:16Z</time>
      </trkpt>
      <trkpt lat="44.7996" lon="1.6181">
        <ele>166.93</ele>
        <time>2021-05-31T11:56:30Z</time>
      </trkpt>
      <trkpt lat="44.7997" lon="1.61818">
        <ele>166.93</ele>
        <time>2021-05-31T11:56:37Z</time>
      </trkpt>
      <trkpt lat="44.79965" lon="1.61832">
        <ele>166.45</ele>
        <time>2021-05-31T11:56:42Z</time>
      </trkpt>
      <trkpt lat="44.79968" lon="1.61846">
        <ele>165.96</ele>
        <time>2021-05-31T11:56:49Z</time>
      </trkpt>
      <trkpt lat="44.79982" lon="1.61853">
        <ele>165</ele>
        <time>2021-05-31T11:57:00Z</time>
      </trkpt>
      <trkpt lat="44.79995" lon="1.61861">
        <ele>163.08</ele>
        <time>2021-05-31T11:57:11Z</time>
      </trkpt>
      <trkpt lat="44.80001" lon="1.61862">
        <ele>162.12</ele>
        <time>2021-05-31T11:57:15Z</time>
      </trkpt>
      <trkpt lat="44.80015" lon="1.6187">
        <ele>161.64</ele>
        <time>2021-05-31T11:57:25Z</time>
      </trkpt>
      <trkpt lat="44.80023" lon="1.61874">
        <ele>160.68</ele>
        <time>2021-05-31T11:57:30Z</time>
      </trkpt>
      <trkpt lat="44.80035" lon="1.61887">
        <ele>158.75</ele>
        <time>2021-05-31T11:57:43Z</time>
      </trkpt>
      <trkpt lat="44.80038" lon="1.61897">
        <ele>157.31</ele>
        <time>2021-05-31T11:57:53Z</time>
      </trkpt>
      <trkpt lat="44.80034" lon="1.61898">
        <ele>154.91</ele>
        <time>2021-05-31T11:58:02Z</time>
      </trkpt>
      <trkpt lat="44.80039" lon="1.61901">
        <ele>152.03</ele>
        <time>2021-05-31T11:58:13Z</time>
      </trkpt>
      <trkpt lat="44.80042" lon="1.61908">
        <ele>150.1</ele>
        <time>2021-05-31T11:58:22Z</time>
      </trkpt>
      <trkpt lat="44.80042" lon="1.61909">
        <ele>150.1</ele>
        <time>2021-05-31T11:58:23Z</time>
      </trkpt>
      <trkpt lat="44.80034" lon="1.61913">
        <ele>149.14</ele>
        <time>2021-05-31T11:58:33Z</time>
      </trkpt>
      <trkpt lat="44.80027" lon="1.61913">
        <ele>146.74</ele>
        <time>2021-05-31T11:58:41Z</time>
      </trkpt>
      <trkpt lat="44.80019" lon="1.61911">
        <ele>143.85</ele>
        <time>2021-05-31T11:58:52Z</time>
      </trkpt>
      <trkpt lat="44.80012" lon="1.6191">
        <ele>142.41</ele>
        <time>2021-05-31T11:59:03Z</time>
      </trkpt>
      <trkpt lat="44.80002" lon="1.6191">
        <ele>139.53</ele>
        <time>2021-05-31T11:59:14Z</time>
      </trkpt>
      <trkpt lat="44.80002" lon="1.61911">
        <ele>139.53</ele>
        <time>2021-05-31T11:59:16Z</time>
      </trkpt>
      <trkpt lat="44.79999" lon="1.61915">
        <ele>139.05</ele>
        <time>2021-05-31T11:59:20Z</time>
      </trkpt>
      <trkpt lat="44.79994" lon="1.61916">
        <ele>139.05</ele>
        <time>2021-05-31T11:59:24Z</time>
      </trkpt>
      <trkpt lat="44.79977" lon="1.61913">
        <ele>139.05</ele>
        <time>2021-05-31T11:59:37Z</time>
      </trkpt>
      <trkpt lat="44.79963" lon="1.61908">
        <ele>138.57</ele>
        <time>2021-05-31T11:59:50Z</time>
      </trkpt>
      <trkpt lat="44.79955" lon="1.61898">
        <ele>138.09</ele>
        <time>2021-05-31T12:00:01Z</time>
      </trkpt>
      <trkpt lat="44.79948" lon="1.61893">
        <ele>137.61</ele>
        <time>2021-05-31T12:00:12Z</time>
      </trkpt>
      <trkpt lat="44.79934" lon="1.61879">
        <ele>137.61</ele>
        <time>2021-05-31T12:00:24Z</time>
      </trkpt>
      <trkpt lat="44.79922" lon="1.61876">
        <ele>136.64</ele>
        <time>2021-05-31T12:00:30Z</time>
      </trkpt>
      <trkpt lat="44.79914" lon="1.61874">
        <ele>136.16</ele>
        <time>2021-05-31T12:00:37Z</time>
      </trkpt>
      <trkpt lat="44.79902" lon="1.61873">
        <ele>136.16</ele>
        <time>2021-05-31T12:00:46Z</time>
      </trkpt>
      <trkpt lat="44.79889" lon="1.61875">
        <ele>136.16</ele>
        <time>2021-05-31T12:00:56Z</time>
      </trkpt>
      <trkpt lat="44.79875" lon="1.61872">
        <ele>136.16</ele>
        <time>2021-05-31T12:01:08Z</time>
      </trkpt>
      <trkpt lat="44.79871" lon="1.61867">
        <ele>135.68</ele>
        <time>2021-05-31T12:01:20Z</time>
      </trkpt>
      <trkpt lat="44.79869" lon="1.61866">
        <ele>134.24</ele>
        <time>2021-05-31T12:01:32Z</time>
      </trkpt>
      <trkpt lat="44.79869" lon="1.61863">
        <ele>136.64</ele>
        <time>2021-05-31T12:01:46Z</time>
      </trkpt>
      <trkpt lat="44.79877" lon="1.61852">
        <ele>136.64</ele>
        <time>2021-05-31T12:02:00Z</time>
      </trkpt>
      <trkpt lat="44.79875" lon="1.61849">
        <ele>136.64</ele>
        <time>2021-05-31T12:02:26Z</time>
      </trkpt>
      <trkpt lat="44.79869" lon="1.61853">
        <ele>135.2</ele>
        <time>2021-05-31T12:02:45Z</time>
      </trkpt>
      <trkpt lat="44.79869" lon="1.61858">
        <ele>135.68</ele>
        <time>2021-05-31T12:03:07Z</time>
      </trkpt>
    </trkseg>
  </trk>
</gpx>